<?xml version="1.0" encoding="UTF-8" standalone="no" ?>
<gpx xmlns="http://www.topografix.com/GPX/1/1" xmlns:xsi="http://www.w3.org/2001/XMLSchema-instance" xsi:schemaLocation="http://www.topografix.com/GPX/1/1 http://www.topografix.com/GPX/1/1/gpx.xsd" version="1.1" creator="VisuGPX - https://www.visugpx.com">
  <metadata>
    <name>Marsannay</name>
    <desc><![CDATA[Ail des ours et muguet]]></desc>
  </metadata>
  <trk>
    <name><![CDATA[Corcelles-les-Monts Course à pied]]></name>
    <trkseg>
      <trkpt lat="47.28326" lon="4.9572">
        <ele>356</ele>
        <time>2015-04-25T06:45:14.000Z</time>
      </trkpt>
      <trkpt lat="47.28324" lon="4.95718">
        <ele>356.4</ele>
        <time>2015-04-25T06:45:17.000Z</time>
      </trkpt>
      <trkpt lat="47.28315" lon="4.95705">
        <ele>356.8</ele>
        <time>2015-04-25T06:45:25.000Z</time>
      </trkpt>
      <trkpt lat="47.28312" lon="4.95701">
        <ele>356.4</ele>
        <time>2015-04-25T06:45:27.000Z</time>
      </trkpt>
      <trkpt lat="47.28306" lon="4.95689">
        <ele>355.4</ele>
        <time>2015-04-25T06:45:33.000Z</time>
      </trkpt>
      <trkpt lat="47.28302" lon="4.95683">
        <ele>356.6</ele>
        <time>2015-04-25T06:45:36.000Z</time>
      </trkpt>
      <trkpt lat="47.28298" lon="4.95675">
        <ele>357.8</ele>
        <time>2015-04-25T06:45:41.000Z</time>
      </trkpt>
      <trkpt lat="47.28297" lon="4.95671">
        <ele>358</ele>
        <time>2015-04-25T06:45:43.000Z</time>
      </trkpt>
      <trkpt lat="47.28294" lon="4.95663">
        <ele>358.6</ele>
        <time>2015-04-25T06:45:48.000Z</time>
      </trkpt>
      <trkpt lat="47.28291" lon="4.95658">
        <ele>359</ele>
        <time>2015-04-25T06:45:52.000Z</time>
      </trkpt>
      <trkpt lat="47.28291" lon="4.95655">
        <ele>359.1</ele>
        <time>2015-04-25T06:45:54.000Z</time>
      </trkpt>
      <trkpt lat="47.28288" lon="4.95649">
        <ele>358.9</ele>
        <time>2015-04-25T06:45:58.000Z</time>
      </trkpt>
      <trkpt lat="47.28288" lon="4.95646">
        <ele>358.8</ele>
        <time>2015-04-25T06:45:59.000Z</time>
      </trkpt>
      <trkpt lat="47.28285" lon="4.95638">
        <ele>358.1</ele>
        <time>2015-04-25T06:46:03.000Z</time>
      </trkpt>
      <trkpt lat="47.28279" lon="4.95631">
        <ele>357.6</ele>
        <time>2015-04-25T06:46:09.000Z</time>
      </trkpt>
      <trkpt lat="47.28274" lon="4.95624">
        <ele>358.7</ele>
        <time>2015-04-25T06:46:14.000Z</time>
      </trkpt>
      <trkpt lat="47.2827" lon="4.95616">
        <ele>359.8</ele>
        <time>2015-04-25T06:46:18.000Z</time>
      </trkpt>
      <trkpt lat="47.28266" lon="4.95605">
        <ele>360.6</ele>
        <time>2015-04-25T06:46:23.000Z</time>
      </trkpt>
      <trkpt lat="47.28262" lon="4.95603">
        <ele>361.2</ele>
        <time>2015-04-25T06:46:26.000Z</time>
      </trkpt>
      <trkpt lat="47.28261" lon="4.95599">
        <ele>361.2</ele>
        <time>2015-04-25T06:46:28.000Z</time>
      </trkpt>
      <trkpt lat="47.28253" lon="4.95586">
        <ele>359.8</ele>
        <time>2015-04-25T06:46:35.000Z</time>
      </trkpt>
      <trkpt lat="47.2825" lon="4.9558">
        <ele>359.3</ele>
        <time>2015-04-25T06:46:39.000Z</time>
      </trkpt>
      <trkpt lat="47.28249" lon="4.95578">
        <ele>359.7</ele>
        <time>2015-04-25T06:46:40.000Z</time>
      </trkpt>
      <trkpt lat="47.28243" lon="4.95572">
        <ele>361.4</ele>
        <time>2015-04-25T06:46:46.000Z</time>
      </trkpt>
      <trkpt lat="47.28243" lon="4.95571">
        <ele>361.6</ele>
        <time>2015-04-25T06:46:47.000Z</time>
      </trkpt>
      <trkpt lat="47.28238" lon="4.9556">
        <ele>362.1</ele>
        <time>2015-04-25T06:46:54.000Z</time>
      </trkpt>
      <trkpt lat="47.28236" lon="4.95557">
        <ele>362.1</ele>
        <time>2015-04-25T06:46:55.000Z</time>
      </trkpt>
      <trkpt lat="47.28228" lon="4.95545">
        <ele>362.5</ele>
        <time>2015-04-25T06:47:00.000Z</time>
      </trkpt>
      <trkpt lat="47.28228" lon="4.95544">
        <ele>362.4</ele>
        <time>2015-04-25T06:47:01.000Z</time>
      </trkpt>
      <trkpt lat="47.28226" lon="4.9554">
        <ele>362</ele>
        <time>2015-04-25T06:47:02.000Z</time>
      </trkpt>
      <trkpt lat="47.28224" lon="4.95535">
        <ele>361.2</ele>
        <time>2015-04-25T06:47:05.000Z</time>
      </trkpt>
      <trkpt lat="47.28219" lon="4.95526">
        <ele>361.7</ele>
        <time>2015-04-25T06:47:11.000Z</time>
      </trkpt>
      <trkpt lat="47.28216" lon="4.95523">
        <ele>362.7</ele>
        <time>2015-04-25T06:47:13.000Z</time>
      </trkpt>
      <trkpt lat="47.28213" lon="4.95519">
        <ele>363.8</ele>
        <time>2015-04-25T06:47:16.000Z</time>
      </trkpt>
      <trkpt lat="47.28207" lon="4.95509">
        <ele>365.2</ele>
        <time>2015-04-25T06:47:23.000Z</time>
      </trkpt>
      <trkpt lat="47.28201" lon="4.95501">
        <ele>365.3</ele>
        <time>2015-04-25T06:47:29.000Z</time>
      </trkpt>
      <trkpt lat="47.28199" lon="4.95493">
        <ele>365.1</ele>
        <time>2015-04-25T06:47:33.000Z</time>
      </trkpt>
      <trkpt lat="47.28195" lon="4.95484">
        <ele>364.3</ele>
        <time>2015-04-25T06:47:37.000Z</time>
      </trkpt>
      <trkpt lat="47.28193" lon="4.95475">
        <ele>364.1</ele>
        <time>2015-04-25T06:47:41.000Z</time>
      </trkpt>
      <trkpt lat="47.28191" lon="4.95471">
        <ele>364.4</ele>
        <time>2015-04-25T06:47:43.000Z</time>
      </trkpt>
      <trkpt lat="47.2819" lon="4.95466">
        <ele>365</ele>
        <time>2015-04-25T06:47:46.000Z</time>
      </trkpt>
      <trkpt lat="47.28188" lon="4.95461">
        <ele>365.7</ele>
        <time>2015-04-25T06:47:49.000Z</time>
      </trkpt>
      <trkpt lat="47.28184" lon="4.95452">
        <ele>366.9</ele>
        <time>2015-04-25T06:47:54.000Z</time>
      </trkpt>
      <trkpt lat="47.28182" lon="4.95447">
        <ele>367.2</ele>
        <time>2015-04-25T06:47:56.000Z</time>
      </trkpt>
      <trkpt lat="47.2818" lon="4.95439">
        <ele>367.9</ele>
        <time>2015-04-25T06:48:01.000Z</time>
      </trkpt>
      <trkpt lat="47.28179" lon="4.95437">
        <ele>368</ele>
        <time>2015-04-25T06:48:02.000Z</time>
      </trkpt>
      <trkpt lat="47.28179" lon="4.95436">
        <ele>368</ele>
        <time>2015-04-25T06:48:04.000Z</time>
      </trkpt>
      <trkpt lat="47.28173" lon="4.95424">
        <ele>368.1</ele>
        <time>2015-04-25T06:48:10.000Z</time>
      </trkpt>
      <trkpt lat="47.28172" lon="4.9542">
        <ele>367.8</ele>
        <time>2015-04-25T06:48:12.000Z</time>
      </trkpt>
      <trkpt lat="47.28171" lon="4.95415">
        <ele>367.4</ele>
        <time>2015-04-25T06:48:14.000Z</time>
      </trkpt>
      <trkpt lat="47.28168" lon="4.95409">
        <ele>367</ele>
        <time>2015-04-25T06:48:17.000Z</time>
      </trkpt>
      <trkpt lat="47.28168" lon="4.95406">
        <ele>366.8</ele>
        <time>2015-04-25T06:48:19.000Z</time>
      </trkpt>
      <trkpt lat="47.28162" lon="4.95395">
        <ele>368.2</ele>
        <time>2015-04-25T06:48:25.000Z</time>
      </trkpt>
      <trkpt lat="47.28159" lon="4.95388">
        <ele>369.4</ele>
        <time>2015-04-25T06:48:29.000Z</time>
      </trkpt>
      <trkpt lat="47.28156" lon="4.9538">
        <ele>371</ele>
        <time>2015-04-25T06:48:34.000Z</time>
      </trkpt>
      <trkpt lat="47.28155" lon="4.95378">
        <ele>371.3</ele>
        <time>2015-04-25T06:48:35.000Z</time>
      </trkpt>
      <trkpt lat="47.28148" lon="4.95362">
        <ele>372.7</ele>
        <time>2015-04-25T06:48:43.000Z</time>
      </trkpt>
      <trkpt lat="47.28144" lon="4.9535">
        <ele>372.3</ele>
        <time>2015-04-25T06:48:49.000Z</time>
      </trkpt>
      <trkpt lat="47.28143" lon="4.95348">
        <ele>372.1</ele>
        <time>2015-04-25T06:48:50.000Z</time>
      </trkpt>
      <trkpt lat="47.28141" lon="4.95338">
        <ele>370.9</ele>
        <time>2015-04-25T06:48:56.000Z</time>
      </trkpt>
      <trkpt lat="47.2814" lon="4.95337">
        <ele>370.7</ele>
        <time>2015-04-25T06:48:57.000Z</time>
      </trkpt>
      <trkpt lat="47.2814" lon="4.95335">
        <ele>370.4</ele>
        <time>2015-04-25T06:48:58.000Z</time>
      </trkpt>
      <trkpt lat="47.2814" lon="4.95334">
        <ele>370.3</ele>
        <time>2015-04-25T06:48:59.000Z</time>
      </trkpt>
      <trkpt lat="47.28137" lon="4.95325">
        <ele>371.2</ele>
        <time>2015-04-25T06:49:05.000Z</time>
      </trkpt>
      <trkpt lat="47.28137" lon="4.95324">
        <ele>371.3</ele>
        <time>2015-04-25T06:49:06.000Z</time>
      </trkpt>
      <trkpt lat="47.28134" lon="4.95317">
        <ele>372.4</ele>
        <time>2015-04-25T06:49:09.000Z</time>
      </trkpt>
      <trkpt lat="47.28132" lon="4.95307">
        <ele>373.1</ele>
        <time>2015-04-25T06:49:14.000Z</time>
      </trkpt>
      <trkpt lat="47.28131" lon="4.95302">
        <ele>373.5</ele>
        <time>2015-04-25T06:49:17.000Z</time>
      </trkpt>
      <trkpt lat="47.28131" lon="4.95299">
        <ele>373.6</ele>
        <time>2015-04-25T06:49:19.000Z</time>
      </trkpt>
      <trkpt lat="47.28131" lon="4.95294">
        <ele>373.8</ele>
        <time>2015-04-25T06:49:22.000Z</time>
      </trkpt>
      <trkpt lat="47.28128" lon="4.95282">
        <ele>374.5</ele>
        <time>2015-04-25T06:49:29.000Z</time>
      </trkpt>
      <trkpt lat="47.28127" lon="4.95273">
        <ele>374.9</ele>
        <time>2015-04-25T06:49:33.000Z</time>
      </trkpt>
      <trkpt lat="47.28126" lon="4.95262">
        <ele>375.3</ele>
        <time>2015-04-25T06:49:38.000Z</time>
      </trkpt>
      <trkpt lat="47.28125" lon="4.9526">
        <ele>375.4</ele>
        <time>2015-04-25T06:49:39.000Z</time>
      </trkpt>
      <trkpt lat="47.28124" lon="4.95252">
        <ele>375.8</ele>
        <time>2015-04-25T06:49:43.000Z</time>
      </trkpt>
      <trkpt lat="47.28122" lon="4.95241">
        <ele>376.1</ele>
        <time>2015-04-25T06:49:49.000Z</time>
      </trkpt>
      <trkpt lat="47.28121" lon="4.95235">
        <ele>376.3</ele>
        <time>2015-04-25T06:49:52.000Z</time>
      </trkpt>
      <trkpt lat="47.28122" lon="4.9522">
        <ele>376.2</ele>
        <time>2015-04-25T06:49:59.000Z</time>
      </trkpt>
      <trkpt lat="47.28122" lon="4.95213">
        <ele>376.3</ele>
        <time>2015-04-25T06:50:02.000Z</time>
      </trkpt>
      <trkpt lat="47.28121" lon="4.95201">
        <ele>376.9</ele>
        <time>2015-04-25T06:50:08.000Z</time>
      </trkpt>
      <trkpt lat="47.28121" lon="4.95186">
        <ele>377.5</ele>
        <time>2015-04-25T06:50:16.000Z</time>
      </trkpt>
      <trkpt lat="47.28122" lon="4.95168">
        <ele>378</ele>
        <time>2015-04-25T06:50:24.000Z</time>
      </trkpt>
      <trkpt lat="47.28122" lon="4.95164">
        <ele>378.1</ele>
        <time>2015-04-25T06:50:26.000Z</time>
      </trkpt>
      <trkpt lat="47.28122" lon="4.9516">
        <ele>378.2</ele>
        <time>2015-04-25T06:50:28.000Z</time>
      </trkpt>
      <trkpt lat="47.28122" lon="4.95152">
        <ele>378.3</ele>
        <time>2015-04-25T06:50:32.000Z</time>
      </trkpt>
      <trkpt lat="47.28123" lon="4.95144">
        <ele>378.3</ele>
        <time>2015-04-25T06:50:36.000Z</time>
      </trkpt>
      <trkpt lat="47.28125" lon="4.95132">
        <ele>378.5</ele>
        <time>2015-04-25T06:50:42.000Z</time>
      </trkpt>
      <trkpt lat="47.28125" lon="4.95127">
        <ele>378.7</ele>
        <time>2015-04-25T06:50:45.000Z</time>
      </trkpt>
      <trkpt lat="47.28125" lon="4.95121">
        <ele>378.9</ele>
        <time>2015-04-25T06:50:48.000Z</time>
      </trkpt>
      <trkpt lat="47.28128" lon="4.95109">
        <ele>378.9</ele>
        <time>2015-04-25T06:50:53.000Z</time>
      </trkpt>
      <trkpt lat="47.28128" lon="4.95107">
        <ele>378.9</ele>
        <time>2015-04-25T06:50:54.000Z</time>
      </trkpt>
      <trkpt lat="47.28129" lon="4.95094">
        <ele>379.3</ele>
        <time>2015-04-25T06:51:00.000Z</time>
      </trkpt>
      <trkpt lat="47.28131" lon="4.95089">
        <ele>379.1</ele>
        <time>2015-04-25T06:51:02.000Z</time>
      </trkpt>
      <trkpt lat="47.28131" lon="4.95086">
        <ele>379.2</ele>
        <time>2015-04-25T06:51:04.000Z</time>
      </trkpt>
      <trkpt lat="47.28131" lon="4.95068">
        <ele>380.3</ele>
        <time>2015-04-25T06:51:12.000Z</time>
      </trkpt>
      <trkpt lat="47.28132" lon="4.95066">
        <ele>380.4</ele>
        <time>2015-04-25T06:51:13.000Z</time>
      </trkpt>
      <trkpt lat="47.28134" lon="4.95054">
        <ele>380.9</ele>
        <time>2015-04-25T06:51:19.000Z</time>
      </trkpt>
      <trkpt lat="47.28135" lon="4.95044">
        <ele>381.1</ele>
        <time>2015-04-25T06:51:24.000Z</time>
      </trkpt>
      <trkpt lat="47.28137" lon="4.95035">
        <ele>381.3</ele>
        <time>2015-04-25T06:51:29.000Z</time>
      </trkpt>
      <trkpt lat="47.28138" lon="4.95025">
        <ele>381.6</ele>
        <time>2015-04-25T06:51:34.000Z</time>
      </trkpt>
      <trkpt lat="47.28138" lon="4.95023">
        <ele>381.7</ele>
        <time>2015-04-25T06:51:35.000Z</time>
      </trkpt>
      <trkpt lat="47.28139" lon="4.9502">
        <ele>381.6</ele>
        <time>2015-04-25T06:51:37.000Z</time>
      </trkpt>
      <trkpt lat="47.2814" lon="4.95014">
        <ele>382</ele>
        <time>2015-04-25T06:51:40.000Z</time>
      </trkpt>
      <trkpt lat="47.2814" lon="4.95006">
        <ele>382.5</ele>
        <time>2015-04-25T06:51:44.000Z</time>
      </trkpt>
      <trkpt lat="47.28141" lon="4.94999">
        <ele>383</ele>
        <time>2015-04-25T06:51:48.000Z</time>
      </trkpt>
      <trkpt lat="47.28142" lon="4.94984">
        <ele>384.9</ele>
        <time>2015-04-25T06:51:55.000Z</time>
      </trkpt>
      <trkpt lat="47.28142" lon="4.94981">
        <ele>385.1</ele>
        <time>2015-04-25T06:51:56.000Z</time>
      </trkpt>
      <trkpt lat="47.28143" lon="4.94977">
        <ele>385.5</ele>
        <time>2015-04-25T06:51:58.000Z</time>
      </trkpt>
      <trkpt lat="47.28145" lon="4.94967">
        <ele>386.4</ele>
        <time>2015-04-25T06:52:03.000Z</time>
      </trkpt>
      <trkpt lat="47.28145" lon="4.94964">
        <ele>386.6</ele>
        <time>2015-04-25T06:52:04.000Z</time>
      </trkpt>
      <trkpt lat="47.28146" lon="4.94955">
        <ele>387.3</ele>
        <time>2015-04-25T06:52:08.000Z</time>
      </trkpt>
      <trkpt lat="47.28149" lon="4.94941">
        <ele>388.1</ele>
        <time>2015-04-25T06:52:15.000Z</time>
      </trkpt>
      <trkpt lat="47.28148" lon="4.94929">
        <ele>389.4</ele>
        <time>2015-04-25T06:52:20.000Z</time>
      </trkpt>
      <trkpt lat="47.28148" lon="4.94927">
        <ele>389.6</ele>
        <time>2015-04-25T06:52:21.000Z</time>
      </trkpt>
      <trkpt lat="47.2815" lon="4.94917">
        <ele>390</ele>
        <time>2015-04-25T06:52:25.000Z</time>
      </trkpt>
      <trkpt lat="47.28153" lon="4.94901">
        <ele>390.5</ele>
        <time>2015-04-25T06:52:32.000Z</time>
      </trkpt>
      <trkpt lat="47.28155" lon="4.9489">
        <ele>390.5</ele>
        <time>2015-04-25T06:52:37.000Z</time>
      </trkpt>
      <trkpt lat="47.28155" lon="4.94885">
        <ele>390.7</ele>
        <time>2015-04-25T06:52:39.000Z</time>
      </trkpt>
      <trkpt lat="47.28156" lon="4.94879">
        <ele>390.9</ele>
        <time>2015-04-25T06:52:42.000Z</time>
      </trkpt>
      <trkpt lat="47.28157" lon="4.94866">
        <ele>391.9</ele>
        <time>2015-04-25T06:52:49.000Z</time>
      </trkpt>
      <trkpt lat="47.28157" lon="4.94859">
        <ele>392.3</ele>
        <time>2015-04-25T06:52:53.000Z</time>
      </trkpt>
      <trkpt lat="47.28157" lon="4.94856">
        <ele>392.4</ele>
        <time>2015-04-25T06:52:55.000Z</time>
      </trkpt>
      <trkpt lat="47.28158" lon="4.94848">
        <ele>393</ele>
        <time>2015-04-25T06:53:01.000Z</time>
      </trkpt>
      <trkpt lat="47.28159" lon="4.94842">
        <ele>392.9</ele>
        <time>2015-04-25T06:53:04.000Z</time>
      </trkpt>
      <trkpt lat="47.28159" lon="4.94837">
        <ele>393.1</ele>
        <time>2015-04-25T06:53:06.000Z</time>
      </trkpt>
      <trkpt lat="47.2816" lon="4.94829">
        <ele>393</ele>
        <time>2015-04-25T06:53:10.000Z</time>
      </trkpt>
      <trkpt lat="47.28158" lon="4.94815">
        <ele>394.9</ele>
        <time>2015-04-25T06:53:17.000Z</time>
      </trkpt>
      <trkpt lat="47.28157" lon="4.94813">
        <ele>395.5</ele>
        <time>2015-04-25T06:53:18.000Z</time>
      </trkpt>
      <trkpt lat="47.28157" lon="4.94807">
        <ele>395.9</ele>
        <time>2015-04-25T06:53:21.000Z</time>
      </trkpt>
      <trkpt lat="47.28155" lon="4.94794">
        <ele>397.8</ele>
        <time>2015-04-25T06:53:27.000Z</time>
      </trkpt>
      <trkpt lat="47.28155" lon="4.94791">
        <ele>398.2</ele>
        <time>2015-04-25T06:53:28.000Z</time>
      </trkpt>
      <trkpt lat="47.28155" lon="4.94787">
        <ele>398.7</ele>
        <time>2015-04-25T06:53:30.000Z</time>
      </trkpt>
      <trkpt lat="47.28154" lon="4.94779">
        <ele>399.9</ele>
        <time>2015-04-25T06:53:35.000Z</time>
      </trkpt>
      <trkpt lat="47.28154" lon="4.94771">
        <ele>400.1</ele>
        <time>2015-04-25T06:53:43.000Z</time>
      </trkpt>
      <trkpt lat="47.28154" lon="4.94768">
        <ele>400.2</ele>
        <time>2015-04-25T06:53:45.000Z</time>
      </trkpt>
      <trkpt lat="47.28154" lon="4.94761">
        <ele>400.8</ele>
        <time>2015-04-25T06:53:49.000Z</time>
      </trkpt>
      <trkpt lat="47.28155" lon="4.94757">
        <ele>400.3</ele>
        <time>2015-04-25T06:53:51.000Z</time>
      </trkpt>
      <trkpt lat="47.28157" lon="4.94751">
        <ele>400</ele>
        <time>2015-04-25T06:53:55.000Z</time>
      </trkpt>
      <trkpt lat="47.28156" lon="4.94742">
        <ele>401.1</ele>
        <time>2015-04-25T06:54:01.000Z</time>
      </trkpt>
      <trkpt lat="47.28156" lon="4.94741">
        <ele>401.3</ele>
        <time>2015-04-25T06:54:02.000Z</time>
      </trkpt>
      <trkpt lat="47.28155" lon="4.94739">
        <ele>401.7</ele>
        <time>2015-04-25T06:54:03.000Z</time>
      </trkpt>
      <trkpt lat="47.28155" lon="4.9473">
        <ele>402.7</ele>
        <time>2015-04-25T06:54:08.000Z</time>
      </trkpt>
      <trkpt lat="47.28155" lon="4.94728">
        <ele>402.9</ele>
        <time>2015-04-25T06:54:09.000Z</time>
      </trkpt>
      <trkpt lat="47.28155" lon="4.94718">
        <ele>403.5</ele>
        <time>2015-04-25T06:54:15.000Z</time>
      </trkpt>
      <trkpt lat="47.28154" lon="4.94715">
        <ele>403.8</ele>
        <time>2015-04-25T06:54:17.000Z</time>
      </trkpt>
      <trkpt lat="47.28156" lon="4.94707">
        <ele>403.2</ele>
        <time>2015-04-25T06:54:22.000Z</time>
      </trkpt>
      <trkpt lat="47.28154" lon="4.94698">
        <ele>404.1</ele>
        <time>2015-04-25T06:54:27.000Z</time>
      </trkpt>
      <trkpt lat="47.28154" lon="4.94695">
        <ele>404.3</ele>
        <time>2015-04-25T06:54:28.000Z</time>
      </trkpt>
      <trkpt lat="47.28154" lon="4.94691">
        <ele>404.6</ele>
        <time>2015-04-25T06:54:30.000Z</time>
      </trkpt>
      <trkpt lat="47.28152" lon="4.94681">
        <ele>405.8</ele>
        <time>2015-04-25T06:54:36.000Z</time>
      </trkpt>
      <trkpt lat="47.28152" lon="4.9467">
        <ele>406.4</ele>
        <time>2015-04-25T06:54:41.000Z</time>
      </trkpt>
      <trkpt lat="47.28152" lon="4.94659">
        <ele>407</ele>
        <time>2015-04-25T06:54:46.000Z</time>
      </trkpt>
      <trkpt lat="47.28151" lon="4.94653">
        <ele>408.3</ele>
        <time>2015-04-25T06:54:50.000Z</time>
      </trkpt>
      <trkpt lat="47.28149" lon="4.94643">
        <ele>409.6</ele>
        <time>2015-04-25T06:54:54.000Z</time>
      </trkpt>
      <trkpt lat="47.28149" lon="4.9464">
        <ele>410.2</ele>
        <time>2015-04-25T06:54:55.000Z</time>
      </trkpt>
      <trkpt lat="47.28148" lon="4.94634">
        <ele>411.2</ele>
        <time>2015-04-25T06:54:57.000Z</time>
      </trkpt>
      <trkpt lat="47.28148" lon="4.94628">
        <ele>411.8</ele>
        <time>2015-04-25T06:55:00.000Z</time>
      </trkpt>
      <trkpt lat="47.28149" lon="4.94618">
        <ele>412.4</ele>
        <time>2015-04-25T06:55:04.000Z</time>
      </trkpt>
      <trkpt lat="47.28148" lon="4.94609">
        <ele>413.5</ele>
        <time>2015-04-25T06:55:08.000Z</time>
      </trkpt>
      <trkpt lat="47.28149" lon="4.94605">
        <ele>413.9</ele>
        <time>2015-04-25T06:55:10.000Z</time>
      </trkpt>
      <trkpt lat="47.28149" lon="4.94603">
        <ele>413.9</ele>
        <time>2015-04-25T06:55:11.000Z</time>
      </trkpt>
      <trkpt lat="47.28147" lon="4.94592">
        <ele>416</ele>
        <time>2015-04-25T06:55:16.000Z</time>
      </trkpt>
      <trkpt lat="47.28146" lon="4.94588">
        <ele>416.8</ele>
        <time>2015-04-25T06:55:19.000Z</time>
      </trkpt>
      <trkpt lat="47.28146" lon="4.94584">
        <ele>417.2</ele>
        <time>2015-04-25T06:55:21.000Z</time>
      </trkpt>
      <trkpt lat="47.28145" lon="4.94578">
        <ele>417.5</ele>
        <time>2015-04-25T06:55:24.000Z</time>
      </trkpt>
      <trkpt lat="47.28145" lon="4.94575">
        <ele>417.6</ele>
        <time>2015-04-25T06:55:26.000Z</time>
      </trkpt>
      <trkpt lat="47.28144" lon="4.94573">
        <ele>417.8</ele>
        <time>2015-04-25T06:55:28.000Z</time>
      </trkpt>
      <trkpt lat="47.28144" lon="4.9457">
        <ele>417.7</ele>
        <time>2015-04-25T06:55:31.000Z</time>
      </trkpt>
      <trkpt lat="47.28142" lon="4.94563">
        <ele>418</ele>
        <time>2015-04-25T06:55:38.000Z</time>
      </trkpt>
      <trkpt lat="47.2814" lon="4.94559">
        <ele>418.1</ele>
        <time>2015-04-25T06:55:42.000Z</time>
      </trkpt>
      <trkpt lat="47.28137" lon="4.9455">
        <ele>419.1</ele>
        <time>2015-04-25T06:55:47.000Z</time>
      </trkpt>
      <trkpt lat="47.28136" lon="4.94542">
        <ele>419.1</ele>
        <time>2015-04-25T06:55:51.000Z</time>
      </trkpt>
      <trkpt lat="47.28134" lon="4.94535">
        <ele>419.1</ele>
        <time>2015-04-25T06:55:55.000Z</time>
      </trkpt>
      <trkpt lat="47.28131" lon="4.94523">
        <ele>421</ele>
        <time>2015-04-25T06:56:00.000Z</time>
      </trkpt>
      <trkpt lat="47.2813" lon="4.94519">
        <ele>421.9</ele>
        <time>2015-04-25T06:56:02.000Z</time>
      </trkpt>
      <trkpt lat="47.28129" lon="4.94514">
        <ele>423.5</ele>
        <time>2015-04-25T06:56:05.000Z</time>
      </trkpt>
      <trkpt lat="47.2813" lon="4.94505">
        <ele>423.3</ele>
        <time>2015-04-25T06:56:10.000Z</time>
      </trkpt>
      <trkpt lat="47.28131" lon="4.94502">
        <ele>423</ele>
        <time>2015-04-25T06:56:12.000Z</time>
      </trkpt>
      <trkpt lat="47.28131" lon="4.94497">
        <ele>423.4</ele>
        <time>2015-04-25T06:56:16.000Z</time>
      </trkpt>
      <trkpt lat="47.2813" lon="4.9449">
        <ele>424.7</ele>
        <time>2015-04-25T06:56:22.000Z</time>
      </trkpt>
      <trkpt lat="47.2813" lon="4.9449">
        <ele>424.7</ele>
        <time>2015-04-25T06:56:23.000Z</time>
      </trkpt>
      <trkpt lat="47.28129" lon="4.94484">
        <ele>425.5</ele>
        <time>2015-04-25T06:56:29.000Z</time>
      </trkpt>
      <trkpt lat="47.2813" lon="4.9448">
        <ele>425.2</ele>
        <time>2015-04-25T06:56:33.000Z</time>
      </trkpt>
      <trkpt lat="47.28128" lon="4.94475">
        <ele>426.6</ele>
        <time>2015-04-25T06:56:37.000Z</time>
      </trkpt>
      <trkpt lat="47.28128" lon="4.94467">
        <ele>427.6</ele>
        <time>2015-04-25T06:56:42.000Z</time>
      </trkpt>
      <trkpt lat="47.28127" lon="4.94465">
        <ele>428.1</ele>
        <time>2015-04-25T06:56:43.000Z</time>
      </trkpt>
      <trkpt lat="47.28126" lon="4.94455">
        <ele>430.5</ele>
        <time>2015-04-25T06:56:49.000Z</time>
      </trkpt>
      <trkpt lat="47.28125" lon="4.94453">
        <ele>430.9</ele>
        <time>2015-04-25T06:56:50.000Z</time>
      </trkpt>
      <trkpt lat="47.28123" lon="4.94449">
        <ele>432.1</ele>
        <time>2015-04-25T06:56:53.000Z</time>
      </trkpt>
      <trkpt lat="47.28121" lon="4.94446">
        <ele>433.1</ele>
        <time>2015-04-25T06:56:56.000Z</time>
      </trkpt>
      <trkpt lat="47.28118" lon="4.94437">
        <ele>434.6</ele>
        <time>2015-04-25T06:57:01.000Z</time>
      </trkpt>
      <trkpt lat="47.28113" lon="4.94423">
        <ele>434.7</ele>
        <time>2015-04-25T06:57:10.000Z</time>
      </trkpt>
      <trkpt lat="47.28113" lon="4.94422">
        <ele>434.6</ele>
        <time>2015-04-25T06:57:11.000Z</time>
      </trkpt>
      <trkpt lat="47.2811" lon="4.94414">
        <ele>434.6</ele>
        <time>2015-04-25T06:57:16.000Z</time>
      </trkpt>
      <trkpt lat="47.28108" lon="4.94409">
        <ele>435.6</ele>
        <time>2015-04-25T06:57:19.000Z</time>
      </trkpt>
      <trkpt lat="47.28107" lon="4.94407">
        <ele>436</ele>
        <time>2015-04-25T06:57:21.000Z</time>
      </trkpt>
      <trkpt lat="47.28106" lon="4.944">
        <ele>436.5</ele>
        <time>2015-04-25T06:57:26.000Z</time>
      </trkpt>
      <trkpt lat="47.28105" lon="4.94398">
        <ele>436.9</ele>
        <time>2015-04-25T06:57:28.000Z</time>
      </trkpt>
      <trkpt lat="47.28102" lon="4.9439">
        <ele>438.1</ele>
        <time>2015-04-25T06:57:33.000Z</time>
      </trkpt>
      <trkpt lat="47.28099" lon="4.94383">
        <ele>439.3</ele>
        <time>2015-04-25T06:57:38.000Z</time>
      </trkpt>
      <trkpt lat="47.28098" lon="4.9438">
        <ele>439.8</ele>
        <time>2015-04-25T06:57:40.000Z</time>
      </trkpt>
      <trkpt lat="47.28095" lon="4.94376">
        <ele>440.9</ele>
        <time>2015-04-25T06:57:44.000Z</time>
      </trkpt>
      <trkpt lat="47.28089" lon="4.94368">
        <ele>442.3</ele>
        <time>2015-04-25T06:57:50.000Z</time>
      </trkpt>
      <trkpt lat="47.28088" lon="4.94367">
        <ele>442.5</ele>
        <time>2015-04-25T06:57:51.000Z</time>
      </trkpt>
      <trkpt lat="47.28086" lon="4.94365">
        <ele>442.7</ele>
        <time>2015-04-25T06:57:53.000Z</time>
      </trkpt>
      <trkpt lat="47.28086" lon="4.94363">
        <ele>442.7</ele>
        <time>2015-04-25T06:57:54.000Z</time>
      </trkpt>
      <trkpt lat="47.28085" lon="4.94361">
        <ele>442.8</ele>
        <time>2015-04-25T06:57:56.000Z</time>
      </trkpt>
      <trkpt lat="47.28082" lon="4.94353">
        <ele>442.9</ele>
        <time>2015-04-25T06:58:01.000Z</time>
      </trkpt>
      <trkpt lat="47.28081" lon="4.94349">
        <ele>443.1</ele>
        <time>2015-04-25T06:58:03.000Z</time>
      </trkpt>
      <trkpt lat="47.28079" lon="4.94341">
        <ele>443.4</ele>
        <time>2015-04-25T06:58:11.000Z</time>
      </trkpt>
      <trkpt lat="47.28078" lon="4.94337">
        <ele>443.4</ele>
        <time>2015-04-25T06:58:13.000Z</time>
      </trkpt>
      <trkpt lat="47.28075" lon="4.94328">
        <ele>444.1</ele>
        <time>2015-04-25T06:58:19.000Z</time>
      </trkpt>
      <trkpt lat="47.28073" lon="4.94322">
        <ele>444.5</ele>
        <time>2015-04-25T06:58:23.000Z</time>
      </trkpt>
      <trkpt lat="47.28071" lon="4.94315">
        <ele>444.9</ele>
        <time>2015-04-25T06:58:28.000Z</time>
      </trkpt>
      <trkpt lat="47.28071" lon="4.94311">
        <ele>444.9</ele>
        <time>2015-04-25T06:58:31.000Z</time>
      </trkpt>
      <trkpt lat="47.28069" lon="4.94304">
        <ele>445.1</ele>
        <time>2015-04-25T06:58:37.000Z</time>
      </trkpt>
      <trkpt lat="47.28069" lon="4.94303">
        <ele>445.2</ele>
        <time>2015-04-25T06:58:38.000Z</time>
      </trkpt>
      <trkpt lat="47.28065" lon="4.94292">
        <ele>445.6</ele>
        <time>2015-04-25T06:58:49.000Z</time>
      </trkpt>
      <trkpt lat="47.28061" lon="4.94277">
        <ele>444.8</ele>
        <time>2015-04-25T06:59:49.000Z</time>
      </trkpt>
      <trkpt lat="47.2806" lon="4.94275">
        <ele>444.8</ele>
        <time>2015-04-25T06:59:50.000Z</time>
      </trkpt>
      <trkpt lat="47.28059" lon="4.94269">
        <ele>444.7</ele>
        <time>2015-04-25T06:59:54.000Z</time>
      </trkpt>
      <trkpt lat="47.28059" lon="4.94267">
        <ele>444.7</ele>
        <time>2015-04-25T06:59:55.000Z</time>
      </trkpt>
      <trkpt lat="47.28054" lon="4.94251">
        <ele>444.7</ele>
        <time>2015-04-25T07:00:03.000Z</time>
      </trkpt>
      <trkpt lat="47.28051" lon="4.94245">
        <ele>445.4</ele>
        <time>2015-04-25T07:00:06.000Z</time>
      </trkpt>
      <trkpt lat="47.28045" lon="4.94232">
        <ele>446.4</ele>
        <time>2015-04-25T07:00:13.000Z</time>
      </trkpt>
      <trkpt lat="47.28044" lon="4.94231">
        <ele>446.5</ele>
        <time>2015-04-25T07:00:14.000Z</time>
      </trkpt>
      <trkpt lat="47.28041" lon="4.94224">
        <ele>446.7</ele>
        <time>2015-04-25T07:00:18.000Z</time>
      </trkpt>
      <trkpt lat="47.2804" lon="4.94221">
        <ele>446.7</ele>
        <time>2015-04-25T07:00:20.000Z</time>
      </trkpt>
      <trkpt lat="47.28036" lon="4.94211">
        <ele>447.1</ele>
        <time>2015-04-25T07:00:26.000Z</time>
      </trkpt>
      <trkpt lat="47.28032" lon="4.94202">
        <ele>447.2</ele>
        <time>2015-04-25T07:00:31.000Z</time>
      </trkpt>
      <trkpt lat="47.28028" lon="4.94191">
        <ele>447</ele>
        <time>2015-04-25T07:00:37.000Z</time>
      </trkpt>
      <trkpt lat="47.28027" lon="4.94189">
        <ele>447.4</ele>
        <time>2015-04-25T07:00:38.000Z</time>
      </trkpt>
      <trkpt lat="47.28022" lon="4.94179">
        <ele>449</ele>
        <time>2015-04-25T07:00:43.000Z</time>
      </trkpt>
      <trkpt lat="47.2802" lon="4.94176">
        <ele>449.6</ele>
        <time>2015-04-25T07:00:45.000Z</time>
      </trkpt>
      <trkpt lat="47.28015" lon="4.94165">
        <ele>450.5</ele>
        <time>2015-04-25T07:00:51.000Z</time>
      </trkpt>
      <trkpt lat="47.28009" lon="4.94154">
        <ele>451.2</ele>
        <time>2015-04-25T07:00:57.000Z</time>
      </trkpt>
      <trkpt lat="47.28004" lon="4.94144">
        <ele>451.1</ele>
        <time>2015-04-25T07:01:04.000Z</time>
      </trkpt>
      <trkpt lat="47.28003" lon="4.94141">
        <ele>450.9</ele>
        <time>2015-04-25T07:01:05.000Z</time>
      </trkpt>
      <trkpt lat="47.28001" lon="4.94134">
        <ele>450.4</ele>
        <time>2015-04-25T07:01:09.000Z</time>
      </trkpt>
      <trkpt lat="47.28001" lon="4.94133">
        <ele>450.3</ele>
        <time>2015-04-25T07:01:10.000Z</time>
      </trkpt>
      <trkpt lat="47.27997" lon="4.94123">
        <ele>450.6</ele>
        <time>2015-04-25T07:01:16.000Z</time>
      </trkpt>
      <trkpt lat="47.27995" lon="4.94119">
        <ele>450.9</ele>
        <time>2015-04-25T07:01:19.000Z</time>
      </trkpt>
      <trkpt lat="47.27992" lon="4.94112">
        <ele>451.3</ele>
        <time>2015-04-25T07:01:23.000Z</time>
      </trkpt>
      <trkpt lat="47.27988" lon="4.94102">
        <ele>452.2</ele>
        <time>2015-04-25T07:01:29.000Z</time>
      </trkpt>
      <trkpt lat="47.27984" lon="4.94093">
        <ele>452.4</ele>
        <time>2015-04-25T07:01:34.000Z</time>
      </trkpt>
      <trkpt lat="47.27982" lon="4.9409">
        <ele>452.3</ele>
        <time>2015-04-25T07:01:36.000Z</time>
      </trkpt>
      <trkpt lat="47.27979" lon="4.94085">
        <ele>452.2</ele>
        <time>2015-04-25T07:01:39.000Z</time>
      </trkpt>
      <trkpt lat="47.27974" lon="4.94078">
        <ele>452.2</ele>
        <time>2015-04-25T07:01:44.000Z</time>
      </trkpt>
      <trkpt lat="47.27967" lon="4.94065">
        <ele>453</ele>
        <time>2015-04-25T07:01:51.000Z</time>
      </trkpt>
      <trkpt lat="47.27962" lon="4.94057">
        <ele>453.8</ele>
        <time>2015-04-25T07:01:57.000Z</time>
      </trkpt>
      <trkpt lat="47.27961" lon="4.94055">
        <ele>454</ele>
        <time>2015-04-25T07:01:58.000Z</time>
      </trkpt>
      <trkpt lat="47.27955" lon="4.94042">
        <ele>454.6</ele>
        <time>2015-04-25T07:02:06.000Z</time>
      </trkpt>
      <trkpt lat="47.27952" lon="4.94035">
        <ele>454.3</ele>
        <time>2015-04-25T07:02:10.000Z</time>
      </trkpt>
      <trkpt lat="47.27951" lon="4.94034">
        <ele>454.2</ele>
        <time>2015-04-25T07:02:11.000Z</time>
      </trkpt>
      <trkpt lat="47.2795" lon="4.94033">
        <ele>454.3</ele>
        <time>2015-04-25T07:02:13.000Z</time>
      </trkpt>
      <trkpt lat="47.27944" lon="4.94027">
        <ele>454.2</ele>
        <time>2015-04-25T07:02:18.000Z</time>
      </trkpt>
      <trkpt lat="47.27937" lon="4.94017">
        <ele>456</ele>
        <time>2015-04-25T07:02:24.000Z</time>
      </trkpt>
      <trkpt lat="47.27936" lon="4.94016">
        <ele>456.1</ele>
        <time>2015-04-25T07:02:25.000Z</time>
      </trkpt>
      <trkpt lat="47.27932" lon="4.94009">
        <ele>456.5</ele>
        <time>2015-04-25T07:02:29.000Z</time>
      </trkpt>
      <trkpt lat="47.27931" lon="4.94008">
        <ele>456.6</ele>
        <time>2015-04-25T07:02:30.000Z</time>
      </trkpt>
      <trkpt lat="47.27928" lon="4.94">
        <ele>456</ele>
        <time>2015-04-25T07:02:34.000Z</time>
      </trkpt>
      <trkpt lat="47.27924" lon="4.93993">
        <ele>456.3</ele>
        <time>2015-04-25T07:02:38.000Z</time>
      </trkpt>
      <trkpt lat="47.27917" lon="4.93985">
        <ele>456.3</ele>
        <time>2015-04-25T07:02:44.000Z</time>
      </trkpt>
      <trkpt lat="47.27916" lon="4.93983">
        <ele>456.3</ele>
        <time>2015-04-25T07:02:45.000Z</time>
      </trkpt>
      <trkpt lat="47.27915" lon="4.93981">
        <ele>456.6</ele>
        <time>2015-04-25T07:02:46.000Z</time>
      </trkpt>
      <trkpt lat="47.27913" lon="4.93979">
        <ele>457.1</ele>
        <time>2015-04-25T07:02:48.000Z</time>
      </trkpt>
      <trkpt lat="47.27911" lon="4.93969">
        <ele>457.7</ele>
        <time>2015-04-25T07:02:54.000Z</time>
      </trkpt>
      <trkpt lat="47.2791" lon="4.93965">
        <ele>458.2</ele>
        <time>2015-04-25T07:03:22.000Z</time>
      </trkpt>
      <trkpt lat="47.27906" lon="4.93955">
        <ele>459.4</ele>
        <time>2015-04-25T07:03:28.000Z</time>
      </trkpt>
      <trkpt lat="47.27903" lon="4.9395">
        <ele>460.5</ele>
        <time>2015-04-25T07:03:32.000Z</time>
      </trkpt>
      <trkpt lat="47.27898" lon="4.93947">
        <ele>462.6</ele>
        <time>2015-04-25T07:03:37.000Z</time>
      </trkpt>
      <trkpt lat="47.27895" lon="4.93945">
        <ele>463.5</ele>
        <time>2015-04-25T07:03:39.000Z</time>
      </trkpt>
      <trkpt lat="47.2789" lon="4.93939">
        <ele>464.5</ele>
        <time>2015-04-25T07:03:44.000Z</time>
      </trkpt>
      <trkpt lat="47.27885" lon="4.93931">
        <ele>464</ele>
        <time>2015-04-25T07:03:49.000Z</time>
      </trkpt>
      <trkpt lat="47.27882" lon="4.93927">
        <ele>464</ele>
        <time>2015-04-25T07:03:51.000Z</time>
      </trkpt>
      <trkpt lat="47.27876" lon="4.93921">
        <ele>464.8</ele>
        <time>2015-04-25T07:03:57.000Z</time>
      </trkpt>
      <trkpt lat="47.27874" lon="4.93919">
        <ele>465</ele>
        <time>2015-04-25T07:03:59.000Z</time>
      </trkpt>
      <trkpt lat="47.27872" lon="4.93916">
        <ele>465.4</ele>
        <time>2015-04-25T07:04:01.000Z</time>
      </trkpt>
      <trkpt lat="47.27871" lon="4.93914">
        <ele>465.7</ele>
        <time>2015-04-25T07:04:03.000Z</time>
      </trkpt>
      <trkpt lat="47.27867" lon="4.93901">
        <ele>466.4</ele>
        <time>2015-04-25T07:04:10.000Z</time>
      </trkpt>
      <trkpt lat="47.27866" lon="4.939">
        <ele>466.5</ele>
        <time>2015-04-25T07:04:11.000Z</time>
      </trkpt>
      <trkpt lat="47.27864" lon="4.93898">
        <ele>466.9</ele>
        <time>2015-04-25T07:04:13.000Z</time>
      </trkpt>
      <trkpt lat="47.2786" lon="4.93892">
        <ele>467.4</ele>
        <time>2015-04-25T07:04:17.000Z</time>
      </trkpt>
      <trkpt lat="47.27856" lon="4.93885">
        <ele>467.7</ele>
        <time>2015-04-25T07:04:22.000Z</time>
      </trkpt>
      <trkpt lat="47.27856" lon="4.93884">
        <ele>467.8</ele>
        <time>2015-04-25T07:04:23.000Z</time>
      </trkpt>
      <trkpt lat="47.27855" lon="4.9388">
        <ele>467.9</ele>
        <time>2015-04-25T07:04:27.000Z</time>
      </trkpt>
      <trkpt lat="47.27853" lon="4.93874">
        <ele>468.2</ele>
        <time>2015-04-25T07:04:32.000Z</time>
      </trkpt>
      <trkpt lat="47.27849" lon="4.9387">
        <ele>468.7</ele>
        <time>2015-04-25T07:04:36.000Z</time>
      </trkpt>
      <trkpt lat="47.27843" lon="4.93869">
        <ele>469.6</ele>
        <time>2015-04-25T07:04:42.000Z</time>
      </trkpt>
      <trkpt lat="47.27837" lon="4.93868">
        <ele>470.4</ele>
        <time>2015-04-25T07:04:49.000Z</time>
      </trkpt>
      <trkpt lat="47.27834" lon="4.93867">
        <ele>470.8</ele>
        <time>2015-04-25T07:04:53.000Z</time>
      </trkpt>
      <trkpt lat="47.27831" lon="4.93861">
        <ele>471.2</ele>
        <time>2015-04-25T07:04:59.000Z</time>
      </trkpt>
      <trkpt lat="47.27828" lon="4.93855">
        <ele>471.4</ele>
        <time>2015-04-25T07:05:04.000Z</time>
      </trkpt>
      <trkpt lat="47.27826" lon="4.93852">
        <ele>471.4</ele>
        <time>2015-04-25T07:05:07.000Z</time>
      </trkpt>
      <trkpt lat="47.27824" lon="4.93848">
        <ele>471.6</ele>
        <time>2015-04-25T07:05:11.000Z</time>
      </trkpt>
      <trkpt lat="47.27823" lon="4.93846">
        <ele>471.6</ele>
        <time>2015-04-25T07:05:12.000Z</time>
      </trkpt>
      <trkpt lat="47.27819" lon="4.93839">
        <ele>471.7</ele>
        <time>2015-04-25T07:05:16.000Z</time>
      </trkpt>
      <trkpt lat="47.27818" lon="4.93838">
        <ele>471.8</ele>
        <time>2015-04-25T07:05:17.000Z</time>
      </trkpt>
      <trkpt lat="47.27815" lon="4.93837">
        <ele>472</ele>
        <time>2015-04-25T07:05:19.000Z</time>
      </trkpt>
      <trkpt lat="47.27813" lon="4.93834">
        <ele>472.2</ele>
        <time>2015-04-25T07:05:21.000Z</time>
      </trkpt>
      <trkpt lat="47.27808" lon="4.9383">
        <ele>472.8</ele>
        <time>2015-04-25T07:05:27.000Z</time>
      </trkpt>
      <trkpt lat="47.27802" lon="4.93822">
        <ele>473.5</ele>
        <time>2015-04-25T07:06:19.000Z</time>
      </trkpt>
      <trkpt lat="47.27803" lon="4.9383">
        <ele>473.4</ele>
        <time>2015-04-25T07:06:24.000Z</time>
      </trkpt>
      <trkpt lat="47.27806" lon="4.93839">
        <ele>473.1</ele>
        <time>2015-04-25T07:06:30.000Z</time>
      </trkpt>
      <trkpt lat="47.27812" lon="4.9385">
        <ele>472.9</ele>
        <time>2015-04-25T07:06:38.000Z</time>
      </trkpt>
      <trkpt lat="47.27817" lon="4.9386">
        <ele>472.7</ele>
        <time>2015-04-25T07:06:45.000Z</time>
      </trkpt>
      <trkpt lat="47.27821" lon="4.93869">
        <ele>472.3</ele>
        <time>2015-04-25T07:06:51.000Z</time>
      </trkpt>
      <trkpt lat="47.27822" lon="4.93871">
        <ele>472.2</ele>
        <time>2015-04-25T07:06:52.000Z</time>
      </trkpt>
      <trkpt lat="47.27826" lon="4.93885">
        <ele>471.7</ele>
        <time>2015-04-25T07:07:00.000Z</time>
      </trkpt>
      <trkpt lat="47.27827" lon="4.93887">
        <ele>471.7</ele>
        <time>2015-04-25T07:07:01.000Z</time>
      </trkpt>
      <trkpt lat="47.27831" lon="4.93901">
        <ele>471.2</ele>
        <time>2015-04-25T07:07:08.000Z</time>
      </trkpt>
      <trkpt lat="47.27832" lon="4.93903">
        <ele>471.2</ele>
        <time>2015-04-25T07:07:09.000Z</time>
      </trkpt>
      <trkpt lat="47.27832" lon="4.93905">
        <ele>471.2</ele>
        <time>2015-04-25T07:07:10.000Z</time>
      </trkpt>
      <trkpt lat="47.27834" lon="4.93915">
        <ele>470.9</ele>
        <time>2015-04-25T07:07:15.000Z</time>
      </trkpt>
      <trkpt lat="47.27835" lon="4.93919">
        <ele>471</ele>
        <time>2015-04-25T07:07:17.000Z</time>
      </trkpt>
      <trkpt lat="47.27835" lon="4.93924">
        <ele>471.1</ele>
        <time>2015-04-25T07:07:19.000Z</time>
      </trkpt>
      <trkpt lat="47.27837" lon="4.93934">
        <ele>471.3</ele>
        <time>2015-04-25T07:07:24.000Z</time>
      </trkpt>
      <trkpt lat="47.27837" lon="4.93939">
        <ele>471.4</ele>
        <time>2015-04-25T07:07:26.000Z</time>
      </trkpt>
      <trkpt lat="47.27838" lon="4.93946">
        <ele>471.5</ele>
        <time>2015-04-25T07:07:29.000Z</time>
      </trkpt>
      <trkpt lat="47.2784" lon="4.93961">
        <ele>471.4</ele>
        <time>2015-04-25T07:07:36.000Z</time>
      </trkpt>
      <trkpt lat="47.27842" lon="4.93974">
        <ele>471.4</ele>
        <time>2015-04-25T07:07:42.000Z</time>
      </trkpt>
      <trkpt lat="47.27842" lon="4.93978">
        <ele>471.6</ele>
        <time>2015-04-25T07:07:44.000Z</time>
      </trkpt>
      <trkpt lat="47.27845" lon="4.9399">
        <ele>471.8</ele>
        <time>2015-04-25T07:07:51.000Z</time>
      </trkpt>
      <trkpt lat="47.27845" lon="4.93995">
        <ele>472</ele>
        <time>2015-04-25T07:07:53.000Z</time>
      </trkpt>
      <trkpt lat="47.27847" lon="4.94011">
        <ele>472</ele>
        <time>2015-04-25T07:08:01.000Z</time>
      </trkpt>
      <trkpt lat="47.27847" lon="4.94015">
        <ele>472</ele>
        <time>2015-04-25T07:08:03.000Z</time>
      </trkpt>
      <trkpt lat="47.27852" lon="4.94031">
        <ele>471.7</ele>
        <time>2015-04-25T07:08:12.000Z</time>
      </trkpt>
      <trkpt lat="47.27852" lon="4.94034">
        <ele>471.7</ele>
        <time>2015-04-25T07:08:13.000Z</time>
      </trkpt>
      <trkpt lat="47.27853" lon="4.94046">
        <ele>471.6</ele>
        <time>2015-04-25T07:08:19.000Z</time>
      </trkpt>
      <trkpt lat="47.27854" lon="4.94053">
        <ele>471.5</ele>
        <time>2015-04-25T07:08:23.000Z</time>
      </trkpt>
      <trkpt lat="47.27854" lon="4.94058">
        <ele>471.5</ele>
        <time>2015-04-25T07:08:26.000Z</time>
      </trkpt>
      <trkpt lat="47.27854" lon="4.94067">
        <ele>471.5</ele>
        <time>2015-04-25T07:08:30.000Z</time>
      </trkpt>
      <trkpt lat="47.27855" lon="4.94077">
        <ele>471.4</ele>
        <time>2015-04-25T07:08:35.000Z</time>
      </trkpt>
      <trkpt lat="47.27856" lon="4.94085">
        <ele>471.4</ele>
        <time>2015-04-25T07:08:39.000Z</time>
      </trkpt>
      <trkpt lat="47.27857" lon="4.94093">
        <ele>471.3</ele>
        <time>2015-04-25T07:08:44.000Z</time>
      </trkpt>
      <trkpt lat="47.27859" lon="4.94102">
        <ele>471.2</ele>
        <time>2015-04-25T07:08:49.000Z</time>
      </trkpt>
      <trkpt lat="47.2786" lon="4.94111">
        <ele>471.2</ele>
        <time>2015-04-25T07:08:53.000Z</time>
      </trkpt>
      <trkpt lat="47.2786" lon="4.94118">
        <ele>471.1</ele>
        <time>2015-04-25T07:08:57.000Z</time>
      </trkpt>
      <trkpt lat="47.2786" lon="4.9413">
        <ele>471.1</ele>
        <time>2015-04-25T07:09:02.000Z</time>
      </trkpt>
      <trkpt lat="47.2786" lon="4.94131">
        <ele>471.1</ele>
        <time>2015-04-25T07:09:03.000Z</time>
      </trkpt>
      <trkpt lat="47.2786" lon="4.94133">
        <ele>471.1</ele>
        <time>2015-04-25T07:09:04.000Z</time>
      </trkpt>
      <trkpt lat="47.2786" lon="4.94144">
        <ele>471.2</ele>
        <time>2015-04-25T07:09:09.000Z</time>
      </trkpt>
      <trkpt lat="47.27859" lon="4.94156">
        <ele>471.3</ele>
        <time>2015-04-25T07:09:14.000Z</time>
      </trkpt>
      <trkpt lat="47.27859" lon="4.94161">
        <ele>471.3</ele>
        <time>2015-04-25T07:09:16.000Z</time>
      </trkpt>
      <trkpt lat="47.27858" lon="4.94183">
        <ele>471.3</ele>
        <time>2015-04-25T07:09:26.000Z</time>
      </trkpt>
      <trkpt lat="47.27858" lon="4.94185">
        <ele>471.4</ele>
        <time>2015-04-25T07:09:27.000Z</time>
      </trkpt>
      <trkpt lat="47.27857" lon="4.94195">
        <ele>471.4</ele>
        <time>2015-04-25T07:09:31.000Z</time>
      </trkpt>
      <trkpt lat="47.27857" lon="4.94208">
        <ele>471.4</ele>
        <time>2015-04-25T07:09:37.000Z</time>
      </trkpt>
      <trkpt lat="47.27857" lon="4.94211">
        <ele>471.4</ele>
        <time>2015-04-25T07:09:38.000Z</time>
      </trkpt>
      <trkpt lat="47.27855" lon="4.94227">
        <ele>471.5</ele>
        <time>2015-04-25T07:09:45.000Z</time>
      </trkpt>
      <trkpt lat="47.27854" lon="4.94236">
        <ele>471.5</ele>
        <time>2015-04-25T07:09:50.000Z</time>
      </trkpt>
      <trkpt lat="47.27849" lon="4.94269">
        <ele>471.8</ele>
        <time>2015-04-25T07:10:05.000Z</time>
      </trkpt>
      <trkpt lat="47.27847" lon="4.94283">
        <ele>472</ele>
        <time>2015-04-25T07:10:12.000Z</time>
      </trkpt>
      <trkpt lat="47.27847" lon="4.94285">
        <ele>472</ele>
        <time>2015-04-25T07:10:13.000Z</time>
      </trkpt>
      <trkpt lat="47.27846" lon="4.94298">
        <ele>472.1</ele>
        <time>2015-04-25T07:10:19.000Z</time>
      </trkpt>
      <trkpt lat="47.27845" lon="4.94305">
        <ele>472.2</ele>
        <time>2015-04-25T07:10:22.000Z</time>
      </trkpt>
      <trkpt lat="47.27843" lon="4.9432">
        <ele>472</ele>
        <time>2015-04-25T07:10:29.000Z</time>
      </trkpt>
      <trkpt lat="47.27843" lon="4.94327">
        <ele>471.8</ele>
        <time>2015-04-25T07:10:33.000Z</time>
      </trkpt>
      <trkpt lat="47.2784" lon="4.94348">
        <ele>471.8</ele>
        <time>2015-04-25T07:10:42.000Z</time>
      </trkpt>
      <trkpt lat="47.27837" lon="4.94364">
        <ele>471.9</ele>
        <time>2015-04-25T07:10:50.000Z</time>
      </trkpt>
      <trkpt lat="47.27833" lon="4.94379">
        <ele>472</ele>
        <time>2015-04-25T07:10:57.000Z</time>
      </trkpt>
      <trkpt lat="47.27831" lon="4.94391">
        <ele>472.1</ele>
        <time>2015-04-25T07:11:03.000Z</time>
      </trkpt>
      <trkpt lat="47.27828" lon="4.94404">
        <ele>472.2</ele>
        <time>2015-04-25T07:11:08.000Z</time>
      </trkpt>
      <trkpt lat="47.27826" lon="4.9441">
        <ele>472.3</ele>
        <time>2015-04-25T07:11:11.000Z</time>
      </trkpt>
      <trkpt lat="47.27823" lon="4.94425">
        <ele>472.2</ele>
        <time>2015-04-25T07:11:18.000Z</time>
      </trkpt>
      <trkpt lat="47.27822" lon="4.94427">
        <ele>472.2</ele>
        <time>2015-04-25T07:11:19.000Z</time>
      </trkpt>
      <trkpt lat="47.27821" lon="4.94429">
        <ele>472.2</ele>
        <time>2015-04-25T07:11:20.000Z</time>
      </trkpt>
      <trkpt lat="47.2782" lon="4.94436">
        <ele>472.1</ele>
        <time>2015-04-25T07:11:24.000Z</time>
      </trkpt>
      <trkpt lat="47.27817" lon="4.9445">
        <ele>472</ele>
        <time>2015-04-25T07:11:31.000Z</time>
      </trkpt>
      <trkpt lat="47.27814" lon="4.94459">
        <ele>472</ele>
        <time>2015-04-25T07:11:36.000Z</time>
      </trkpt>
      <trkpt lat="47.2781" lon="4.94472">
        <ele>471.9</ele>
        <time>2015-04-25T07:11:43.000Z</time>
      </trkpt>
      <trkpt lat="47.27806" lon="4.94484">
        <ele>472</ele>
        <time>2015-04-25T07:11:49.000Z</time>
      </trkpt>
      <trkpt lat="47.27803" lon="4.94493">
        <ele>472.1</ele>
        <time>2015-04-25T07:11:54.000Z</time>
      </trkpt>
      <trkpt lat="47.27803" lon="4.94495">
        <ele>472.1</ele>
        <time>2015-04-25T07:11:55.000Z</time>
      </trkpt>
      <trkpt lat="47.27798" lon="4.94511">
        <ele>472.3</ele>
        <time>2015-04-25T07:12:02.000Z</time>
      </trkpt>
      <trkpt lat="47.27792" lon="4.94524">
        <ele>472.5</ele>
        <time>2015-04-25T07:12:09.000Z</time>
      </trkpt>
      <trkpt lat="47.27787" lon="4.94536">
        <ele>472.4</ele>
        <time>2015-04-25T07:12:15.000Z</time>
      </trkpt>
      <trkpt lat="47.27781" lon="4.94548">
        <ele>472.1</ele>
        <time>2015-04-25T07:12:22.000Z</time>
      </trkpt>
      <trkpt lat="47.27774" lon="4.94561">
        <ele>472.1</ele>
        <time>2015-04-25T07:12:30.000Z</time>
      </trkpt>
      <trkpt lat="47.27771" lon="4.94566">
        <ele>472.2</ele>
        <time>2015-04-25T07:12:33.000Z</time>
      </trkpt>
      <trkpt lat="47.27765" lon="4.94577">
        <ele>472.5</ele>
        <time>2015-04-25T07:12:40.000Z</time>
      </trkpt>
      <trkpt lat="47.27763" lon="4.9458">
        <ele>472.5</ele>
        <time>2015-04-25T07:12:42.000Z</time>
      </trkpt>
      <trkpt lat="47.27757" lon="4.9459">
        <ele>472.6</ele>
        <time>2015-04-25T07:12:50.000Z</time>
      </trkpt>
      <trkpt lat="47.27748" lon="4.94603">
        <ele>472.3</ele>
        <time>2015-04-25T07:12:59.000Z</time>
      </trkpt>
      <trkpt lat="47.27746" lon="4.94604">
        <ele>472.4</ele>
        <time>2015-04-25T07:13:01.000Z</time>
      </trkpt>
      <trkpt lat="47.27743" lon="4.9461">
        <ele>472.3</ele>
        <time>2015-04-25T07:13:04.000Z</time>
      </trkpt>
      <trkpt lat="47.27734" lon="4.9462">
        <ele>472.4</ele>
        <time>2015-04-25T07:13:11.000Z</time>
      </trkpt>
      <trkpt lat="47.2773" lon="4.94625">
        <ele>472.4</ele>
        <time>2015-04-25T07:13:14.000Z</time>
      </trkpt>
      <trkpt lat="47.27721" lon="4.94635">
        <ele>472.2</ele>
        <time>2015-04-25T07:13:22.000Z</time>
      </trkpt>
      <trkpt lat="47.27712" lon="4.9464">
        <ele>472</ele>
        <time>2015-04-25T07:13:29.000Z</time>
      </trkpt>
      <trkpt lat="47.27711" lon="4.94641">
        <ele>472</ele>
        <time>2015-04-25T07:13:30.000Z</time>
      </trkpt>
      <trkpt lat="47.27705" lon="4.94645">
        <ele>472</ele>
        <time>2015-04-25T07:13:35.000Z</time>
      </trkpt>
      <trkpt lat="47.27704" lon="4.94646">
        <ele>472</ele>
        <time>2015-04-25T07:13:36.000Z</time>
      </trkpt>
      <trkpt lat="47.27695" lon="4.94652">
        <ele>472</ele>
        <time>2015-04-25T07:13:43.000Z</time>
      </trkpt>
      <trkpt lat="47.27693" lon="4.94654">
        <ele>472</ele>
        <time>2015-04-25T07:13:45.000Z</time>
      </trkpt>
      <trkpt lat="47.27685" lon="4.94659">
        <ele>472</ele>
        <time>2015-04-25T07:13:51.000Z</time>
      </trkpt>
      <trkpt lat="47.27681" lon="4.94661">
        <ele>472</ele>
        <time>2015-04-25T07:13:54.000Z</time>
      </trkpt>
      <trkpt lat="47.2767" lon="4.94665">
        <ele>472</ele>
        <time>2015-04-25T07:14:01.000Z</time>
      </trkpt>
      <trkpt lat="47.27659" lon="4.94668">
        <ele>471.9</ele>
        <time>2015-04-25T07:14:07.000Z</time>
      </trkpt>
      <trkpt lat="47.27658" lon="4.94669">
        <ele>471.9</ele>
        <time>2015-04-25T07:14:08.000Z</time>
      </trkpt>
      <trkpt lat="47.27653" lon="4.9467">
        <ele>471.9</ele>
        <time>2015-04-25T07:14:10.000Z</time>
      </trkpt>
      <trkpt lat="47.27646" lon="4.94672">
        <ele>471.8</ele>
        <time>2015-04-25T07:14:14.000Z</time>
      </trkpt>
      <trkpt lat="47.27641" lon="4.94674">
        <ele>471.7</ele>
        <time>2015-04-25T07:14:17.000Z</time>
      </trkpt>
      <trkpt lat="47.27636" lon="4.94674">
        <ele>471.6</ele>
        <time>2015-04-25T07:14:20.000Z</time>
      </trkpt>
      <trkpt lat="47.27625" lon="4.94673">
        <ele>471.3</ele>
        <time>2015-04-25T07:14:26.000Z</time>
      </trkpt>
      <trkpt lat="47.27619" lon="4.94674">
        <ele>471</ele>
        <time>2015-04-25T07:14:30.000Z</time>
      </trkpt>
      <trkpt lat="47.27618" lon="4.94674">
        <ele>471</ele>
        <time>2015-04-25T07:14:31.000Z</time>
      </trkpt>
      <trkpt lat="47.27609" lon="4.94676">
        <ele>470.6</ele>
        <time>2015-04-25T07:14:37.000Z</time>
      </trkpt>
      <trkpt lat="47.276" lon="4.94677">
        <ele>470.5</ele>
        <time>2015-04-25T07:14:43.000Z</time>
      </trkpt>
      <trkpt lat="47.27593" lon="4.94676">
        <ele>470.4</ele>
        <time>2015-04-25T07:14:47.000Z</time>
      </trkpt>
      <trkpt lat="47.27586" lon="4.94676">
        <ele>470.3</ele>
        <time>2015-04-25T07:14:52.000Z</time>
      </trkpt>
      <trkpt lat="47.27572" lon="4.94672">
        <ele>469.9</ele>
        <time>2015-04-25T07:15:00.000Z</time>
      </trkpt>
      <trkpt lat="47.27561" lon="4.94672">
        <ele>469.1</ele>
        <time>2015-04-25T07:15:08.000Z</time>
      </trkpt>
      <trkpt lat="47.27551" lon="4.94671">
        <ele>468.7</ele>
        <time>2015-04-25T07:15:15.000Z</time>
      </trkpt>
      <trkpt lat="47.27549" lon="4.9467">
        <ele>468.6</ele>
        <time>2015-04-25T07:15:16.000Z</time>
      </trkpt>
      <trkpt lat="47.27543" lon="4.94668">
        <ele>468.5</ele>
        <time>2015-04-25T07:15:20.000Z</time>
      </trkpt>
      <trkpt lat="47.27536" lon="4.94666">
        <ele>468.3</ele>
        <time>2015-04-25T07:15:24.000Z</time>
      </trkpt>
      <trkpt lat="47.27527" lon="4.94661">
        <ele>468.2</ele>
        <time>2015-04-25T07:15:30.000Z</time>
      </trkpt>
      <trkpt lat="47.27522" lon="4.9466">
        <ele>468</ele>
        <time>2015-04-25T07:15:34.000Z</time>
      </trkpt>
      <trkpt lat="47.27512" lon="4.94656">
        <ele>467.8</ele>
        <time>2015-04-25T07:15:40.000Z</time>
      </trkpt>
      <trkpt lat="47.27503" lon="4.94654">
        <ele>467.6</ele>
        <time>2015-04-25T07:15:46.000Z</time>
      </trkpt>
      <trkpt lat="47.27495" lon="4.94652">
        <ele>467.3</ele>
        <time>2015-04-25T07:15:51.000Z</time>
      </trkpt>
      <trkpt lat="47.27487" lon="4.94651">
        <ele>466.8</ele>
        <time>2015-04-25T07:15:57.000Z</time>
      </trkpt>
      <trkpt lat="47.27475" lon="4.94649">
        <ele>466.1</ele>
        <time>2015-04-25T07:16:05.000Z</time>
      </trkpt>
      <trkpt lat="47.27463" lon="4.94647">
        <ele>465.9</ele>
        <time>2015-04-25T07:16:13.000Z</time>
      </trkpt>
      <trkpt lat="47.27462" lon="4.94646">
        <ele>465.9</ele>
        <time>2015-04-25T07:16:14.000Z</time>
      </trkpt>
      <trkpt lat="47.27447" lon="4.94646">
        <ele>465.8</ele>
        <time>2015-04-25T07:16:23.000Z</time>
      </trkpt>
      <trkpt lat="47.27446" lon="4.94646">
        <ele>465.8</ele>
        <time>2015-04-25T07:16:24.000Z</time>
      </trkpt>
      <trkpt lat="47.27437" lon="4.94646">
        <ele>465.3</ele>
        <time>2015-04-25T07:16:29.000Z</time>
      </trkpt>
      <trkpt lat="47.27433" lon="4.94647">
        <ele>465</ele>
        <time>2015-04-25T07:16:32.000Z</time>
      </trkpt>
      <trkpt lat="47.27423" lon="4.94652">
        <ele>464.3</ele>
        <time>2015-04-25T07:16:39.000Z</time>
      </trkpt>
      <trkpt lat="47.27417" lon="4.94657">
        <ele>464</ele>
        <time>2015-04-25T07:16:44.000Z</time>
      </trkpt>
      <trkpt lat="47.27415" lon="4.94659">
        <ele>463.9</ele>
        <time>2015-04-25T07:16:45.000Z</time>
      </trkpt>
      <trkpt lat="47.27413" lon="4.94661">
        <ele>463.8</ele>
        <time>2015-04-25T07:16:47.000Z</time>
      </trkpt>
      <trkpt lat="47.2741" lon="4.94664">
        <ele>463.5</ele>
        <time>2015-04-25T07:16:50.000Z</time>
      </trkpt>
      <trkpt lat="47.27403" lon="4.94674">
        <ele>462.9</ele>
        <time>2015-04-25T07:16:57.000Z</time>
      </trkpt>
      <trkpt lat="47.27394" lon="4.94686">
        <ele>462.3</ele>
        <time>2015-04-25T07:17:05.000Z</time>
      </trkpt>
      <trkpt lat="47.27394" lon="4.94688">
        <ele>462.2</ele>
        <time>2015-04-25T07:17:06.000Z</time>
      </trkpt>
      <trkpt lat="47.27392" lon="4.94694">
        <ele>462.1</ele>
        <time>2015-04-25T07:17:09.000Z</time>
      </trkpt>
      <trkpt lat="47.27386" lon="4.94712">
        <ele>462.1</ele>
        <time>2015-04-25T07:17:18.000Z</time>
      </trkpt>
      <trkpt lat="47.27384" lon="4.9472">
        <ele>462.2</ele>
        <time>2015-04-25T07:17:22.000Z</time>
      </trkpt>
      <trkpt lat="47.27383" lon="4.94731">
        <ele>462</ele>
        <time>2015-04-25T07:17:28.000Z</time>
      </trkpt>
      <trkpt lat="47.27383" lon="4.94742">
        <ele>461.6</ele>
        <time>2015-04-25T07:17:33.000Z</time>
      </trkpt>
      <trkpt lat="47.27384" lon="4.94749">
        <ele>461.4</ele>
        <time>2015-04-25T07:17:36.000Z</time>
      </trkpt>
      <trkpt lat="47.27384" lon="4.94753">
        <ele>461.4</ele>
        <time>2015-04-25T07:17:38.000Z</time>
      </trkpt>
      <trkpt lat="47.27383" lon="4.94764">
        <ele>461.4</ele>
        <time>2015-04-25T07:17:43.000Z</time>
      </trkpt>
      <trkpt lat="47.27382" lon="4.9477">
        <ele>461.5</ele>
        <time>2015-04-25T07:17:46.000Z</time>
      </trkpt>
      <trkpt lat="47.27381" lon="4.94783">
        <ele>461.4</ele>
        <time>2015-04-25T07:17:52.000Z</time>
      </trkpt>
      <trkpt lat="47.27381" lon="4.94785">
        <ele>461.3</ele>
        <time>2015-04-25T07:17:53.000Z</time>
      </trkpt>
      <trkpt lat="47.2738" lon="4.94799">
        <ele>460.9</ele>
        <time>2015-04-25T07:18:00.000Z</time>
      </trkpt>
      <trkpt lat="47.27378" lon="4.94806">
        <ele>460.8</ele>
        <time>2015-04-25T07:18:04.000Z</time>
      </trkpt>
      <trkpt lat="47.27376" lon="4.94818">
        <ele>461.2</ele>
        <time>2015-04-25T07:18:09.000Z</time>
      </trkpt>
      <trkpt lat="47.27376" lon="4.9482">
        <ele>461.2</ele>
        <time>2015-04-25T07:18:10.000Z</time>
      </trkpt>
      <trkpt lat="47.27376" lon="4.94829">
        <ele>461.4</ele>
        <time>2015-04-25T07:18:15.000Z</time>
      </trkpt>
      <trkpt lat="47.27376" lon="4.94839">
        <ele>461.5</ele>
        <time>2015-04-25T07:18:21.000Z</time>
      </trkpt>
      <trkpt lat="47.27376" lon="4.94848">
        <ele>461.5</ele>
        <time>2015-04-25T07:18:26.000Z</time>
      </trkpt>
      <trkpt lat="47.27377" lon="4.94855">
        <ele>461.4</ele>
        <time>2015-04-25T07:18:29.000Z</time>
      </trkpt>
      <trkpt lat="47.27376" lon="4.94857">
        <ele>461.5</ele>
        <time>2015-04-25T07:18:30.000Z</time>
      </trkpt>
      <trkpt lat="47.27376" lon="4.94864">
        <ele>461.5</ele>
        <time>2015-04-25T07:18:33.000Z</time>
      </trkpt>
      <trkpt lat="47.27374" lon="4.94878">
        <ele>461.5</ele>
        <time>2015-04-25T07:18:39.000Z</time>
      </trkpt>
      <trkpt lat="47.27373" lon="4.9488">
        <ele>461.6</ele>
        <time>2015-04-25T07:18:40.000Z</time>
      </trkpt>
      <trkpt lat="47.27372" lon="4.94889">
        <ele>461.6</ele>
        <time>2015-04-25T07:18:44.000Z</time>
      </trkpt>
      <trkpt lat="47.2737" lon="4.94901">
        <ele>461.2</ele>
        <time>2015-04-25T07:18:50.000Z</time>
      </trkpt>
      <trkpt lat="47.2737" lon="4.94903">
        <ele>461.2</ele>
        <time>2015-04-25T07:18:51.000Z</time>
      </trkpt>
      <trkpt lat="47.27371" lon="4.94917">
        <ele>460.7</ele>
        <time>2015-04-25T07:18:57.000Z</time>
      </trkpt>
      <trkpt lat="47.27368" lon="4.9493">
        <ele>460.7</ele>
        <time>2015-04-25T07:19:03.000Z</time>
      </trkpt>
      <trkpt lat="47.27367" lon="4.94934">
        <ele>460.8</ele>
        <time>2015-04-25T07:19:05.000Z</time>
      </trkpt>
      <trkpt lat="47.27367" lon="4.94937">
        <ele>460.8</ele>
        <time>2015-04-25T07:19:07.000Z</time>
      </trkpt>
      <trkpt lat="47.27365" lon="4.94948">
        <ele>460.9</ele>
        <time>2015-04-25T07:19:11.000Z</time>
      </trkpt>
      <trkpt lat="47.27364" lon="4.9496">
        <ele>460.9</ele>
        <time>2015-04-25T07:19:16.000Z</time>
      </trkpt>
      <trkpt lat="47.27363" lon="4.94974">
        <ele>460.9</ele>
        <time>2015-04-25T07:19:22.000Z</time>
      </trkpt>
      <trkpt lat="47.27363" lon="4.94976">
        <ele>460.8</ele>
        <time>2015-04-25T07:19:23.000Z</time>
      </trkpt>
      <trkpt lat="47.27363" lon="4.94978">
        <ele>460.7</ele>
        <time>2015-04-25T07:19:24.000Z</time>
      </trkpt>
      <trkpt lat="47.27361" lon="4.94991">
        <ele>460.4</ele>
        <time>2015-04-25T07:19:30.000Z</time>
      </trkpt>
      <trkpt lat="47.27357" lon="4.95006">
        <ele>460.4</ele>
        <time>2015-04-25T07:19:37.000Z</time>
      </trkpt>
      <trkpt lat="47.27357" lon="4.95008">
        <ele>460.5</ele>
        <time>2015-04-25T07:19:38.000Z</time>
      </trkpt>
      <trkpt lat="47.27355" lon="4.95013">
        <ele>460.7</ele>
        <time>2015-04-25T07:19:40.000Z</time>
      </trkpt>
      <trkpt lat="47.2735" lon="4.95025">
        <ele>461</ele>
        <time>2015-04-25T07:19:47.000Z</time>
      </trkpt>
      <trkpt lat="47.27347" lon="4.9503">
        <ele>461</ele>
        <time>2015-04-25T07:19:50.000Z</time>
      </trkpt>
      <trkpt lat="47.2734" lon="4.95044">
        <ele>460.9</ele>
        <time>2015-04-25T07:19:59.000Z</time>
      </trkpt>
      <trkpt lat="47.27339" lon="4.95046">
        <ele>460.9</ele>
        <time>2015-04-25T07:20:00.000Z</time>
      </trkpt>
      <trkpt lat="47.27334" lon="4.95054">
        <ele>461</ele>
        <time>2015-04-25T07:20:05.000Z</time>
      </trkpt>
      <trkpt lat="47.27333" lon="4.95055">
        <ele>461</ele>
        <time>2015-04-25T07:20:06.000Z</time>
      </trkpt>
      <trkpt lat="47.27326" lon="4.95065">
        <ele>460.7</ele>
        <time>2015-04-25T07:20:13.000Z</time>
      </trkpt>
      <trkpt lat="47.27317" lon="4.95073">
        <ele>460.4</ele>
        <time>2015-04-25T07:20:20.000Z</time>
      </trkpt>
      <trkpt lat="47.27315" lon="4.95076">
        <ele>460.3</ele>
        <time>2015-04-25T07:20:22.000Z</time>
      </trkpt>
      <trkpt lat="47.27309" lon="4.95083">
        <ele>460</ele>
        <time>2015-04-25T07:20:27.000Z</time>
      </trkpt>
      <trkpt lat="47.273" lon="4.95093">
        <ele>459.8</ele>
        <time>2015-04-25T07:20:34.000Z</time>
      </trkpt>
      <trkpt lat="47.27292" lon="4.95101">
        <ele>459.5</ele>
        <time>2015-04-25T07:20:40.000Z</time>
      </trkpt>
      <trkpt lat="47.27291" lon="4.95102">
        <ele>459.5</ele>
        <time>2015-04-25T07:20:41.000Z</time>
      </trkpt>
      <trkpt lat="47.27287" lon="4.95106">
        <ele>459.3</ele>
        <time>2015-04-25T07:20:44.000Z</time>
      </trkpt>
      <trkpt lat="47.27283" lon="4.95112">
        <ele>458.9</ele>
        <time>2015-04-25T07:20:48.000Z</time>
      </trkpt>
      <trkpt lat="47.27279" lon="4.95115">
        <ele>458.7</ele>
        <time>2015-04-25T07:20:52.000Z</time>
      </trkpt>
      <trkpt lat="47.27274" lon="4.95124">
        <ele>458.2</ele>
        <time>2015-04-25T07:20:58.000Z</time>
      </trkpt>
      <trkpt lat="47.27268" lon="4.95138">
        <ele>457.7</ele>
        <time>2015-04-25T07:21:05.000Z</time>
      </trkpt>
      <trkpt lat="47.27268" lon="4.9514">
        <ele>457.7</ele>
        <time>2015-04-25T07:21:06.000Z</time>
      </trkpt>
      <trkpt lat="47.27266" lon="4.9515">
        <ele>457.6</ele>
        <time>2015-04-25T07:21:11.000Z</time>
      </trkpt>
      <trkpt lat="47.27267" lon="4.95162">
        <ele>457.2</ele>
        <time>2015-04-25T07:21:16.000Z</time>
      </trkpt>
      <trkpt lat="47.2727" lon="4.9517">
        <ele>457.1</ele>
        <time>2015-04-25T07:21:20.000Z</time>
      </trkpt>
      <trkpt lat="47.27276" lon="4.95182">
        <ele>457.3</ele>
        <time>2015-04-25T07:21:27.000Z</time>
      </trkpt>
      <trkpt lat="47.27277" lon="4.95184">
        <ele>457.3</ele>
        <time>2015-04-25T07:21:28.000Z</time>
      </trkpt>
      <trkpt lat="47.27279" lon="4.95193">
        <ele>457.8</ele>
        <time>2015-04-25T07:21:32.000Z</time>
      </trkpt>
      <trkpt lat="47.27279" lon="4.95194">
        <ele>457.8</ele>
        <time>2015-04-25T07:21:33.000Z</time>
      </trkpt>
      <trkpt lat="47.27277" lon="4.95196">
        <ele>458.1</ele>
        <time>2015-04-25T07:21:38.000Z</time>
      </trkpt>
      <trkpt lat="47.27276" lon="4.95197">
        <ele>458.2</ele>
        <time>2015-04-25T07:21:40.000Z</time>
      </trkpt>
      <trkpt lat="47.27271" lon="4.95192">
        <ele>458.3</ele>
        <time>2015-04-25T07:21:46.000Z</time>
      </trkpt>
      <trkpt lat="47.27268" lon="4.95184">
        <ele>458.1</ele>
        <time>2015-04-25T07:21:52.000Z</time>
      </trkpt>
      <trkpt lat="47.27265" lon="4.95178">
        <ele>458</ele>
        <time>2015-04-25T07:21:56.000Z</time>
      </trkpt>
      <trkpt lat="47.27256" lon="4.95179">
        <ele>458.9</ele>
        <time>2015-04-25T07:22:03.000Z</time>
      </trkpt>
      <trkpt lat="47.27249" lon="4.95183">
        <ele>459.7</ele>
        <time>2015-04-25T07:22:10.000Z</time>
      </trkpt>
      <trkpt lat="47.2724" lon="4.95189">
        <ele>460.5</ele>
        <time>2015-04-25T07:22:17.000Z</time>
      </trkpt>
      <trkpt lat="47.27229" lon="4.95195">
        <ele>461.5</ele>
        <time>2015-04-25T07:22:25.000Z</time>
      </trkpt>
      <trkpt lat="47.27222" lon="4.95198">
        <ele>462</ele>
        <time>2015-04-25T07:22:30.000Z</time>
      </trkpt>
      <trkpt lat="47.27212" lon="4.95204">
        <ele>462.4</ele>
        <time>2015-04-25T07:22:38.000Z</time>
      </trkpt>
      <trkpt lat="47.272" lon="4.95212">
        <ele>462.8</ele>
        <time>2015-04-25T07:22:47.000Z</time>
      </trkpt>
      <trkpt lat="47.27194" lon="4.95218">
        <ele>463</ele>
        <time>2015-04-25T07:22:52.000Z</time>
      </trkpt>
      <trkpt lat="47.2719" lon="4.95222">
        <ele>463.2</ele>
        <time>2015-04-25T07:22:56.000Z</time>
      </trkpt>
      <trkpt lat="47.27189" lon="4.95223">
        <ele>463.2</ele>
        <time>2015-04-25T07:22:57.000Z</time>
      </trkpt>
      <trkpt lat="47.27187" lon="4.95224">
        <ele>463.3</ele>
        <time>2015-04-25T07:22:59.000Z</time>
      </trkpt>
      <trkpt lat="47.2718" lon="4.95231">
        <ele>463.5</ele>
        <time>2015-04-25T07:23:07.000Z</time>
      </trkpt>
      <trkpt lat="47.27176" lon="4.95236">
        <ele>463.7</ele>
        <time>2015-04-25T07:23:11.000Z</time>
      </trkpt>
      <trkpt lat="47.27174" lon="4.95238">
        <ele>463.7</ele>
        <time>2015-04-25T07:23:13.000Z</time>
      </trkpt>
      <trkpt lat="47.27168" lon="4.95246">
        <ele>464</ele>
        <time>2015-04-25T07:23:20.000Z</time>
      </trkpt>
      <trkpt lat="47.27159" lon="4.95259">
        <ele>464.3</ele>
        <time>2015-04-25T07:23:28.000Z</time>
      </trkpt>
      <trkpt lat="47.27153" lon="4.95268">
        <ele>464.5</ele>
        <time>2015-04-25T07:23:34.000Z</time>
      </trkpt>
      <trkpt lat="47.27151" lon="4.9527">
        <ele>464.5</ele>
        <time>2015-04-25T07:23:35.000Z</time>
      </trkpt>
      <trkpt lat="47.27143" lon="4.95278">
        <ele>464.8</ele>
        <time>2015-04-25T07:23:42.000Z</time>
      </trkpt>
      <trkpt lat="47.27137" lon="4.95284">
        <ele>464.8</ele>
        <time>2015-04-25T07:23:47.000Z</time>
      </trkpt>
      <trkpt lat="47.27126" lon="4.95292">
        <ele>464.7</ele>
        <time>2015-04-25T07:23:54.000Z</time>
      </trkpt>
      <trkpt lat="47.27125" lon="4.95293">
        <ele>464.7</ele>
        <time>2015-04-25T07:23:55.000Z</time>
      </trkpt>
      <trkpt lat="47.27116" lon="4.95302">
        <ele>464.9</ele>
        <time>2015-04-25T07:24:02.000Z</time>
      </trkpt>
      <trkpt lat="47.27101" lon="4.95312">
        <ele>465.3</ele>
        <time>2015-04-25T07:24:12.000Z</time>
      </trkpt>
      <trkpt lat="47.27091" lon="4.95324">
        <ele>465.3</ele>
        <time>2015-04-25T07:24:20.000Z</time>
      </trkpt>
      <trkpt lat="47.27083" lon="4.95333">
        <ele>465</ele>
        <time>2015-04-25T07:24:27.000Z</time>
      </trkpt>
      <trkpt lat="47.27081" lon="4.95336">
        <ele>465.1</ele>
        <time>2015-04-25T07:24:29.000Z</time>
      </trkpt>
      <trkpt lat="47.27074" lon="4.95343">
        <ele>465.2</ele>
        <time>2015-04-25T07:24:34.000Z</time>
      </trkpt>
      <trkpt lat="47.27067" lon="4.95355">
        <ele>465.1</ele>
        <time>2015-04-25T07:24:41.000Z</time>
      </trkpt>
      <trkpt lat="47.27057" lon="4.95368">
        <ele>464.7</ele>
        <time>2015-04-25T07:24:49.000Z</time>
      </trkpt>
      <trkpt lat="47.27047" lon="4.95383">
        <ele>464.2</ele>
        <time>2015-04-25T07:24:58.000Z</time>
      </trkpt>
      <trkpt lat="47.27036" lon="4.95397">
        <ele>464</ele>
        <time>2015-04-25T07:25:08.000Z</time>
      </trkpt>
      <trkpt lat="47.27026" lon="4.95411">
        <ele>463.9</ele>
        <time>2015-04-25T07:25:17.000Z</time>
      </trkpt>
      <trkpt lat="47.27016" lon="4.95423">
        <ele>463.4</ele>
        <time>2015-04-25T07:25:25.000Z</time>
      </trkpt>
      <trkpt lat="47.27009" lon="4.95432">
        <ele>462.8</ele>
        <time>2015-04-25T07:25:31.000Z</time>
      </trkpt>
      <trkpt lat="47.27004" lon="4.95439">
        <ele>462.3</ele>
        <time>2015-04-25T07:25:36.000Z</time>
      </trkpt>
      <trkpt lat="47.26993" lon="4.95453">
        <ele>462</ele>
        <time>2015-04-25T07:25:46.000Z</time>
      </trkpt>
      <trkpt lat="47.26985" lon="4.95465">
        <ele>462</ele>
        <time>2015-04-25T07:25:54.000Z</time>
      </trkpt>
      <trkpt lat="47.2698" lon="4.95478">
        <ele>461.8</ele>
        <time>2015-04-25T07:26:01.000Z</time>
      </trkpt>
      <trkpt lat="47.26978" lon="4.95481">
        <ele>461.7</ele>
        <time>2015-04-25T07:26:03.000Z</time>
      </trkpt>
      <trkpt lat="47.26974" lon="4.95488">
        <ele>461.4</ele>
        <time>2015-04-25T07:26:09.000Z</time>
      </trkpt>
      <trkpt lat="47.26969" lon="4.95495">
        <ele>461.4</ele>
        <time>2015-04-25T07:26:14.000Z</time>
      </trkpt>
      <trkpt lat="47.26965" lon="4.95502">
        <ele>461.5</ele>
        <time>2015-04-25T07:26:19.000Z</time>
      </trkpt>
      <trkpt lat="47.26958" lon="4.95515">
        <ele>461.5</ele>
        <time>2015-04-25T07:26:27.000Z</time>
      </trkpt>
      <trkpt lat="47.2695" lon="4.95531">
        <ele>461.6</ele>
        <time>2015-04-25T07:26:36.000Z</time>
      </trkpt>
      <trkpt lat="47.26942" lon="4.95544">
        <ele>462.1</ele>
        <time>2015-04-25T07:26:44.000Z</time>
      </trkpt>
      <trkpt lat="47.26933" lon="4.95557">
        <ele>462.4</ele>
        <time>2015-04-25T07:26:52.000Z</time>
      </trkpt>
      <trkpt lat="47.26923" lon="4.9557">
        <ele>462.3</ele>
        <time>2015-04-25T07:27:01.000Z</time>
      </trkpt>
      <trkpt lat="47.26913" lon="4.95577">
        <ele>462.3</ele>
        <time>2015-04-25T07:27:08.000Z</time>
      </trkpt>
      <trkpt lat="47.26903" lon="4.95586">
        <ele>462.5</ele>
        <time>2015-04-25T07:27:16.000Z</time>
      </trkpt>
      <trkpt lat="47.26892" lon="4.95597">
        <ele>462.9</ele>
        <time>2015-04-25T07:27:25.000Z</time>
      </trkpt>
      <trkpt lat="47.26881" lon="4.95607">
        <ele>463.6</ele>
        <time>2015-04-25T07:27:34.000Z</time>
      </trkpt>
      <trkpt lat="47.26872" lon="4.95615">
        <ele>464.2</ele>
        <time>2015-04-25T07:27:41.000Z</time>
      </trkpt>
      <trkpt lat="47.26865" lon="4.95622">
        <ele>464.7</ele>
        <time>2015-04-25T07:27:47.000Z</time>
      </trkpt>
      <trkpt lat="47.26855" lon="4.95634">
        <ele>465.2</ele>
        <time>2015-04-25T07:27:56.000Z</time>
      </trkpt>
      <trkpt lat="47.26848" lon="4.95646">
        <ele>465.2</ele>
        <time>2015-04-25T07:28:05.000Z</time>
      </trkpt>
      <trkpt lat="47.26841" lon="4.95661">
        <ele>464.9</ele>
        <time>2015-04-25T07:28:14.000Z</time>
      </trkpt>
      <trkpt lat="47.26834" lon="4.95676">
        <ele>465</ele>
        <time>2015-04-25T07:28:23.000Z</time>
      </trkpt>
      <trkpt lat="47.26829" lon="4.95686">
        <ele>465.2</ele>
        <time>2015-04-25T07:28:29.000Z</time>
      </trkpt>
      <trkpt lat="47.26829" lon="4.95687">
        <ele>465.2</ele>
        <time>2015-04-25T07:28:30.000Z</time>
      </trkpt>
      <trkpt lat="47.26825" lon="4.95693">
        <ele>465.3</ele>
        <time>2015-04-25T07:28:34.000Z</time>
      </trkpt>
      <trkpt lat="47.26824" lon="4.95694">
        <ele>465.4</ele>
        <time>2015-04-25T07:28:35.000Z</time>
      </trkpt>
      <trkpt lat="47.26813" lon="4.95704">
        <ele>465.5</ele>
        <time>2015-04-25T07:28:43.000Z</time>
      </trkpt>
      <trkpt lat="47.26806" lon="4.95715">
        <ele>465.2</ele>
        <time>2015-04-25T07:28:50.000Z</time>
      </trkpt>
      <trkpt lat="47.268" lon="4.95728">
        <ele>465.2</ele>
        <time>2015-04-25T07:28:57.000Z</time>
      </trkpt>
      <trkpt lat="47.26793" lon="4.95746">
        <ele>465.4</ele>
        <time>2015-04-25T07:29:06.000Z</time>
      </trkpt>
      <trkpt lat="47.26788" lon="4.9576">
        <ele>465.4</ele>
        <time>2015-04-25T07:29:14.000Z</time>
      </trkpt>
      <trkpt lat="47.26782" lon="4.95773">
        <ele>465.2</ele>
        <time>2015-04-25T07:29:21.000Z</time>
      </trkpt>
      <trkpt lat="47.26775" lon="4.95784">
        <ele>465.1</ele>
        <time>2015-04-25T07:29:28.000Z</time>
      </trkpt>
      <trkpt lat="47.26765" lon="4.95793">
        <ele>465.2</ele>
        <time>2015-04-25T07:29:36.000Z</time>
      </trkpt>
      <trkpt lat="47.26763" lon="4.95793">
        <ele>465.2</ele>
        <time>2015-04-25T07:29:37.000Z</time>
      </trkpt>
      <trkpt lat="47.26752" lon="4.95803">
        <ele>465.1</ele>
        <time>2015-04-25T07:29:46.000Z</time>
      </trkpt>
      <trkpt lat="47.26739" lon="4.95808">
        <ele>464.9</ele>
        <time>2015-04-25T07:29:55.000Z</time>
      </trkpt>
      <trkpt lat="47.26728" lon="4.95815">
        <ele>464.7</ele>
        <time>2015-04-25T07:30:04.000Z</time>
      </trkpt>
      <trkpt lat="47.26722" lon="4.95831">
        <ele>464.1</ele>
        <time>2015-04-25T07:30:13.000Z</time>
      </trkpt>
      <trkpt lat="47.26717" lon="4.95843">
        <ele>463.7</ele>
        <time>2015-04-25T07:30:20.000Z</time>
      </trkpt>
      <trkpt lat="47.26712" lon="4.95856">
        <ele>463.5</ele>
        <time>2015-04-25T07:30:27.000Z</time>
      </trkpt>
      <trkpt lat="47.26706" lon="4.95868">
        <ele>463.4</ele>
        <time>2015-04-25T07:30:34.000Z</time>
      </trkpt>
      <trkpt lat="47.26701" lon="4.95881">
        <ele>463.2</ele>
        <time>2015-04-25T07:30:41.000Z</time>
      </trkpt>
      <trkpt lat="47.26698" lon="4.95897">
        <ele>462.7</ele>
        <time>2015-04-25T07:30:49.000Z</time>
      </trkpt>
      <trkpt lat="47.26696" lon="4.95914">
        <ele>462.1</ele>
        <time>2015-04-25T07:30:57.000Z</time>
      </trkpt>
      <trkpt lat="47.26693" lon="4.9593">
        <ele>461.5</ele>
        <time>2015-04-25T07:31:05.000Z</time>
      </trkpt>
      <trkpt lat="47.26691" lon="4.95943">
        <ele>461.1</ele>
        <time>2015-04-25T07:31:11.000Z</time>
      </trkpt>
      <trkpt lat="47.26688" lon="4.95962">
        <ele>460.4</ele>
        <time>2015-04-25T07:31:20.000Z</time>
      </trkpt>
      <trkpt lat="47.26686" lon="4.9598">
        <ele>459.7</ele>
        <time>2015-04-25T07:31:28.000Z</time>
      </trkpt>
      <trkpt lat="47.26685" lon="4.95993">
        <ele>459.3</ele>
        <time>2015-04-25T07:31:34.000Z</time>
      </trkpt>
      <trkpt lat="47.26681" lon="4.9601">
        <ele>458.8</ele>
        <time>2015-04-25T07:31:42.000Z</time>
      </trkpt>
      <trkpt lat="47.26676" lon="4.96026">
        <ele>458.4</ele>
        <time>2015-04-25T07:31:50.000Z</time>
      </trkpt>
      <trkpt lat="47.26671" lon="4.9604">
        <ele>457.7</ele>
        <time>2015-04-25T07:31:57.000Z</time>
      </trkpt>
      <trkpt lat="47.26667" lon="4.96051">
        <ele>457.2</ele>
        <time>2015-04-25T07:32:03.000Z</time>
      </trkpt>
      <trkpt lat="47.2666" lon="4.96067">
        <ele>456.6</ele>
        <time>2015-04-25T07:32:12.000Z</time>
      </trkpt>
      <trkpt lat="47.26653" lon="4.9608">
        <ele>456.1</ele>
        <time>2015-04-25T07:32:20.000Z</time>
      </trkpt>
      <trkpt lat="47.26646" lon="4.96091">
        <ele>455.7</ele>
        <time>2015-04-25T07:32:27.000Z</time>
      </trkpt>
      <trkpt lat="47.26638" lon="4.96103">
        <ele>455.3</ele>
        <time>2015-04-25T07:32:34.000Z</time>
      </trkpt>
      <trkpt lat="47.26631" lon="4.96114">
        <ele>454.6</ele>
        <time>2015-04-25T07:32:41.000Z</time>
      </trkpt>
      <trkpt lat="47.26621" lon="4.96131">
        <ele>454.1</ele>
        <time>2015-04-25T07:32:51.000Z</time>
      </trkpt>
      <trkpt lat="47.26609" lon="4.9616">
        <ele>452.4</ele>
        <time>2015-04-25T07:33:06.000Z</time>
      </trkpt>
      <trkpt lat="47.26601" lon="4.9618">
        <ele>451.8</ele>
        <time>2015-04-25T07:33:16.000Z</time>
      </trkpt>
      <trkpt lat="47.26595" lon="4.96195">
        <ele>451.4</ele>
        <time>2015-04-25T07:33:24.000Z</time>
      </trkpt>
      <trkpt lat="47.26587" lon="4.96217">
        <ele>450.3</ele>
        <time>2015-04-25T07:33:35.000Z</time>
      </trkpt>
      <trkpt lat="47.26582" lon="4.96232">
        <ele>449.7</ele>
        <time>2015-04-25T07:33:42.000Z</time>
      </trkpt>
      <trkpt lat="47.26579" lon="4.96246">
        <ele>449.1</ele>
        <time>2015-04-25T07:33:49.000Z</time>
      </trkpt>
      <trkpt lat="47.26575" lon="4.96265">
        <ele>448.5</ele>
        <time>2015-04-25T07:33:58.000Z</time>
      </trkpt>
      <trkpt lat="47.26573" lon="4.96277">
        <ele>448</ele>
        <time>2015-04-25T07:34:04.000Z</time>
      </trkpt>
      <trkpt lat="47.2657" lon="4.9629">
        <ele>447.6</ele>
        <time>2015-04-25T07:34:10.000Z</time>
      </trkpt>
      <trkpt lat="47.26568" lon="4.96311">
        <ele>446.8</ele>
        <time>2015-04-25T07:34:20.000Z</time>
      </trkpt>
      <trkpt lat="47.26565" lon="4.96328">
        <ele>446.2</ele>
        <time>2015-04-25T07:34:28.000Z</time>
      </trkpt>
      <trkpt lat="47.26564" lon="4.96345">
        <ele>445.3</ele>
        <time>2015-04-25T07:34:36.000Z</time>
      </trkpt>
      <trkpt lat="47.26561" lon="4.9636">
        <ele>444.3</ele>
        <time>2015-04-25T07:34:43.000Z</time>
      </trkpt>
      <trkpt lat="47.26559" lon="4.96368">
        <ele>443.8</ele>
        <time>2015-04-25T07:34:47.000Z</time>
      </trkpt>
      <trkpt lat="47.26563" lon="4.96372">
        <ele>443.7</ele>
        <time>2015-04-25T07:34:53.000Z</time>
      </trkpt>
      <trkpt lat="47.26565" lon="4.96374">
        <ele>443.7</ele>
        <time>2015-04-25T07:34:55.000Z</time>
      </trkpt>
      <trkpt lat="47.26571" lon="4.96378">
        <ele>443.6</ele>
        <time>2015-04-25T07:34:59.000Z</time>
      </trkpt>
      <trkpt lat="47.26577" lon="4.96386">
        <ele>443.2</ele>
        <time>2015-04-25T07:35:05.000Z</time>
      </trkpt>
      <trkpt lat="47.26579" lon="4.96391">
        <ele>442.9</ele>
        <time>2015-04-25T07:35:09.000Z</time>
      </trkpt>
      <trkpt lat="47.26584" lon="4.96395">
        <ele>442.8</ele>
        <time>2015-04-25T07:35:13.000Z</time>
      </trkpt>
      <trkpt lat="47.26591" lon="4.96404">
        <ele>442.4</ele>
        <time>2015-04-25T07:35:21.000Z</time>
      </trkpt>
      <trkpt lat="47.26597" lon="4.96411">
        <ele>442.2</ele>
        <time>2015-04-25T07:35:26.000Z</time>
      </trkpt>
      <trkpt lat="47.26607" lon="4.96419">
        <ele>441.9</ele>
        <time>2015-04-25T07:35:33.000Z</time>
      </trkpt>
      <trkpt lat="47.26616" lon="4.96424">
        <ele>441.7</ele>
        <time>2015-04-25T07:35:41.000Z</time>
      </trkpt>
      <trkpt lat="47.26621" lon="4.96426">
        <ele>441.6</ele>
        <time>2015-04-25T07:35:45.000Z</time>
      </trkpt>
      <trkpt lat="47.26627" lon="4.96422">
        <ele>441.8</ele>
        <time>2015-04-25T07:35:50.000Z</time>
      </trkpt>
      <trkpt lat="47.2663" lon="4.96419">
        <ele>441.9</ele>
        <time>2015-04-25T07:35:54.000Z</time>
      </trkpt>
      <trkpt lat="47.26644" lon="4.96416">
        <ele>441.9</ele>
        <time>2015-04-25T07:36:05.000Z</time>
      </trkpt>
      <trkpt lat="47.26656" lon="4.96421">
        <ele>441.2</ele>
        <time>2015-04-25T07:36:14.000Z</time>
      </trkpt>
      <trkpt lat="47.26664" lon="4.96422">
        <ele>440.9</ele>
        <time>2015-04-25T07:36:21.000Z</time>
      </trkpt>
      <trkpt lat="47.26672" lon="4.96429">
        <ele>440.7</ele>
        <time>2015-04-25T07:36:27.000Z</time>
      </trkpt>
      <trkpt lat="47.26676" lon="4.96433">
        <ele>440.7</ele>
        <time>2015-04-25T07:36:31.000Z</time>
      </trkpt>
      <trkpt lat="47.26685" lon="4.96434">
        <ele>441</ele>
        <time>2015-04-25T07:36:38.000Z</time>
      </trkpt>
      <trkpt lat="47.26686" lon="4.96434">
        <ele>441.1</ele>
        <time>2015-04-25T07:36:39.000Z</time>
      </trkpt>
      <trkpt lat="47.26689" lon="4.96431">
        <ele>441.3</ele>
        <time>2015-04-25T07:36:43.000Z</time>
      </trkpt>
      <trkpt lat="47.26695" lon="4.96426">
        <ele>441.6</ele>
        <time>2015-04-25T07:36:49.000Z</time>
      </trkpt>
      <trkpt lat="47.26696" lon="4.96426">
        <ele>441.7</ele>
        <time>2015-04-25T07:36:50.000Z</time>
      </trkpt>
      <trkpt lat="47.26698" lon="4.96425">
        <ele>441.6</ele>
        <time>2015-04-25T07:36:51.000Z</time>
      </trkpt>
      <trkpt lat="47.26704" lon="4.96428">
        <ele>441.5</ele>
        <time>2015-04-25T07:36:55.000Z</time>
      </trkpt>
      <trkpt lat="47.26713" lon="4.96431">
        <ele>441.1</ele>
        <time>2015-04-25T07:37:02.000Z</time>
      </trkpt>
      <trkpt lat="47.26714" lon="4.96432">
        <ele>441</ele>
        <time>2015-04-25T07:37:03.000Z</time>
      </trkpt>
      <trkpt lat="47.26722" lon="4.96434">
        <ele>440.8</ele>
        <time>2015-04-25T07:37:10.000Z</time>
      </trkpt>
      <trkpt lat="47.26727" lon="4.96438">
        <ele>440.5</ele>
        <time>2015-04-25T07:37:14.000Z</time>
      </trkpt>
      <trkpt lat="47.26732" lon="4.96433">
        <ele>440.8</ele>
        <time>2015-04-25T07:37:20.000Z</time>
      </trkpt>
      <trkpt lat="47.26735" lon="4.96429">
        <ele>441.1</ele>
        <time>2015-04-25T07:37:24.000Z</time>
      </trkpt>
      <trkpt lat="47.26738" lon="4.96426">
        <ele>441.4</ele>
        <time>2015-04-25T07:37:27.000Z</time>
      </trkpt>
      <trkpt lat="47.26745" lon="4.96426">
        <ele>441.3</ele>
        <time>2015-04-25T07:37:32.000Z</time>
      </trkpt>
      <trkpt lat="47.26756" lon="4.96427">
        <ele>441.3</ele>
        <time>2015-04-25T07:37:39.000Z</time>
      </trkpt>
      <trkpt lat="47.26763" lon="4.96428">
        <ele>441.2</ele>
        <time>2015-04-25T07:37:45.000Z</time>
      </trkpt>
      <trkpt lat="47.26771" lon="4.96422">
        <ele>441.6</ele>
        <time>2015-04-25T07:37:51.000Z</time>
      </trkpt>
      <trkpt lat="47.26783" lon="4.96417">
        <ele>441.8</ele>
        <time>2015-04-25T07:37:59.000Z</time>
      </trkpt>
      <trkpt lat="47.26795" lon="4.96417">
        <ele>441.4</ele>
        <time>2015-04-25T07:38:07.000Z</time>
      </trkpt>
      <trkpt lat="47.2681" lon="4.96417">
        <ele>440.9</ele>
        <time>2015-04-25T07:38:17.000Z</time>
      </trkpt>
      <trkpt lat="47.26821" lon="4.96418">
        <ele>440.9</ele>
        <time>2015-04-25T07:38:25.000Z</time>
      </trkpt>
      <trkpt lat="47.26831" lon="4.9642">
        <ele>440.7</ele>
        <time>2015-04-25T07:38:33.000Z</time>
      </trkpt>
      <trkpt lat="47.26841" lon="4.96424">
        <ele>440.2</ele>
        <time>2015-04-25T07:38:40.000Z</time>
      </trkpt>
      <trkpt lat="47.26851" lon="4.96422">
        <ele>440</ele>
        <time>2015-04-25T07:38:47.000Z</time>
      </trkpt>
      <trkpt lat="47.26855" lon="4.96419">
        <ele>440</ele>
        <time>2015-04-25T07:38:50.000Z</time>
      </trkpt>
      <trkpt lat="47.26861" lon="4.96422">
        <ele>439.6</ele>
        <time>2015-04-25T07:38:55.000Z</time>
      </trkpt>
      <trkpt lat="47.26871" lon="4.96417">
        <ele>439.6</ele>
        <time>2015-04-25T07:39:03.000Z</time>
      </trkpt>
      <trkpt lat="47.26872" lon="4.96417">
        <ele>439.6</ele>
        <time>2015-04-25T07:39:05.000Z</time>
      </trkpt>
      <trkpt lat="47.26883" lon="4.96417">
        <ele>439.2</ele>
        <time>2015-04-25T07:39:13.000Z</time>
      </trkpt>
      <trkpt lat="47.26887" lon="4.96417">
        <ele>439.1</ele>
        <time>2015-04-25T07:39:16.000Z</time>
      </trkpt>
      <trkpt lat="47.26898" lon="4.96417">
        <ele>439</ele>
        <time>2015-04-25T07:39:24.000Z</time>
      </trkpt>
      <trkpt lat="47.26899" lon="4.96417">
        <ele>439</ele>
        <time>2015-04-25T07:39:25.000Z</time>
      </trkpt>
      <trkpt lat="47.26906" lon="4.96417">
        <ele>439</ele>
        <time>2015-04-25T07:39:30.000Z</time>
      </trkpt>
      <trkpt lat="47.26911" lon="4.96416">
        <ele>439</ele>
        <time>2015-04-25T07:39:34.000Z</time>
      </trkpt>
      <trkpt lat="47.26917" lon="4.96414">
        <ele>439.2</ele>
        <time>2015-04-25T07:39:38.000Z</time>
      </trkpt>
      <trkpt lat="47.26923" lon="4.96406">
        <ele>439.8</ele>
        <time>2015-04-25T07:39:45.000Z</time>
      </trkpt>
      <trkpt lat="47.26924" lon="4.96406">
        <ele>439.8</ele>
        <time>2015-04-25T07:39:46.000Z</time>
      </trkpt>
      <trkpt lat="47.26931" lon="4.96403">
        <ele>440</ele>
        <time>2015-04-25T07:39:51.000Z</time>
      </trkpt>
      <trkpt lat="47.26932" lon="4.96402">
        <ele>440</ele>
        <time>2015-04-25T07:39:52.000Z</time>
      </trkpt>
      <trkpt lat="47.26937" lon="4.96399">
        <ele>440.3</ele>
        <time>2015-04-25T07:39:56.000Z</time>
      </trkpt>
      <trkpt lat="47.26944" lon="4.96395">
        <ele>440.6</ele>
        <time>2015-04-25T07:40:09.000Z</time>
      </trkpt>
      <trkpt lat="47.26951" lon="4.96389">
        <ele>440.7</ele>
        <time>2015-04-25T07:40:16.000Z</time>
      </trkpt>
      <trkpt lat="47.26953" lon="4.96388">
        <ele>440.7</ele>
        <time>2015-04-25T07:40:18.000Z</time>
      </trkpt>
      <trkpt lat="47.2696" lon="4.96383">
        <ele>440.8</ele>
        <time>2015-04-25T07:40:25.000Z</time>
      </trkpt>
      <trkpt lat="47.26961" lon="4.96383">
        <ele>440.8</ele>
        <time>2015-04-25T07:40:26.000Z</time>
      </trkpt>
      <trkpt lat="47.2697" lon="4.96381">
        <ele>440.6</ele>
        <time>2015-04-25T07:40:33.000Z</time>
      </trkpt>
      <trkpt lat="47.26976" lon="4.96379">
        <ele>440.6</ele>
        <time>2015-04-25T07:40:37.000Z</time>
      </trkpt>
      <trkpt lat="47.2699" lon="4.9638">
        <ele>440</ele>
        <time>2015-04-25T07:40:47.000Z</time>
      </trkpt>
      <trkpt lat="47.26992" lon="4.9638">
        <ele>439.9</ele>
        <time>2015-04-25T07:40:48.000Z</time>
      </trkpt>
      <trkpt lat="47.26993" lon="4.9638">
        <ele>439.9</ele>
        <time>2015-04-25T07:40:49.000Z</time>
      </trkpt>
      <trkpt lat="47.27001" lon="4.96375">
        <ele>440</ele>
        <time>2015-04-25T07:40:54.000Z</time>
      </trkpt>
      <trkpt lat="47.27008" lon="4.96374">
        <ele>439.8</ele>
        <time>2015-04-25T07:41:00.000Z</time>
      </trkpt>
      <trkpt lat="47.27012" lon="4.9637">
        <ele>439.9</ele>
        <time>2015-04-25T07:41:04.000Z</time>
      </trkpt>
      <trkpt lat="47.27015" lon="4.96369">
        <ele>439.9</ele>
        <time>2015-04-25T07:41:12.000Z</time>
      </trkpt>
      <trkpt lat="47.27021" lon="4.96363">
        <ele>440.1</ele>
        <time>2015-04-25T07:41:19.000Z</time>
      </trkpt>
      <trkpt lat="47.27022" lon="4.96361">
        <ele>440.2</ele>
        <time>2015-04-25T07:41:22.000Z</time>
      </trkpt>
      <trkpt lat="47.27027" lon="4.96359">
        <ele>440.2</ele>
        <time>2015-04-25T07:41:28.000Z</time>
      </trkpt>
      <trkpt lat="47.2703" lon="4.9636">
        <ele>440.1</ele>
        <time>2015-04-25T07:41:34.000Z</time>
      </trkpt>
      <trkpt lat="47.27039" lon="4.9636">
        <ele>440</ele>
        <time>2015-04-25T07:41:41.000Z</time>
      </trkpt>
      <trkpt lat="47.27047" lon="4.9636">
        <ele>440.1</ele>
        <time>2015-04-25T07:41:47.000Z</time>
      </trkpt>
      <trkpt lat="47.2705" lon="4.9636">
        <ele>440.1</ele>
        <time>2015-04-25T07:41:49.000Z</time>
      </trkpt>
      <trkpt lat="47.27059" lon="4.96356">
        <ele>440.2</ele>
        <time>2015-04-25T07:41:57.000Z</time>
      </trkpt>
      <trkpt lat="47.27068" lon="4.96357">
        <ele>439.9</ele>
        <time>2015-04-25T07:42:03.000Z</time>
      </trkpt>
      <trkpt lat="47.27076" lon="4.96357">
        <ele>439.6</ele>
        <time>2015-04-25T07:42:09.000Z</time>
      </trkpt>
      <trkpt lat="47.27082" lon="4.96356">
        <ele>439.4</ele>
        <time>2015-04-25T07:42:13.000Z</time>
      </trkpt>
      <trkpt lat="47.27086" lon="4.96353">
        <ele>439.5</ele>
        <time>2015-04-25T07:42:17.000Z</time>
      </trkpt>
      <trkpt lat="47.27093" lon="4.96345">
        <ele>439.6</ele>
        <time>2015-04-25T07:42:25.000Z</time>
      </trkpt>
      <trkpt lat="47.27097" lon="4.9634">
        <ele>439.7</ele>
        <time>2015-04-25T07:42:30.000Z</time>
      </trkpt>
      <trkpt lat="47.27101" lon="4.96335">
        <ele>439.6</ele>
        <time>2015-04-25T07:42:35.000Z</time>
      </trkpt>
      <trkpt lat="47.27101" lon="4.96334">
        <ele>439.7</ele>
        <time>2015-04-25T07:42:36.000Z</time>
      </trkpt>
      <trkpt lat="47.27103" lon="4.96328">
        <ele>440</ele>
        <time>2015-04-25T07:42:40.000Z</time>
      </trkpt>
      <trkpt lat="47.27105" lon="4.96323">
        <ele>440.1</ele>
        <time>2015-04-25T07:42:44.000Z</time>
      </trkpt>
      <trkpt lat="47.27107" lon="4.96313">
        <ele>440.6</ele>
        <time>2015-04-25T07:42:50.000Z</time>
      </trkpt>
      <trkpt lat="47.27113" lon="4.96307">
        <ele>440.8</ele>
        <time>2015-04-25T07:42:55.000Z</time>
      </trkpt>
      <trkpt lat="47.27114" lon="4.96306">
        <ele>440.9</ele>
        <time>2015-04-25T07:42:56.000Z</time>
      </trkpt>
      <trkpt lat="47.2712" lon="4.96293">
        <ele>441.1</ele>
        <time>2015-04-25T07:43:04.000Z</time>
      </trkpt>
      <trkpt lat="47.27122" lon="4.96289">
        <ele>441.2</ele>
        <time>2015-04-25T07:43:07.000Z</time>
      </trkpt>
      <trkpt lat="47.27124" lon="4.96284">
        <ele>441.3</ele>
        <time>2015-04-25T07:43:11.000Z</time>
      </trkpt>
      <trkpt lat="47.27124" lon="4.96281">
        <ele>441.4</ele>
        <time>2015-04-25T07:43:13.000Z</time>
      </trkpt>
      <trkpt lat="47.27128" lon="4.96272">
        <ele>441.6</ele>
        <time>2015-04-25T07:43:18.000Z</time>
      </trkpt>
      <trkpt lat="47.27129" lon="4.96272">
        <ele>441.6</ele>
        <time>2015-04-25T07:43:19.000Z</time>
      </trkpt>
      <trkpt lat="47.27135" lon="4.96268">
        <ele>441.5</ele>
        <time>2015-04-25T07:43:25.000Z</time>
      </trkpt>
      <trkpt lat="47.27138" lon="4.96266">
        <ele>441.5</ele>
        <time>2015-04-25T07:43:33.000Z</time>
      </trkpt>
      <trkpt lat="47.27141" lon="4.9626">
        <ele>441.2</ele>
        <time>2015-04-25T07:43:44.000Z</time>
      </trkpt>
      <trkpt lat="47.27142" lon="4.96257">
        <ele>440.9</ele>
        <time>2015-04-25T07:43:46.000Z</time>
      </trkpt>
      <trkpt lat="47.27145" lon="4.96247">
        <ele>440.6</ele>
        <time>2015-04-25T07:43:53.000Z</time>
      </trkpt>
      <trkpt lat="47.27147" lon="4.96244">
        <ele>440.5</ele>
        <time>2015-04-25T07:43:56.000Z</time>
      </trkpt>
      <trkpt lat="47.27152" lon="4.96237">
        <ele>440.2</ele>
        <time>2015-04-25T07:44:01.000Z</time>
      </trkpt>
      <trkpt lat="47.27154" lon="4.96233">
        <ele>440.4</ele>
        <time>2015-04-25T07:44:04.000Z</time>
      </trkpt>
      <trkpt lat="47.27161" lon="4.96227">
        <ele>440.5</ele>
        <time>2015-04-25T07:44:11.000Z</time>
      </trkpt>
      <trkpt lat="47.27169" lon="4.96216">
        <ele>440.8</ele>
        <time>2015-04-25T07:44:19.000Z</time>
      </trkpt>
      <trkpt lat="47.27169" lon="4.96215">
        <ele>440.7</ele>
        <time>2015-04-25T07:44:20.000Z</time>
      </trkpt>
      <trkpt lat="47.27177" lon="4.96211">
        <ele>439.7</ele>
        <time>2015-04-25T07:44:26.000Z</time>
      </trkpt>
      <trkpt lat="47.27182" lon="4.96209">
        <ele>439.2</ele>
        <time>2015-04-25T07:44:30.000Z</time>
      </trkpt>
      <trkpt lat="47.27185" lon="4.96206">
        <ele>439.2</ele>
        <time>2015-04-25T07:44:36.000Z</time>
      </trkpt>
      <trkpt lat="47.27187" lon="4.96202">
        <ele>439.8</ele>
        <time>2015-04-25T07:44:42.000Z</time>
      </trkpt>
      <trkpt lat="47.27188" lon="4.96194">
        <ele>441.2</ele>
        <time>2015-04-25T07:44:47.000Z</time>
      </trkpt>
      <trkpt lat="47.27189" lon="4.96193">
        <ele>441.3</ele>
        <time>2015-04-25T07:44:48.000Z</time>
      </trkpt>
      <trkpt lat="47.27191" lon="4.96185">
        <ele>441.5</ele>
        <time>2015-04-25T07:44:52.000Z</time>
      </trkpt>
      <trkpt lat="47.27191" lon="4.96182">
        <ele>441.5</ele>
        <time>2015-04-25T07:44:54.000Z</time>
      </trkpt>
      <trkpt lat="47.27195" lon="4.96171">
        <ele>441.7</ele>
        <time>2015-04-25T07:45:01.000Z</time>
      </trkpt>
      <trkpt lat="47.27196" lon="4.96168">
        <ele>441.5</ele>
        <time>2015-04-25T07:45:03.000Z</time>
      </trkpt>
      <trkpt lat="47.27198" lon="4.9616">
        <ele>441.8</ele>
        <time>2015-04-25T07:45:09.000Z</time>
      </trkpt>
      <trkpt lat="47.27199" lon="4.96154">
        <ele>442.1</ele>
        <time>2015-04-25T07:45:12.000Z</time>
      </trkpt>
      <trkpt lat="47.27201" lon="4.96144">
        <ele>442.6</ele>
        <time>2015-04-25T07:45:17.000Z</time>
      </trkpt>
      <trkpt lat="47.27203" lon="4.96136">
        <ele>442.8</ele>
        <time>2015-04-25T07:45:22.000Z</time>
      </trkpt>
      <trkpt lat="47.27206" lon="4.96132">
        <ele>442.3</ele>
        <time>2015-04-25T07:45:26.000Z</time>
      </trkpt>
      <trkpt lat="47.27211" lon="4.96127">
        <ele>441.6</ele>
        <time>2015-04-25T07:45:32.000Z</time>
      </trkpt>
      <trkpt lat="47.27212" lon="4.96125">
        <ele>441.4</ele>
        <time>2015-04-25T07:45:34.000Z</time>
      </trkpt>
      <trkpt lat="47.27215" lon="4.96123">
        <ele>441</ele>
        <time>2015-04-25T07:45:38.000Z</time>
      </trkpt>
      <trkpt lat="47.2722" lon="4.96122">
        <ele>440.4</ele>
        <time>2015-04-25T07:45:42.000Z</time>
      </trkpt>
      <trkpt lat="47.27225" lon="4.96118">
        <ele>440.2</ele>
        <time>2015-04-25T07:45:46.000Z</time>
      </trkpt>
      <trkpt lat="47.27228" lon="4.96116">
        <ele>440.5</ele>
        <time>2015-04-25T07:45:58.000Z</time>
      </trkpt>
      <trkpt lat="47.2723" lon="4.96117">
        <ele>440.7</ele>
        <time>2015-04-25T07:46:09.000Z</time>
      </trkpt>
      <trkpt lat="47.27233" lon="4.96121">
        <ele>440.8</ele>
        <time>2015-04-25T07:46:13.000Z</time>
      </trkpt>
      <trkpt lat="47.27237" lon="4.96128">
        <ele>440.6</ele>
        <time>2015-04-25T07:46:20.000Z</time>
      </trkpt>
      <trkpt lat="47.27239" lon="4.96132">
        <ele>440.5</ele>
        <time>2015-04-25T07:46:23.000Z</time>
      </trkpt>
      <trkpt lat="47.2724" lon="4.96135">
        <ele>440.3</ele>
        <time>2015-04-25T07:46:25.000Z</time>
      </trkpt>
      <trkpt lat="47.27241" lon="4.9614">
        <ele>439.9</ele>
        <time>2015-04-25T07:46:29.000Z</time>
      </trkpt>
      <trkpt lat="47.27241" lon="4.96142">
        <ele>439.6</ele>
        <time>2015-04-25T07:46:31.000Z</time>
      </trkpt>
      <trkpt lat="47.27243" lon="4.96147">
        <ele>438.8</ele>
        <time>2015-04-25T07:46:35.000Z</time>
      </trkpt>
      <trkpt lat="47.27245" lon="4.96153">
        <ele>438</ele>
        <time>2015-04-25T07:46:40.000Z</time>
      </trkpt>
      <trkpt lat="47.27241" lon="4.96159">
        <ele>437.1</ele>
        <time>2015-04-25T07:46:45.000Z</time>
      </trkpt>
      <trkpt lat="47.27243" lon="4.96167">
        <ele>436</ele>
        <time>2015-04-25T07:46:50.000Z</time>
      </trkpt>
      <trkpt lat="47.27247" lon="4.96173">
        <ele>434.8</ele>
        <time>2015-04-25T07:46:56.000Z</time>
      </trkpt>
      <trkpt lat="47.27249" lon="4.96174">
        <ele>434.6</ele>
        <time>2015-04-25T07:46:57.000Z</time>
      </trkpt>
      <trkpt lat="47.27254" lon="4.96177">
        <ele>435.8</ele>
        <time>2015-04-25T07:47:01.000Z</time>
      </trkpt>
      <trkpt lat="47.27259" lon="4.96182">
        <ele>437</ele>
        <time>2015-04-25T07:47:07.000Z</time>
      </trkpt>
      <trkpt lat="47.27259" lon="4.96186">
        <ele>436.5</ele>
        <time>2015-04-25T07:47:08.000Z</time>
      </trkpt>
      <trkpt lat="47.27261" lon="4.9619">
        <ele>436.5</ele>
        <time>2015-04-25T07:47:11.000Z</time>
      </trkpt>
      <trkpt lat="47.27264" lon="4.96197">
        <ele>437.3</ele>
        <time>2015-04-25T07:47:17.000Z</time>
      </trkpt>
      <trkpt lat="47.27265" lon="4.96206">
        <ele>437.1</ele>
        <time>2015-04-25T07:47:24.000Z</time>
      </trkpt>
      <trkpt lat="47.27265" lon="4.96207">
        <ele>436.9</ele>
        <time>2015-04-25T07:47:25.000Z</time>
      </trkpt>
      <trkpt lat="47.27261" lon="4.96218">
        <ele>433.2</ele>
        <time>2015-04-25T07:47:53.000Z</time>
      </trkpt>
      <trkpt lat="47.27254" lon="4.96214">
        <ele>429.4</ele>
        <time>2015-04-25T07:48:13.000Z</time>
      </trkpt>
      <trkpt lat="47.27253" lon="4.96211">
        <ele>429</ele>
        <time>2015-04-25T07:48:23.000Z</time>
      </trkpt>
      <trkpt lat="47.27251" lon="4.96208">
        <ele>428.5</ele>
        <time>2015-04-25T07:48:33.000Z</time>
      </trkpt>
      <trkpt lat="47.2725" lon="4.96208">
        <ele>428.2</ele>
        <time>2015-04-25T07:48:42.000Z</time>
      </trkpt>
      <trkpt lat="47.27248" lon="4.96206">
        <ele>428.4</ele>
        <time>2015-04-25T07:48:54.000Z</time>
      </trkpt>
      <trkpt lat="47.27246" lon="4.96204">
        <ele>428.5</ele>
        <time>2015-04-25T07:48:59.000Z</time>
      </trkpt>
      <trkpt lat="47.27245" lon="4.96205">
        <ele>428.2</ele>
        <time>2015-04-25T07:49:00.000Z</time>
      </trkpt>
      <trkpt lat="47.27241" lon="4.96206">
        <ele>427.5</ele>
        <time>2015-04-25T07:49:04.000Z</time>
      </trkpt>
      <trkpt lat="47.27239" lon="4.96207">
        <ele>426.8</ele>
        <time>2015-04-25T07:49:07.000Z</time>
      </trkpt>
      <trkpt lat="47.27234" lon="4.96209">
        <ele>425.8</ele>
        <time>2015-04-25T07:49:14.000Z</time>
      </trkpt>
      <trkpt lat="47.27233" lon="4.96209">
        <ele>425.8</ele>
        <time>2015-04-25T07:49:21.000Z</time>
      </trkpt>
      <trkpt lat="47.27233" lon="4.96217">
        <ele>423.4</ele>
        <time>2015-04-25T07:49:40.000Z</time>
      </trkpt>
      <trkpt lat="47.27236" lon="4.96225">
        <ele>422.2</ele>
        <time>2015-04-25T07:49:46.000Z</time>
      </trkpt>
      <trkpt lat="47.27237" lon="4.96233">
        <ele>421.9</ele>
        <time>2015-04-25T07:49:52.000Z</time>
      </trkpt>
      <trkpt lat="47.27237" lon="4.96236">
        <ele>421.6</ele>
        <time>2015-04-25T07:49:55.000Z</time>
      </trkpt>
      <trkpt lat="47.27237" lon="4.96238">
        <ele>421.5</ele>
        <time>2015-04-25T07:49:56.000Z</time>
      </trkpt>
      <trkpt lat="47.27236" lon="4.96243">
        <ele>421</ele>
        <time>2015-04-25T07:50:00.000Z</time>
      </trkpt>
      <trkpt lat="47.27235" lon="4.96246">
        <ele>420.2</ele>
        <time>2015-04-25T07:50:03.000Z</time>
      </trkpt>
      <trkpt lat="47.2723" lon="4.96251">
        <ele>418.2</ele>
        <time>2015-04-25T07:50:07.000Z</time>
      </trkpt>
      <trkpt lat="47.27223" lon="4.96257">
        <ele>415.7</ele>
        <time>2015-04-25T07:50:13.000Z</time>
      </trkpt>
      <trkpt lat="47.27219" lon="4.96261">
        <ele>416.1</ele>
        <time>2015-04-25T07:50:17.000Z</time>
      </trkpt>
      <trkpt lat="47.27213" lon="4.96269">
        <ele>416.3</ele>
        <time>2015-04-25T07:50:22.000Z</time>
      </trkpt>
      <trkpt lat="47.27212" lon="4.9627">
        <ele>416.2</ele>
        <time>2015-04-25T07:50:23.000Z</time>
      </trkpt>
      <trkpt lat="47.27207" lon="4.96277">
        <ele>415.4</ele>
        <time>2015-04-25T07:50:28.000Z</time>
      </trkpt>
      <trkpt lat="47.27206" lon="4.96279">
        <ele>415.3</ele>
        <time>2015-04-25T07:50:29.000Z</time>
      </trkpt>
      <trkpt lat="47.27204" lon="4.96289">
        <ele>415.1</ele>
        <time>2015-04-25T07:50:34.000Z</time>
      </trkpt>
      <trkpt lat="47.27202" lon="4.96299">
        <ele>414.5</ele>
        <time>2015-04-25T07:50:40.000Z</time>
      </trkpt>
      <trkpt lat="47.27201" lon="4.96304">
        <ele>414</ele>
        <time>2015-04-25T07:50:44.000Z</time>
      </trkpt>
      <trkpt lat="47.27201" lon="4.9631">
        <ele>413.8</ele>
        <time>2015-04-25T07:50:48.000Z</time>
      </trkpt>
      <trkpt lat="47.272" lon="4.96313">
        <ele>413.3</ele>
        <time>2015-04-25T07:50:50.000Z</time>
      </trkpt>
      <trkpt lat="47.27197" lon="4.96324">
        <ele>411.8</ele>
        <time>2015-04-25T07:50:56.000Z</time>
      </trkpt>
      <trkpt lat="47.27197" lon="4.96328">
        <ele>411.7</ele>
        <time>2015-04-25T07:50:58.000Z</time>
      </trkpt>
      <trkpt lat="47.27197" lon="4.9633">
        <ele>411.4</ele>
        <time>2015-04-25T07:50:59.000Z</time>
      </trkpt>
      <trkpt lat="47.27197" lon="4.96337">
        <ele>411.2</ele>
        <time>2015-04-25T07:51:03.000Z</time>
      </trkpt>
      <trkpt lat="47.27196" lon="4.96348">
        <ele>410.2</ele>
        <time>2015-04-25T07:51:08.000Z</time>
      </trkpt>
      <trkpt lat="47.27196" lon="4.96354">
        <ele>410.1</ele>
        <time>2015-04-25T07:51:11.000Z</time>
      </trkpt>
      <trkpt lat="47.27197" lon="4.96359">
        <ele>410.3</ele>
        <time>2015-04-25T07:51:13.000Z</time>
      </trkpt>
      <trkpt lat="47.27195" lon="4.96372">
        <ele>409.2</ele>
        <time>2015-04-25T07:51:19.000Z</time>
      </trkpt>
      <trkpt lat="47.27194" lon="4.96382">
        <ele>409.1</ele>
        <time>2015-04-25T07:51:24.000Z</time>
      </trkpt>
      <trkpt lat="47.27192" lon="4.96388">
        <ele>409.4</ele>
        <time>2015-04-25T07:51:28.000Z</time>
      </trkpt>
      <trkpt lat="47.2719" lon="4.96399">
        <ele>410.6</ele>
        <time>2015-04-25T07:51:34.000Z</time>
      </trkpt>
      <trkpt lat="47.27188" lon="4.96409">
        <ele>411.5</ele>
        <time>2015-04-25T07:51:40.000Z</time>
      </trkpt>
      <trkpt lat="47.27187" lon="4.96421">
        <ele>411.7</ele>
        <time>2015-04-25T07:51:47.000Z</time>
      </trkpt>
      <trkpt lat="47.27184" lon="4.96428">
        <ele>410.5</ele>
        <time>2015-04-25T07:51:52.000Z</time>
      </trkpt>
      <trkpt lat="47.27181" lon="4.96436">
        <ele>408.7</ele>
        <time>2015-04-25T07:51:58.000Z</time>
      </trkpt>
      <trkpt lat="47.2718" lon="4.96438">
        <ele>408.1</ele>
        <time>2015-04-25T07:51:59.000Z</time>
      </trkpt>
      <trkpt lat="47.27179" lon="4.96439">
        <ele>407.4</ele>
        <time>2015-04-25T07:52:01.000Z</time>
      </trkpt>
      <trkpt lat="47.27176" lon="4.96446">
        <ele>405</ele>
        <time>2015-04-25T07:52:05.000Z</time>
      </trkpt>
      <trkpt lat="47.27173" lon="4.96456">
        <ele>403.4</ele>
        <time>2015-04-25T07:52:11.000Z</time>
      </trkpt>
      <trkpt lat="47.27172" lon="4.96461">
        <ele>402.8</ele>
        <time>2015-04-25T07:52:15.000Z</time>
      </trkpt>
      <trkpt lat="47.2717" lon="4.96469">
        <ele>401.1</ele>
        <time>2015-04-25T07:52:21.000Z</time>
      </trkpt>
      <trkpt lat="47.27169" lon="4.96472">
        <ele>400.6</ele>
        <time>2015-04-25T07:52:23.000Z</time>
      </trkpt>
      <trkpt lat="47.27168" lon="4.96474">
        <ele>400.2</ele>
        <time>2015-04-25T07:52:25.000Z</time>
      </trkpt>
      <trkpt lat="47.27165" lon="4.96483">
        <ele>400.5</ele>
        <time>2015-04-25T07:52:32.000Z</time>
      </trkpt>
      <trkpt lat="47.27163" lon="4.96487">
        <ele>400.8</ele>
        <time>2015-04-25T07:52:35.000Z</time>
      </trkpt>
      <trkpt lat="47.27162" lon="4.96489">
        <ele>400.9</ele>
        <time>2015-04-25T07:52:36.000Z</time>
      </trkpt>
      <trkpt lat="47.27161" lon="4.96491">
        <ele>400.9</ele>
        <time>2015-04-25T07:52:37.000Z</time>
      </trkpt>
      <trkpt lat="47.27155" lon="4.96503">
        <ele>399.5</ele>
        <time>2015-04-25T07:52:45.000Z</time>
      </trkpt>
      <trkpt lat="47.27151" lon="4.96513">
        <ele>398.1</ele>
        <time>2015-04-25T07:52:52.000Z</time>
      </trkpt>
      <trkpt lat="47.2715" lon="4.96515">
        <ele>397.7</ele>
        <time>2015-04-25T07:52:53.000Z</time>
      </trkpt>
      <trkpt lat="47.2715" lon="4.96517">
        <ele>397.5</ele>
        <time>2015-04-25T07:52:54.000Z</time>
      </trkpt>
      <trkpt lat="47.27146" lon="4.96523">
        <ele>394.8</ele>
        <time>2015-04-25T07:52:59.000Z</time>
      </trkpt>
      <trkpt lat="47.27144" lon="4.96524">
        <ele>394</ele>
        <time>2015-04-25T07:53:00.000Z</time>
      </trkpt>
      <trkpt lat="47.27143" lon="4.96525">
        <ele>393.2</ele>
        <time>2015-04-25T07:53:01.000Z</time>
      </trkpt>
      <trkpt lat="47.27138" lon="4.96529">
        <ele>390.4</ele>
        <time>2015-04-25T07:53:06.000Z</time>
      </trkpt>
      <trkpt lat="47.27135" lon="4.96532">
        <ele>391.3</ele>
        <time>2015-04-25T07:53:08.000Z</time>
      </trkpt>
      <trkpt lat="47.27131" lon="4.96538">
        <ele>391.9</ele>
        <time>2015-04-25T07:53:12.000Z</time>
      </trkpt>
      <trkpt lat="47.27128" lon="4.96542">
        <ele>391.7</ele>
        <time>2015-04-25T07:53:15.000Z</time>
      </trkpt>
      <trkpt lat="47.27122" lon="4.96549">
        <ele>390</ele>
        <time>2015-04-25T07:53:20.000Z</time>
      </trkpt>
      <trkpt lat="47.27118" lon="4.96552">
        <ele>388.1</ele>
        <time>2015-04-25T07:53:23.000Z</time>
      </trkpt>
      <trkpt lat="47.27117" lon="4.96554">
        <ele>387.1</ele>
        <time>2015-04-25T07:53:26.000Z</time>
      </trkpt>
      <trkpt lat="47.27108" lon="4.9656">
        <ele>385</ele>
        <time>2015-04-25T07:53:32.000Z</time>
      </trkpt>
      <trkpt lat="47.27105" lon="4.96561">
        <ele>385.1</ele>
        <time>2015-04-25T07:53:34.000Z</time>
      </trkpt>
      <trkpt lat="47.271" lon="4.96565">
        <ele>385.2</ele>
        <time>2015-04-25T07:53:37.000Z</time>
      </trkpt>
      <trkpt lat="47.2709" lon="4.9657">
        <ele>384</ele>
        <time>2015-04-25T07:53:44.000Z</time>
      </trkpt>
      <trkpt lat="47.27083" lon="4.96574">
        <ele>382.3</ele>
        <time>2015-04-25T07:53:50.000Z</time>
      </trkpt>
      <trkpt lat="47.27079" lon="4.96578">
        <ele>381.6</ele>
        <time>2015-04-25T07:53:55.000Z</time>
      </trkpt>
      <trkpt lat="47.27075" lon="4.96585">
        <ele>380.7</ele>
        <time>2015-04-25T07:53:59.000Z</time>
      </trkpt>
      <trkpt lat="47.27074" lon="4.96586">
        <ele>380.9</ele>
        <time>2015-04-25T07:54:00.000Z</time>
      </trkpt>
      <trkpt lat="47.27069" lon="4.9659">
        <ele>380.9</ele>
        <time>2015-04-25T07:54:04.000Z</time>
      </trkpt>
      <trkpt lat="47.27064" lon="4.96593">
        <ele>380.4</ele>
        <time>2015-04-25T07:54:08.000Z</time>
      </trkpt>
      <trkpt lat="47.27064" lon="4.96594">
        <ele>380.3</ele>
        <time>2015-04-25T07:54:09.000Z</time>
      </trkpt>
      <trkpt lat="47.27062" lon="4.96595">
        <ele>380</ele>
        <time>2015-04-25T07:54:11.000Z</time>
      </trkpt>
      <trkpt lat="47.27056" lon="4.96602">
        <ele>378.6</ele>
        <time>2015-04-25T07:54:15.000Z</time>
      </trkpt>
      <trkpt lat="47.27052" lon="4.96606">
        <ele>378</ele>
        <time>2015-04-25T07:54:18.000Z</time>
      </trkpt>
      <trkpt lat="47.27047" lon="4.96615">
        <ele>377.8</ele>
        <time>2015-04-25T07:54:24.000Z</time>
      </trkpt>
      <trkpt lat="47.27043" lon="4.96624">
        <ele>378</ele>
        <time>2015-04-25T07:54:28.000Z</time>
      </trkpt>
      <trkpt lat="47.27042" lon="4.96626">
        <ele>377.8</ele>
        <time>2015-04-25T07:54:29.000Z</time>
      </trkpt>
      <trkpt lat="47.27042" lon="4.96628">
        <ele>377.8</ele>
        <time>2015-04-25T07:54:30.000Z</time>
      </trkpt>
      <trkpt lat="47.27038" lon="4.96636">
        <ele>376.4</ele>
        <time>2015-04-25T07:54:34.000Z</time>
      </trkpt>
      <trkpt lat="47.27033" lon="4.96644">
        <ele>373.8</ele>
        <time>2015-04-25T07:54:40.000Z</time>
      </trkpt>
      <trkpt lat="47.27031" lon="4.9665">
        <ele>373.2</ele>
        <time>2015-04-25T07:54:44.000Z</time>
      </trkpt>
      <trkpt lat="47.2703" lon="4.96654">
        <ele>372.5</ele>
        <time>2015-04-25T07:54:46.000Z</time>
      </trkpt>
      <trkpt lat="47.27027" lon="4.96657">
        <ele>371.4</ele>
        <time>2015-04-25T07:54:48.000Z</time>
      </trkpt>
      <trkpt lat="47.27024" lon="4.96663">
        <ele>371.8</ele>
        <time>2015-04-25T07:54:51.000Z</time>
      </trkpt>
      <trkpt lat="47.27021" lon="4.96672">
        <ele>372.1</ele>
        <time>2015-04-25T07:54:56.000Z</time>
      </trkpt>
      <trkpt lat="47.2702" lon="4.96674">
        <ele>372</ele>
        <time>2015-04-25T07:54:57.000Z</time>
      </trkpt>
      <trkpt lat="47.27016" lon="4.96682">
        <ele>371.4</ele>
        <time>2015-04-25T07:55:02.000Z</time>
      </trkpt>
      <trkpt lat="47.27014" lon="4.96686">
        <ele>370.8</ele>
        <time>2015-04-25T07:55:04.000Z</time>
      </trkpt>
      <trkpt lat="47.27011" lon="4.96694">
        <ele>369.3</ele>
        <time>2015-04-25T07:55:11.000Z</time>
      </trkpt>
      <trkpt lat="47.27006" lon="4.96705">
        <ele>367.3</ele>
        <time>2015-04-25T07:55:17.000Z</time>
      </trkpt>
      <trkpt lat="47.27005" lon="4.96707">
        <ele>366.9</ele>
        <time>2015-04-25T07:55:18.000Z</time>
      </trkpt>
      <trkpt lat="47.27004" lon="4.9671">
        <ele>366.6</ele>
        <time>2015-04-25T07:55:19.000Z</time>
      </trkpt>
      <trkpt lat="47.27001" lon="4.96719">
        <ele>364.7</ele>
        <time>2015-04-25T07:55:24.000Z</time>
      </trkpt>
      <trkpt lat="47.27001" lon="4.9672">
        <ele>364.4</ele>
        <time>2015-04-25T07:55:25.000Z</time>
      </trkpt>
      <trkpt lat="47.26999" lon="4.96724">
        <ele>364.2</ele>
        <time>2015-04-25T07:55:27.000Z</time>
      </trkpt>
      <trkpt lat="47.26994" lon="4.96732">
        <ele>365.3</ele>
        <time>2015-04-25T07:55:33.000Z</time>
      </trkpt>
      <trkpt lat="47.26991" lon="4.96742">
        <ele>365.3</ele>
        <time>2015-04-25T07:55:39.000Z</time>
      </trkpt>
      <trkpt lat="47.26989" lon="4.96751">
        <ele>364.8</ele>
        <time>2015-04-25T07:55:44.000Z</time>
      </trkpt>
      <trkpt lat="47.26987" lon="4.96754">
        <ele>364.7</ele>
        <time>2015-04-25T07:55:46.000Z</time>
      </trkpt>
      <trkpt lat="47.26986" lon="4.96756">
        <ele>364.5</ele>
        <time>2015-04-25T07:55:48.000Z</time>
      </trkpt>
      <trkpt lat="47.26982" lon="4.96766">
        <ele>363.7</ele>
        <time>2015-04-25T07:55:54.000Z</time>
      </trkpt>
      <trkpt lat="47.26982" lon="4.96769">
        <ele>363.5</ele>
        <time>2015-04-25T07:55:56.000Z</time>
      </trkpt>
      <trkpt lat="47.2698" lon="4.96774">
        <ele>362.5</ele>
        <time>2015-04-25T07:55:59.000Z</time>
      </trkpt>
      <trkpt lat="47.26976" lon="4.96782">
        <ele>361.1</ele>
        <time>2015-04-25T07:56:05.000Z</time>
      </trkpt>
      <trkpt lat="47.26971" lon="4.96787">
        <ele>359.7</ele>
        <time>2015-04-25T07:56:10.000Z</time>
      </trkpt>
      <trkpt lat="47.26967" lon="4.96792">
        <ele>359.8</ele>
        <time>2015-04-25T07:56:14.000Z</time>
      </trkpt>
      <trkpt lat="47.26964" lon="4.96793">
        <ele>359.7</ele>
        <time>2015-04-25T07:56:16.000Z</time>
      </trkpt>
      <trkpt lat="47.26958" lon="4.96796">
        <ele>359</ele>
        <time>2015-04-25T07:56:20.000Z</time>
      </trkpt>
      <trkpt lat="47.26951" lon="4.968">
        <ele>357.4</ele>
        <time>2015-04-25T07:56:25.000Z</time>
      </trkpt>
      <trkpt lat="47.2695" lon="4.96801">
        <ele>357.2</ele>
        <time>2015-04-25T07:56:26.000Z</time>
      </trkpt>
      <trkpt lat="47.2695" lon="4.96803">
        <ele>356.8</ele>
        <time>2015-04-25T07:56:27.000Z</time>
      </trkpt>
      <trkpt lat="47.26945" lon="4.9681">
        <ele>355.2</ele>
        <time>2015-04-25T07:56:32.000Z</time>
      </trkpt>
      <trkpt lat="47.26942" lon="4.96812">
        <ele>355.2</ele>
        <time>2015-04-25T07:56:34.000Z</time>
      </trkpt>
      <trkpt lat="47.26932" lon="4.9682">
        <ele>354.5</ele>
        <time>2015-04-25T07:56:41.000Z</time>
      </trkpt>
      <trkpt lat="47.26925" lon="4.96826">
        <ele>353</ele>
        <time>2015-04-25T07:56:46.000Z</time>
      </trkpt>
      <trkpt lat="47.26924" lon="4.96827">
        <ele>352.6</ele>
        <time>2015-04-25T07:56:47.000Z</time>
      </trkpt>
      <trkpt lat="47.26919" lon="4.96836">
        <ele>351</ele>
        <time>2015-04-25T07:56:53.000Z</time>
      </trkpt>
      <trkpt lat="47.26918" lon="4.96838">
        <ele>351</ele>
        <time>2015-04-25T07:56:55.000Z</time>
      </trkpt>
      <trkpt lat="47.26915" lon="4.9684">
        <ele>351.2</ele>
        <time>2015-04-25T07:56:58.000Z</time>
      </trkpt>
      <trkpt lat="47.2691" lon="4.96847">
        <ele>351.6</ele>
        <time>2015-04-25T07:57:02.000Z</time>
      </trkpt>
      <trkpt lat="47.26903" lon="4.96852">
        <ele>350.8</ele>
        <time>2015-04-25T07:57:08.000Z</time>
      </trkpt>
      <trkpt lat="47.26898" lon="4.96856">
        <ele>349.8</ele>
        <time>2015-04-25T07:57:12.000Z</time>
      </trkpt>
      <trkpt lat="47.26891" lon="4.96864">
        <ele>347.8</ele>
        <time>2015-04-25T07:57:18.000Z</time>
      </trkpt>
      <trkpt lat="47.26888" lon="4.96868">
        <ele>347.4</ele>
        <time>2015-04-25T07:57:22.000Z</time>
      </trkpt>
      <trkpt lat="47.26883" lon="4.96871">
        <ele>347.8</ele>
        <time>2015-04-25T07:57:25.000Z</time>
      </trkpt>
      <trkpt lat="47.26881" lon="4.96882">
        <ele>347.6</ele>
        <time>2015-04-25T07:57:31.000Z</time>
      </trkpt>
      <trkpt lat="47.26876" lon="4.96892">
        <ele>347.4</ele>
        <time>2015-04-25T07:57:38.000Z</time>
      </trkpt>
      <trkpt lat="47.26872" lon="4.96902">
        <ele>347.4</ele>
        <time>2015-04-25T07:57:43.000Z</time>
      </trkpt>
      <trkpt lat="47.26866" lon="4.9691">
        <ele>346</ele>
        <time>2015-04-25T07:57:49.000Z</time>
      </trkpt>
      <trkpt lat="47.26863" lon="4.96916">
        <ele>344.9</ele>
        <time>2015-04-25T07:57:53.000Z</time>
      </trkpt>
      <trkpt lat="47.2686" lon="4.96922">
        <ele>344.5</ele>
        <time>2015-04-25T07:57:57.000Z</time>
      </trkpt>
      <trkpt lat="47.26856" lon="4.96926">
        <ele>345.1</ele>
        <time>2015-04-25T07:58:01.000Z</time>
      </trkpt>
      <trkpt lat="47.26852" lon="4.9693">
        <ele>345.3</ele>
        <time>2015-04-25T07:58:04.000Z</time>
      </trkpt>
      <trkpt lat="47.26851" lon="4.96932">
        <ele>345.3</ele>
        <time>2015-04-25T07:58:05.000Z</time>
      </trkpt>
      <trkpt lat="47.26846" lon="4.96941">
        <ele>344.7</ele>
        <time>2015-04-25T07:58:10.000Z</time>
      </trkpt>
      <trkpt lat="47.26842" lon="4.96949">
        <ele>344</ele>
        <time>2015-04-25T07:58:15.000Z</time>
      </trkpt>
      <trkpt lat="47.26838" lon="4.96957">
        <ele>343.3</ele>
        <time>2015-04-25T07:58:20.000Z</time>
      </trkpt>
      <trkpt lat="47.26837" lon="4.96962">
        <ele>342.7</ele>
        <time>2015-04-25T07:58:23.000Z</time>
      </trkpt>
      <trkpt lat="47.26833" lon="4.96977">
        <ele>341.3</ele>
        <time>2015-04-25T07:58:29.000Z</time>
      </trkpt>
      <trkpt lat="47.26828" lon="4.96984">
        <ele>342.2</ele>
        <time>2015-04-25T07:58:33.000Z</time>
      </trkpt>
      <trkpt lat="47.26827" lon="4.96993">
        <ele>342.2</ele>
        <time>2015-04-25T07:58:38.000Z</time>
      </trkpt>
      <trkpt lat="47.26823" lon="4.97001">
        <ele>342</ele>
        <time>2015-04-25T07:58:43.000Z</time>
      </trkpt>
      <trkpt lat="47.26819" lon="4.97009">
        <ele>341.8</ele>
        <time>2015-04-25T07:58:47.000Z</time>
      </trkpt>
      <trkpt lat="47.26816" lon="4.97021">
        <ele>341</ele>
        <time>2015-04-25T07:58:52.000Z</time>
      </trkpt>
      <trkpt lat="47.26814" lon="4.97028">
        <ele>340.2</ele>
        <time>2015-04-25T07:58:56.000Z</time>
      </trkpt>
      <trkpt lat="47.26814" lon="4.9703">
        <ele>340.1</ele>
        <time>2015-04-25T07:58:57.000Z</time>
      </trkpt>
      <trkpt lat="47.26811" lon="4.97041">
        <ele>338.8</ele>
        <time>2015-04-25T07:59:04.000Z</time>
      </trkpt>
      <trkpt lat="47.26809" lon="4.97048">
        <ele>337.7</ele>
        <time>2015-04-25T07:59:08.000Z</time>
      </trkpt>
      <trkpt lat="47.26808" lon="4.9705">
        <ele>337.4</ele>
        <time>2015-04-25T07:59:10.000Z</time>
      </trkpt>
      <trkpt lat="47.26805" lon="4.9706">
        <ele>336.2</ele>
        <time>2015-04-25T07:59:15.000Z</time>
      </trkpt>
      <trkpt lat="47.268" lon="4.97069">
        <ele>336.7</ele>
        <time>2015-04-25T07:59:20.000Z</time>
      </trkpt>
      <trkpt lat="47.26797" lon="4.97081">
        <ele>336.4</ele>
        <time>2015-04-25T07:59:26.000Z</time>
      </trkpt>
      <trkpt lat="47.26796" lon="4.9709">
        <ele>336.3</ele>
        <time>2015-04-25T07:59:31.000Z</time>
      </trkpt>
      <trkpt lat="47.26793" lon="4.97098">
        <ele>336</ele>
        <time>2015-04-25T07:59:36.000Z</time>
      </trkpt>
      <trkpt lat="47.26791" lon="4.97106">
        <ele>335.6</ele>
        <time>2015-04-25T07:59:39.000Z</time>
      </trkpt>
      <trkpt lat="47.26789" lon="4.97111">
        <ele>335.2</ele>
        <time>2015-04-25T07:59:41.000Z</time>
      </trkpt>
      <trkpt lat="47.26787" lon="4.97116">
        <ele>334.9</ele>
        <time>2015-04-25T07:59:43.000Z</time>
      </trkpt>
      <trkpt lat="47.26786" lon="4.97124">
        <ele>334.5</ele>
        <time>2015-04-25T07:59:47.000Z</time>
      </trkpt>
      <trkpt lat="47.26787" lon="4.97125">
        <ele>334.4</ele>
        <time>2015-04-25T07:59:48.000Z</time>
      </trkpt>
      <trkpt lat="47.26787" lon="4.97127">
        <ele>334.3</ele>
        <time>2015-04-25T07:59:49.000Z</time>
      </trkpt>
      <trkpt lat="47.26783" lon="4.97141">
        <ele>333.1</ele>
        <time>2015-04-25T07:59:56.000Z</time>
      </trkpt>
      <trkpt lat="47.26783" lon="4.97144">
        <ele>333</ele>
        <time>2015-04-25T07:59:57.000Z</time>
      </trkpt>
      <trkpt lat="47.26782" lon="4.97147">
        <ele>332.6</ele>
        <time>2015-04-25T07:59:59.000Z</time>
      </trkpt>
      <trkpt lat="47.26781" lon="4.97161">
        <ele>331.9</ele>
        <time>2015-04-25T08:00:05.000Z</time>
      </trkpt>
      <trkpt lat="47.2678" lon="4.97167">
        <ele>331.6</ele>
        <time>2015-04-25T08:00:08.000Z</time>
      </trkpt>
      <trkpt lat="47.26779" lon="4.97174">
        <ele>330.9</ele>
        <time>2015-04-25T08:00:12.000Z</time>
      </trkpt>
      <trkpt lat="47.26775" lon="4.9719">
        <ele>329.9</ele>
        <time>2015-04-25T08:00:19.000Z</time>
      </trkpt>
      <trkpt lat="47.26775" lon="4.97198">
        <ele>329.7</ele>
        <time>2015-04-25T08:00:23.000Z</time>
      </trkpt>
      <trkpt lat="47.26774" lon="4.97203">
        <ele>329.8</ele>
        <time>2015-04-25T08:00:25.000Z</time>
      </trkpt>
      <trkpt lat="47.26772" lon="4.97214">
        <ele>330.2</ele>
        <time>2015-04-25T08:00:30.000Z</time>
      </trkpt>
      <trkpt lat="47.26771" lon="4.97225">
        <ele>330.1</ele>
        <time>2015-04-25T08:00:35.000Z</time>
      </trkpt>
      <trkpt lat="47.26772" lon="4.97234">
        <ele>329.7</ele>
        <time>2015-04-25T08:00:40.000Z</time>
      </trkpt>
      <trkpt lat="47.26771" lon="4.97242">
        <ele>329.5</ele>
        <time>2015-04-25T08:00:44.000Z</time>
      </trkpt>
      <trkpt lat="47.26772" lon="4.97255">
        <ele>329.2</ele>
        <time>2015-04-25T08:00:50.000Z</time>
      </trkpt>
      <trkpt lat="47.26772" lon="4.97267">
        <ele>329.2</ele>
        <time>2015-04-25T08:00:56.000Z</time>
      </trkpt>
      <trkpt lat="47.26771" lon="4.9728">
        <ele>329.3</ele>
        <time>2015-04-25T08:01:02.000Z</time>
      </trkpt>
      <trkpt lat="47.26768" lon="4.97294">
        <ele>329.3</ele>
        <time>2015-04-25T08:01:08.000Z</time>
      </trkpt>
      <trkpt lat="47.26768" lon="4.97297">
        <ele>329.4</ele>
        <time>2015-04-25T08:01:09.000Z</time>
      </trkpt>
      <trkpt lat="47.26767" lon="4.97302">
        <ele>329.4</ele>
        <time>2015-04-25T08:01:11.000Z</time>
      </trkpt>
      <trkpt lat="47.26767" lon="4.97311">
        <ele>329.1</ele>
        <time>2015-04-25T08:01:16.000Z</time>
      </trkpt>
      <trkpt lat="47.26765" lon="4.9732">
        <ele>328.8</ele>
        <time>2015-04-25T08:01:20.000Z</time>
      </trkpt>
      <trkpt lat="47.26764" lon="4.97329">
        <ele>328.2</ele>
        <time>2015-04-25T08:01:24.000Z</time>
      </trkpt>
      <trkpt lat="47.26764" lon="4.97331">
        <ele>328.1</ele>
        <time>2015-04-25T08:01:25.000Z</time>
      </trkpt>
      <trkpt lat="47.26764" lon="4.97332">
        <ele>328</ele>
        <time>2015-04-25T08:01:26.000Z</time>
      </trkpt>
      <trkpt lat="47.26762" lon="4.97341">
        <ele>327.4</ele>
        <time>2015-04-25T08:01:30.000Z</time>
      </trkpt>
      <trkpt lat="47.26761" lon="4.97345">
        <ele>327.2</ele>
        <time>2015-04-25T08:01:32.000Z</time>
      </trkpt>
      <trkpt lat="47.26762" lon="4.97354">
        <ele>326.7</ele>
        <time>2015-04-25T08:01:37.000Z</time>
      </trkpt>
      <trkpt lat="47.2676" lon="4.97368">
        <ele>325.8</ele>
        <time>2015-04-25T08:01:44.000Z</time>
      </trkpt>
      <trkpt lat="47.2676" lon="4.9737">
        <ele>325.6</ele>
        <time>2015-04-25T08:01:45.000Z</time>
      </trkpt>
      <trkpt lat="47.2676" lon="4.97375">
        <ele>325.4</ele>
        <time>2015-04-25T08:01:47.000Z</time>
      </trkpt>
      <trkpt lat="47.26764" lon="4.97389">
        <ele>325.5</ele>
        <time>2015-04-25T08:01:53.000Z</time>
      </trkpt>
      <trkpt lat="47.26768" lon="4.974">
        <ele>325.2</ele>
        <time>2015-04-25T08:01:57.000Z</time>
      </trkpt>
      <trkpt lat="47.26769" lon="4.97404">
        <ele>324.9</ele>
        <time>2015-04-25T08:01:59.000Z</time>
      </trkpt>
      <trkpt lat="47.2677" lon="4.97408">
        <ele>324.7</ele>
        <time>2015-04-25T08:02:01.000Z</time>
      </trkpt>
      <trkpt lat="47.26769" lon="4.97418">
        <ele>323.7</ele>
        <time>2015-04-25T08:02:04.000Z</time>
      </trkpt>
      <trkpt lat="47.26771" lon="4.97432">
        <ele>323.1</ele>
        <time>2015-04-25T08:02:11.000Z</time>
      </trkpt>
      <trkpt lat="47.26772" lon="4.97438">
        <ele>322.8</ele>
        <time>2015-04-25T08:02:14.000Z</time>
      </trkpt>
      <trkpt lat="47.26771" lon="4.97446">
        <ele>322.2</ele>
        <time>2015-04-25T08:02:18.000Z</time>
      </trkpt>
      <trkpt lat="47.26775" lon="4.97459">
        <ele>321.8</ele>
        <time>2015-04-25T08:02:25.000Z</time>
      </trkpt>
      <trkpt lat="47.26775" lon="4.97463">
        <ele>321.6</ele>
        <time>2015-04-25T08:02:27.000Z</time>
      </trkpt>
      <trkpt lat="47.26777" lon="4.97473">
        <ele>321</ele>
        <time>2015-04-25T08:02:32.000Z</time>
      </trkpt>
      <trkpt lat="47.26779" lon="4.97489">
        <ele>319.5</ele>
        <time>2015-04-25T08:02:40.000Z</time>
      </trkpt>
      <trkpt lat="47.26779" lon="4.97491">
        <ele>319.3</ele>
        <time>2015-04-25T08:02:41.000Z</time>
      </trkpt>
      <trkpt lat="47.2678" lon="4.97505">
        <ele>318.4</ele>
        <time>2015-04-25T08:02:49.000Z</time>
      </trkpt>
      <trkpt lat="47.2678" lon="4.97506">
        <ele>318.4</ele>
        <time>2015-04-25T08:02:50.000Z</time>
      </trkpt>
      <trkpt lat="47.26782" lon="4.97509">
        <ele>318.6</ele>
        <time>2015-04-25T08:03:02.000Z</time>
      </trkpt>
      <trkpt lat="47.26785" lon="4.9751">
        <ele>319.2</ele>
        <time>2015-04-25T08:03:10.000Z</time>
      </trkpt>
      <trkpt lat="47.26784" lon="4.97516">
        <ele>318.7</ele>
        <time>2015-04-25T08:03:32.000Z</time>
      </trkpt>
      <trkpt lat="47.26785" lon="4.97518">
        <ele>318.9</ele>
        <time>2015-04-25T08:03:40.000Z</time>
      </trkpt>
      <trkpt lat="47.26787" lon="4.97521">
        <ele>319</ele>
        <time>2015-04-25T08:03:46.000Z</time>
      </trkpt>
      <trkpt lat="47.26783" lon="4.97527">
        <ele>318.1</ele>
        <time>2015-04-25T08:04:00.000Z</time>
      </trkpt>
      <trkpt lat="47.26785" lon="4.97539">
        <ele>317.7</ele>
        <time>2015-04-25T08:04:06.000Z</time>
      </trkpt>
      <trkpt lat="47.26788" lon="4.97554">
        <ele>317.5</ele>
        <time>2015-04-25T08:04:13.000Z</time>
      </trkpt>
      <trkpt lat="47.26792" lon="4.97567">
        <ele>317.5</ele>
        <time>2015-04-25T08:04:20.000Z</time>
      </trkpt>
      <trkpt lat="47.26797" lon="4.97576">
        <ele>317.3</ele>
        <time>2015-04-25T08:04:26.000Z</time>
      </trkpt>
      <trkpt lat="47.268" lon="4.97579">
        <ele>317.2</ele>
        <time>2015-04-25T08:04:32.000Z</time>
      </trkpt>
      <trkpt lat="47.26804" lon="4.97583">
        <ele>316.9</ele>
        <time>2015-04-25T08:04:48.000Z</time>
      </trkpt>
      <trkpt lat="47.26809" lon="4.9759">
        <ele>317</ele>
        <time>2015-04-25T08:04:55.000Z</time>
      </trkpt>
      <trkpt lat="47.26814" lon="4.97596">
        <ele>317.2</ele>
        <time>2015-04-25T08:05:01.000Z</time>
      </trkpt>
      <trkpt lat="47.26815" lon="4.97599">
        <ele>317.3</ele>
        <time>2015-04-25T08:05:03.000Z</time>
      </trkpt>
      <trkpt lat="47.26819" lon="4.97603">
        <ele>317.5</ele>
        <time>2015-04-25T08:05:07.000Z</time>
      </trkpt>
      <trkpt lat="47.26828" lon="4.97618">
        <ele>317.7</ele>
        <time>2015-04-25T08:05:18.000Z</time>
      </trkpt>
      <trkpt lat="47.26833" lon="4.97627">
        <ele>317.9</ele>
        <time>2015-04-25T08:05:25.000Z</time>
      </trkpt>
      <trkpt lat="47.26837" lon="4.97635">
        <ele>317.5</ele>
        <time>2015-04-25T08:05:30.000Z</time>
      </trkpt>
      <trkpt lat="47.26838" lon="4.97637">
        <ele>317.5</ele>
        <time>2015-04-25T08:05:32.000Z</time>
      </trkpt>
      <trkpt lat="47.26836" lon="4.97639">
        <ele>317.2</ele>
        <time>2015-04-25T08:05:38.000Z</time>
      </trkpt>
      <trkpt lat="47.26836" lon="4.97639">
        <ele>317.2</ele>
        <time>2015-04-25T08:05:39.000Z</time>
      </trkpt>
      <trkpt lat="47.2684" lon="4.97638">
        <ele>317.5</ele>
        <time>2015-04-25T08:06:15.000Z</time>
      </trkpt>
      <trkpt lat="47.26843" lon="4.97642">
        <ele>317.4</ele>
        <time>2015-04-25T08:06:19.000Z</time>
      </trkpt>
      <trkpt lat="47.26845" lon="4.97649">
        <ele>316.9</ele>
        <time>2015-04-25T08:06:24.000Z</time>
      </trkpt>
      <trkpt lat="47.26845" lon="4.97669">
        <ele>315.1</ele>
        <time>2015-04-25T08:06:34.000Z</time>
      </trkpt>
      <trkpt lat="47.26844" lon="4.97688">
        <ele>313.6</ele>
        <time>2015-04-25T08:06:42.000Z</time>
      </trkpt>
      <trkpt lat="47.26849" lon="4.97701">
        <ele>313.2</ele>
        <time>2015-04-25T08:06:49.000Z</time>
      </trkpt>
      <trkpt lat="47.26857" lon="4.97712">
        <ele>313.2</ele>
        <time>2015-04-25T08:06:55.000Z</time>
      </trkpt>
      <trkpt lat="47.26858" lon="4.97713">
        <ele>313.3</ele>
        <time>2015-04-25T08:06:56.000Z</time>
      </trkpt>
      <trkpt lat="47.26873" lon="4.97746">
        <ele>312.2</ele>
        <time>2015-04-25T08:07:12.000Z</time>
      </trkpt>
      <trkpt lat="47.26879" lon="4.9776">
        <ele>312.1</ele>
        <time>2015-04-25T08:07:18.000Z</time>
      </trkpt>
      <trkpt lat="47.26886" lon="4.97773">
        <ele>312.6</ele>
        <time>2015-04-25T08:07:25.000Z</time>
      </trkpt>
      <trkpt lat="47.26889" lon="4.97778">
        <ele>312.9</ele>
        <time>2015-04-25T08:07:28.000Z</time>
      </trkpt>
      <trkpt lat="47.26894" lon="4.97779">
        <ele>313.1</ele>
        <time>2015-04-25T08:07:32.000Z</time>
      </trkpt>
      <trkpt lat="47.26897" lon="4.97774">
        <ele>313.4</ele>
        <time>2015-04-25T08:07:43.000Z</time>
      </trkpt>
      <trkpt lat="47.26901" lon="4.97761">
        <ele>314.3</ele>
        <time>2015-04-25T08:07:51.000Z</time>
      </trkpt>
      <trkpt lat="47.26919" lon="4.97743">
        <ele>316.7</ele>
        <time>2015-04-25T08:08:09.000Z</time>
      </trkpt>
      <trkpt lat="47.26929" lon="4.9774">
        <ele>317.6</ele>
        <time>2015-04-25T08:08:18.000Z</time>
      </trkpt>
      <trkpt lat="47.26937" lon="4.97737">
        <ele>318.4</ele>
        <time>2015-04-25T08:08:26.000Z</time>
      </trkpt>
      <trkpt lat="47.26947" lon="4.97731">
        <ele>319.6</ele>
        <time>2015-04-25T08:08:34.000Z</time>
      </trkpt>
      <trkpt lat="47.26955" lon="4.97724">
        <ele>320.6</ele>
        <time>2015-04-25T08:08:41.000Z</time>
      </trkpt>
      <trkpt lat="47.26963" lon="4.97717">
        <ele>321.8</ele>
        <time>2015-04-25T08:08:49.000Z</time>
      </trkpt>
      <trkpt lat="47.26971" lon="4.97713">
        <ele>322.9</ele>
        <time>2015-04-25T08:08:56.000Z</time>
      </trkpt>
      <trkpt lat="47.26995" lon="4.9771">
        <ele>325.8</ele>
        <time>2015-04-25T08:09:15.000Z</time>
      </trkpt>
      <trkpt lat="47.27008" lon="4.9771">
        <ele>327</ele>
        <time>2015-04-25T08:09:25.000Z</time>
      </trkpt>
      <trkpt lat="47.27019" lon="4.97707">
        <ele>328.3</ele>
        <time>2015-04-25T08:09:34.000Z</time>
      </trkpt>
      <trkpt lat="47.27028" lon="4.97703">
        <ele>329.5</ele>
        <time>2015-04-25T08:09:42.000Z</time>
      </trkpt>
      <trkpt lat="47.27037" lon="4.97698">
        <ele>330.4</ele>
        <time>2015-04-25T08:09:49.000Z</time>
      </trkpt>
      <trkpt lat="47.27044" lon="4.97692">
        <ele>331.5</ele>
        <time>2015-04-25T08:09:57.000Z</time>
      </trkpt>
      <trkpt lat="47.27048" lon="4.97689">
        <ele>332.1</ele>
        <time>2015-04-25T08:10:01.000Z</time>
      </trkpt>
      <trkpt lat="47.27059" lon="4.97683">
        <ele>333.7</ele>
        <time>2015-04-25T08:10:13.000Z</time>
      </trkpt>
      <trkpt lat="47.27066" lon="4.97684">
        <ele>334.2</ele>
        <time>2015-04-25T08:10:19.000Z</time>
      </trkpt>
      <trkpt lat="47.27071" lon="4.97683">
        <ele>334.8</ele>
        <time>2015-04-25T08:10:24.000Z</time>
      </trkpt>
      <trkpt lat="47.27075" lon="4.97682">
        <ele>335.5</ele>
        <time>2015-04-25T08:10:31.000Z</time>
      </trkpt>
      <trkpt lat="47.27076" lon="4.97681">
        <ele>335.7</ele>
        <time>2015-04-25T08:10:32.000Z</time>
      </trkpt>
      <trkpt lat="47.2708" lon="4.97681">
        <ele>336.1</ele>
        <time>2015-04-25T08:10:36.000Z</time>
      </trkpt>
      <trkpt lat="47.27084" lon="4.97683">
        <ele>336.2</ele>
        <time>2015-04-25T08:10:40.000Z</time>
      </trkpt>
      <trkpt lat="47.27089" lon="4.97685">
        <ele>336.4</ele>
        <time>2015-04-25T08:10:45.000Z</time>
      </trkpt>
      <trkpt lat="47.27089" lon="4.97685">
        <ele>336.5</ele>
        <time>2015-04-25T08:10:46.000Z</time>
      </trkpt>
      <trkpt lat="47.27091" lon="4.97684">
        <ele>336.7</ele>
        <time>2015-04-25T08:10:48.000Z</time>
      </trkpt>
      <trkpt lat="47.27095" lon="4.97685">
        <ele>336.9</ele>
        <time>2015-04-25T08:10:52.000Z</time>
      </trkpt>
      <trkpt lat="47.27105" lon="4.97691">
        <ele>337</ele>
        <time>2015-04-25T08:11:03.000Z</time>
      </trkpt>
      <trkpt lat="47.27112" lon="4.97693">
        <ele>337.2</ele>
        <time>2015-04-25T08:11:10.000Z</time>
      </trkpt>
      <trkpt lat="47.27118" lon="4.97694">
        <ele>337.6</ele>
        <time>2015-04-25T08:11:15.000Z</time>
      </trkpt>
      <trkpt lat="47.27124" lon="4.97696">
        <ele>337.7</ele>
        <time>2015-04-25T08:11:20.000Z</time>
      </trkpt>
      <trkpt lat="47.2713" lon="4.97697">
        <ele>338.1</ele>
        <time>2015-04-25T08:11:27.000Z</time>
      </trkpt>
      <trkpt lat="47.27136" lon="4.97701">
        <ele>338.1</ele>
        <time>2015-04-25T08:11:32.000Z</time>
      </trkpt>
      <trkpt lat="47.27147" lon="4.97705">
        <ele>338.3</ele>
        <time>2015-04-25T08:11:40.000Z</time>
      </trkpt>
      <trkpt lat="47.27149" lon="4.97706">
        <ele>338.3</ele>
        <time>2015-04-25T08:11:42.000Z</time>
      </trkpt>
      <trkpt lat="47.27154" lon="4.97712">
        <ele>337.8</ele>
        <time>2015-04-25T08:11:47.000Z</time>
      </trkpt>
      <trkpt lat="47.27155" lon="4.97713">
        <ele>337.7</ele>
        <time>2015-04-25T08:11:48.000Z</time>
      </trkpt>
      <trkpt lat="47.27157" lon="4.97716">
        <ele>337.5</ele>
        <time>2015-04-25T08:11:50.000Z</time>
      </trkpt>
      <trkpt lat="47.27162" lon="4.97718">
        <ele>337.4</ele>
        <time>2015-04-25T08:11:54.000Z</time>
      </trkpt>
      <trkpt lat="47.27165" lon="4.97719">
        <ele>337.4</ele>
        <time>2015-04-25T08:11:57.000Z</time>
      </trkpt>
      <trkpt lat="47.27168" lon="4.97722">
        <ele>337.2</ele>
        <time>2015-04-25T08:12:00.000Z</time>
      </trkpt>
      <trkpt lat="47.27186" lon="4.97734">
        <ele>337</ele>
        <time>2015-04-25T08:12:13.000Z</time>
      </trkpt>
      <trkpt lat="47.27191" lon="4.97736">
        <ele>337.1</ele>
        <time>2015-04-25T08:12:16.000Z</time>
      </trkpt>
      <trkpt lat="47.272" lon="4.97743">
        <ele>337.2</ele>
        <time>2015-04-25T08:12:25.000Z</time>
      </trkpt>
      <trkpt lat="47.27201" lon="4.97744">
        <ele>337.1</ele>
        <time>2015-04-25T08:12:26.000Z</time>
      </trkpt>
      <trkpt lat="47.27202" lon="4.97746">
        <ele>337.1</ele>
        <time>2015-04-25T08:12:28.000Z</time>
      </trkpt>
      <trkpt lat="47.27203" lon="4.97753">
        <ele>336.1</ele>
        <time>2015-04-25T08:12:35.000Z</time>
      </trkpt>
      <trkpt lat="47.27203" lon="4.97754">
        <ele>336.1</ele>
        <time>2015-04-25T08:12:36.000Z</time>
      </trkpt>
      <trkpt lat="47.27203" lon="4.97759">
        <ele>335.4</ele>
        <time>2015-04-25T08:12:42.000Z</time>
      </trkpt>
      <trkpt lat="47.27202" lon="4.97768">
        <ele>334.2</ele>
        <time>2015-04-25T08:12:48.000Z</time>
      </trkpt>
      <trkpt lat="47.2721" lon="4.97773">
        <ele>334.2</ele>
        <time>2015-04-25T08:12:56.000Z</time>
      </trkpt>
      <trkpt lat="47.27214" lon="4.97777">
        <ele>334.2</ele>
        <time>2015-04-25T08:13:02.000Z</time>
      </trkpt>
      <trkpt lat="47.27221" lon="4.97781">
        <ele>334.4</ele>
        <time>2015-04-25T08:13:08.000Z</time>
      </trkpt>
      <trkpt lat="47.27222" lon="4.97782">
        <ele>334.4</ele>
        <time>2015-04-25T08:13:09.000Z</time>
      </trkpt>
      <trkpt lat="47.27224" lon="4.97782">
        <ele>334.6</ele>
        <time>2015-04-25T08:13:11.000Z</time>
      </trkpt>
      <trkpt lat="47.27227" lon="4.97783">
        <ele>334.8</ele>
        <time>2015-04-25T08:13:13.000Z</time>
      </trkpt>
      <trkpt lat="47.27235" lon="4.97788">
        <ele>334.7</ele>
        <time>2015-04-25T08:13:19.000Z</time>
      </trkpt>
      <trkpt lat="47.27237" lon="4.97789">
        <ele>334.8</ele>
        <time>2015-04-25T08:13:21.000Z</time>
      </trkpt>
      <trkpt lat="47.27247" lon="4.97793">
        <ele>335</ele>
        <time>2015-04-25T08:13:28.000Z</time>
      </trkpt>
      <trkpt lat="47.27251" lon="4.97797">
        <ele>334.6</ele>
        <time>2015-04-25T08:13:32.000Z</time>
      </trkpt>
      <trkpt lat="47.27258" lon="4.978">
        <ele>334.5</ele>
        <time>2015-04-25T08:13:38.000Z</time>
      </trkpt>
      <trkpt lat="47.2726" lon="4.97801">
        <ele>334.6</ele>
        <time>2015-04-25T08:13:40.000Z</time>
      </trkpt>
      <trkpt lat="47.27268" lon="4.97801">
        <ele>335</ele>
        <time>2015-04-25T08:13:47.000Z</time>
      </trkpt>
      <trkpt lat="47.27274" lon="4.97806">
        <ele>334.7</ele>
        <time>2015-04-25T08:13:53.000Z</time>
      </trkpt>
      <trkpt lat="47.27277" lon="4.97807">
        <ele>334.8</ele>
        <time>2015-04-25T08:13:56.000Z</time>
      </trkpt>
      <trkpt lat="47.27282" lon="4.97809">
        <ele>334.7</ele>
        <time>2015-04-25T08:14:00.000Z</time>
      </trkpt>
      <trkpt lat="47.27288" lon="4.97813">
        <ele>334.3</ele>
        <time>2015-04-25T08:14:06.000Z</time>
      </trkpt>
      <trkpt lat="47.27289" lon="4.97813">
        <ele>334.4</ele>
        <time>2015-04-25T08:14:07.000Z</time>
      </trkpt>
      <trkpt lat="47.27293" lon="4.97813">
        <ele>334.5</ele>
        <time>2015-04-25T08:14:10.000Z</time>
      </trkpt>
      <trkpt lat="47.27301" lon="4.97815">
        <ele>334.5</ele>
        <time>2015-04-25T08:14:16.000Z</time>
      </trkpt>
      <trkpt lat="47.27302" lon="4.97815">
        <ele>334.5</ele>
        <time>2015-04-25T08:14:17.000Z</time>
      </trkpt>
      <trkpt lat="47.27305" lon="4.97815">
        <ele>334.7</ele>
        <time>2015-04-25T08:14:19.000Z</time>
      </trkpt>
      <trkpt lat="47.27312" lon="4.97811">
        <ele>335.5</ele>
        <time>2015-04-25T08:14:25.000Z</time>
      </trkpt>
      <trkpt lat="47.27319" lon="4.97811">
        <ele>335.6</ele>
        <time>2015-04-25T08:14:30.000Z</time>
      </trkpt>
      <trkpt lat="47.27324" lon="4.97811">
        <ele>335.8</ele>
        <time>2015-04-25T08:14:33.000Z</time>
      </trkpt>
      <trkpt lat="47.27326" lon="4.97812">
        <ele>335.8</ele>
        <time>2015-04-25T08:14:35.000Z</time>
      </trkpt>
      <trkpt lat="47.27334" lon="4.97813">
        <ele>335.9</ele>
        <time>2015-04-25T08:14:41.000Z</time>
      </trkpt>
      <trkpt lat="47.27342" lon="4.97812">
        <ele>336.3</ele>
        <time>2015-04-25T08:14:48.000Z</time>
      </trkpt>
      <trkpt lat="47.27349" lon="4.97812">
        <ele>336.5</ele>
        <time>2015-04-25T08:14:53.000Z</time>
      </trkpt>
      <trkpt lat="47.27354" lon="4.97814">
        <ele>336.2</ele>
        <time>2015-04-25T08:14:56.000Z</time>
      </trkpt>
      <trkpt lat="47.27359" lon="4.97813">
        <ele>336.5</ele>
        <time>2015-04-25T08:14:59.000Z</time>
      </trkpt>
      <trkpt lat="47.27364" lon="4.97814">
        <ele>336.6</ele>
        <time>2015-04-25T08:15:03.000Z</time>
      </trkpt>
      <trkpt lat="47.27366" lon="4.97814">
        <ele>336.6</ele>
        <time>2015-04-25T08:15:04.000Z</time>
      </trkpt>
      <trkpt lat="47.27368" lon="4.97817">
        <ele>336.4</ele>
        <time>2015-04-25T08:15:06.000Z</time>
      </trkpt>
      <trkpt lat="47.27379" lon="4.97819">
        <ele>336.5</ele>
        <time>2015-04-25T08:15:13.000Z</time>
      </trkpt>
      <trkpt lat="47.27385" lon="4.97821">
        <ele>336.5</ele>
        <time>2015-04-25T08:15:17.000Z</time>
      </trkpt>
      <trkpt lat="47.27391" lon="4.97824">
        <ele>336.3</ele>
        <time>2015-04-25T08:15:22.000Z</time>
      </trkpt>
      <trkpt lat="47.27397" lon="4.97825">
        <ele>336.2</ele>
        <time>2015-04-25T08:15:27.000Z</time>
      </trkpt>
      <trkpt lat="47.27398" lon="4.97826">
        <ele>336.1</ele>
        <time>2015-04-25T08:15:28.000Z</time>
      </trkpt>
      <trkpt lat="47.27407" lon="4.97826">
        <ele>336</ele>
        <time>2015-04-25T08:15:34.000Z</time>
      </trkpt>
      <trkpt lat="47.2741" lon="4.97827">
        <ele>335.9</ele>
        <time>2015-04-25T08:15:36.000Z</time>
      </trkpt>
      <trkpt lat="47.27413" lon="4.97828">
        <ele>335.7</ele>
        <time>2015-04-25T08:15:39.000Z</time>
      </trkpt>
      <trkpt lat="47.2742" lon="4.97824">
        <ele>336.1</ele>
        <time>2015-04-25T08:15:46.000Z</time>
      </trkpt>
      <trkpt lat="47.27421" lon="4.97824">
        <ele>336.1</ele>
        <time>2015-04-25T08:15:47.000Z</time>
      </trkpt>
      <trkpt lat="47.27423" lon="4.97822">
        <ele>336.3</ele>
        <time>2015-04-25T08:15:51.000Z</time>
      </trkpt>
      <trkpt lat="47.2743" lon="4.97816">
        <ele>336.9</ele>
        <time>2015-04-25T08:15:58.000Z</time>
      </trkpt>
      <trkpt lat="47.27439" lon="4.97815">
        <ele>336.6</ele>
        <time>2015-04-25T08:16:07.000Z</time>
      </trkpt>
      <trkpt lat="47.27445" lon="4.97814">
        <ele>336.4</ele>
        <time>2015-04-25T08:16:11.000Z</time>
      </trkpt>
      <trkpt lat="47.27448" lon="4.97813">
        <ele>336.3</ele>
        <time>2015-04-25T08:16:14.000Z</time>
      </trkpt>
      <trkpt lat="47.27457" lon="4.97809">
        <ele>335.8</ele>
        <time>2015-04-25T08:16:21.000Z</time>
      </trkpt>
      <trkpt lat="47.27458" lon="4.97808">
        <ele>335.7</ele>
        <time>2015-04-25T08:16:22.000Z</time>
      </trkpt>
      <trkpt lat="47.27462" lon="4.97806">
        <ele>335.4</ele>
        <time>2015-04-25T08:16:26.000Z</time>
      </trkpt>
      <trkpt lat="47.27468" lon="4.97804">
        <ele>334.8</ele>
        <time>2015-04-25T08:16:30.000Z</time>
      </trkpt>
      <trkpt lat="47.27474" lon="4.97804">
        <ele>334.4</ele>
        <time>2015-04-25T08:16:35.000Z</time>
      </trkpt>
      <trkpt lat="47.27475" lon="4.97805">
        <ele>334.6</ele>
        <time>2015-04-25T08:16:36.000Z</time>
      </trkpt>
      <trkpt lat="47.27478" lon="4.97806">
        <ele>335.2</ele>
        <time>2015-04-25T08:16:39.000Z</time>
      </trkpt>
      <trkpt lat="47.27485" lon="4.9781">
        <ele>336.4</ele>
        <time>2015-04-25T08:16:45.000Z</time>
      </trkpt>
      <trkpt lat="47.27489" lon="4.97813">
        <ele>336.9</ele>
        <time>2015-04-25T08:16:48.000Z</time>
      </trkpt>
      <trkpt lat="47.27493" lon="4.97822">
        <ele>336.8</ele>
        <time>2015-04-25T08:16:53.000Z</time>
      </trkpt>
      <trkpt lat="47.27498" lon="4.9783">
        <ele>336.9</ele>
        <time>2015-04-25T08:16:58.000Z</time>
      </trkpt>
      <trkpt lat="47.27499" lon="4.97832">
        <ele>336.9</ele>
        <time>2015-04-25T08:16:59.000Z</time>
      </trkpt>
      <trkpt lat="47.27514" lon="4.97846">
        <ele>337.6</ele>
        <time>2015-04-25T08:17:12.000Z</time>
      </trkpt>
      <trkpt lat="47.27522" lon="4.97854">
        <ele>338</ele>
        <time>2015-04-25T08:17:19.000Z</time>
      </trkpt>
      <trkpt lat="47.27531" lon="4.97863">
        <ele>338</ele>
        <time>2015-04-25T08:17:26.000Z</time>
      </trkpt>
      <trkpt lat="47.27533" lon="4.97865">
        <ele>337.8</ele>
        <time>2015-04-25T08:17:28.000Z</time>
      </trkpt>
      <trkpt lat="47.2754" lon="4.97871">
        <ele>337.5</ele>
        <time>2015-04-25T08:17:35.000Z</time>
      </trkpt>
      <trkpt lat="47.27543" lon="4.97873">
        <ele>337.5</ele>
        <time>2015-04-25T08:17:37.000Z</time>
      </trkpt>
      <trkpt lat="47.27548" lon="4.97878">
        <ele>337</ele>
        <time>2015-04-25T08:17:42.000Z</time>
      </trkpt>
      <trkpt lat="47.2755" lon="4.97881">
        <ele>336.8</ele>
        <time>2015-04-25T08:17:44.000Z</time>
      </trkpt>
      <trkpt lat="47.27557" lon="4.97885">
        <ele>336.7</ele>
        <time>2015-04-25T08:17:49.000Z</time>
      </trkpt>
      <trkpt lat="47.2756" lon="4.97885">
        <ele>337</ele>
        <time>2015-04-25T08:17:52.000Z</time>
      </trkpt>
      <trkpt lat="47.27565" lon="4.97881">
        <ele>338</ele>
        <time>2015-04-25T08:17:58.000Z</time>
      </trkpt>
      <trkpt lat="47.27572" lon="4.97879">
        <ele>338.9</ele>
        <time>2015-04-25T08:18:04.000Z</time>
      </trkpt>
      <trkpt lat="47.27573" lon="4.97879">
        <ele>339.1</ele>
        <time>2015-04-25T08:18:05.000Z</time>
      </trkpt>
      <trkpt lat="47.27584" lon="4.97875">
        <ele>340.5</ele>
        <time>2015-04-25T08:18:14.000Z</time>
      </trkpt>
      <trkpt lat="47.27587" lon="4.97875">
        <ele>340.7</ele>
        <time>2015-04-25T08:18:17.000Z</time>
      </trkpt>
      <trkpt lat="47.27593" lon="4.97872">
        <ele>341.4</ele>
        <time>2015-04-25T08:18:23.000Z</time>
      </trkpt>
      <trkpt lat="47.27594" lon="4.97871">
        <ele>341.5</ele>
        <time>2015-04-25T08:18:24.000Z</time>
      </trkpt>
      <trkpt lat="47.27597" lon="4.9787">
        <ele>341.9</ele>
        <time>2015-04-25T08:18:28.000Z</time>
      </trkpt>
      <trkpt lat="47.27602" lon="4.9787">
        <ele>342.2</ele>
        <time>2015-04-25T08:18:33.000Z</time>
      </trkpt>
      <trkpt lat="47.27609" lon="4.97867">
        <ele>343</ele>
        <time>2015-04-25T08:18:38.000Z</time>
      </trkpt>
      <trkpt lat="47.2761" lon="4.97868">
        <ele>343</ele>
        <time>2015-04-25T08:18:39.000Z</time>
      </trkpt>
      <trkpt lat="47.27615" lon="4.97867">
        <ele>343.4</ele>
        <time>2015-04-25T08:18:44.000Z</time>
      </trkpt>
      <trkpt lat="47.27617" lon="4.97865">
        <ele>343.6</ele>
        <time>2015-04-25T08:18:46.000Z</time>
      </trkpt>
      <trkpt lat="47.27623" lon="4.97863">
        <ele>344.1</ele>
        <time>2015-04-25T08:18:51.000Z</time>
      </trkpt>
      <trkpt lat="47.27628" lon="4.97862">
        <ele>344.5</ele>
        <time>2015-04-25T08:18:56.000Z</time>
      </trkpt>
      <trkpt lat="47.27639" lon="4.97864">
        <ele>344.7</ele>
        <time>2015-04-25T08:19:06.000Z</time>
      </trkpt>
      <trkpt lat="47.27643" lon="4.97865">
        <ele>344.7</ele>
        <time>2015-04-25T08:19:10.000Z</time>
      </trkpt>
      <trkpt lat="47.27655" lon="4.97869">
        <ele>344.6</ele>
        <time>2015-04-25T08:19:19.000Z</time>
      </trkpt>
      <trkpt lat="47.27663" lon="4.9787">
        <ele>344.7</ele>
        <time>2015-04-25T08:19:26.000Z</time>
      </trkpt>
      <trkpt lat="47.27664" lon="4.9787">
        <ele>344.7</ele>
        <time>2015-04-25T08:19:27.000Z</time>
      </trkpt>
      <trkpt lat="47.27669" lon="4.97872">
        <ele>344.5</ele>
        <time>2015-04-25T08:19:31.000Z</time>
      </trkpt>
      <trkpt lat="47.27676" lon="4.97874">
        <ele>344.5</ele>
        <time>2015-04-25T08:19:36.000Z</time>
      </trkpt>
      <trkpt lat="47.27678" lon="4.97874">
        <ele>344.6</ele>
        <time>2015-04-25T08:19:37.000Z</time>
      </trkpt>
      <trkpt lat="47.27687" lon="4.97875">
        <ele>344.7</ele>
        <time>2015-04-25T08:19:43.000Z</time>
      </trkpt>
      <trkpt lat="47.27693" lon="4.97873">
        <ele>345.2</ele>
        <time>2015-04-25T08:19:49.000Z</time>
      </trkpt>
      <trkpt lat="47.27694" lon="4.97873">
        <ele>345.3</ele>
        <time>2015-04-25T08:19:50.000Z</time>
      </trkpt>
      <trkpt lat="47.27698" lon="4.97869">
        <ele>345.8</ele>
        <time>2015-04-25T08:19:54.000Z</time>
      </trkpt>
      <trkpt lat="47.27703" lon="4.97866">
        <ele>346</ele>
        <time>2015-04-25T08:19:59.000Z</time>
      </trkpt>
      <trkpt lat="47.27712" lon="4.97869">
        <ele>345.4</ele>
        <time>2015-04-25T08:20:06.000Z</time>
      </trkpt>
      <trkpt lat="47.27718" lon="4.9787">
        <ele>345.2</ele>
        <time>2015-04-25T08:20:10.000Z</time>
      </trkpt>
      <trkpt lat="47.27725" lon="4.97867">
        <ele>345.3</ele>
        <time>2015-04-25T08:20:16.000Z</time>
      </trkpt>
      <trkpt lat="47.27731" lon="4.97866">
        <ele>345.2</ele>
        <time>2015-04-25T08:20:20.000Z</time>
      </trkpt>
      <trkpt lat="47.27732" lon="4.97866">
        <ele>345.1</ele>
        <time>2015-04-25T08:20:21.000Z</time>
      </trkpt>
      <trkpt lat="47.27737" lon="4.97866">
        <ele>344.9</ele>
        <time>2015-04-25T08:20:26.000Z</time>
      </trkpt>
      <trkpt lat="47.27741" lon="4.97867">
        <ele>344.7</ele>
        <time>2015-04-25T08:20:30.000Z</time>
      </trkpt>
      <trkpt lat="47.27747" lon="4.97868">
        <ele>344.4</ele>
        <time>2015-04-25T08:20:35.000Z</time>
      </trkpt>
      <trkpt lat="47.27748" lon="4.97869">
        <ele>344.3</ele>
        <time>2015-04-25T08:20:37.000Z</time>
      </trkpt>
      <trkpt lat="47.27754" lon="4.97869">
        <ele>343.8</ele>
        <time>2015-04-25T08:20:43.000Z</time>
      </trkpt>
      <trkpt lat="47.27755" lon="4.97869">
        <ele>343.8</ele>
        <time>2015-04-25T08:20:44.000Z</time>
      </trkpt>
      <trkpt lat="47.27757" lon="4.97869">
        <ele>343.6</ele>
        <time>2015-04-25T08:20:46.000Z</time>
      </trkpt>
      <trkpt lat="47.27765" lon="4.97872">
        <ele>342.7</ele>
        <time>2015-04-25T08:20:53.000Z</time>
      </trkpt>
      <trkpt lat="47.27769" lon="4.97872">
        <ele>342.4</ele>
        <time>2015-04-25T08:20:58.000Z</time>
      </trkpt>
      <trkpt lat="47.27771" lon="4.97873">
        <ele>342.3</ele>
        <time>2015-04-25T08:21:00.000Z</time>
      </trkpt>
      <trkpt lat="47.27775" lon="4.97877">
        <ele>341.5</ele>
        <time>2015-04-25T08:21:05.000Z</time>
      </trkpt>
      <trkpt lat="47.27779" lon="4.97879">
        <ele>340.9</ele>
        <time>2015-04-25T08:21:08.000Z</time>
      </trkpt>
      <trkpt lat="47.27782" lon="4.97882">
        <ele>340.1</ele>
        <time>2015-04-25T08:21:12.000Z</time>
      </trkpt>
      <trkpt lat="47.27788" lon="4.97886">
        <ele>338.8</ele>
        <time>2015-04-25T08:21:18.000Z</time>
      </trkpt>
      <trkpt lat="47.27792" lon="4.9789">
        <ele>337.8</ele>
        <time>2015-04-25T08:21:23.000Z</time>
      </trkpt>
      <trkpt lat="47.27795" lon="4.97892">
        <ele>337</ele>
        <time>2015-04-25T08:21:27.000Z</time>
      </trkpt>
      <trkpt lat="47.278" lon="4.97896">
        <ele>335.9</ele>
        <time>2015-04-25T08:21:31.000Z</time>
      </trkpt>
      <trkpt lat="47.27803" lon="4.979">
        <ele>334.8</ele>
        <time>2015-04-25T08:21:35.000Z</time>
      </trkpt>
      <trkpt lat="47.27807" lon="4.97904">
        <ele>333.5</ele>
        <time>2015-04-25T08:21:40.000Z</time>
      </trkpt>
      <trkpt lat="47.2781" lon="4.97908">
        <ele>332.3</ele>
        <time>2015-04-25T08:21:45.000Z</time>
      </trkpt>
      <trkpt lat="47.27812" lon="4.97911">
        <ele>331.3</ele>
        <time>2015-04-25T08:21:48.000Z</time>
      </trkpt>
      <trkpt lat="47.27815" lon="4.97915">
        <ele>330.1</ele>
        <time>2015-04-25T08:21:53.000Z</time>
      </trkpt>
      <trkpt lat="47.27819" lon="4.97917">
        <ele>328.9</ele>
        <time>2015-04-25T08:21:58.000Z</time>
      </trkpt>
      <trkpt lat="47.2782" lon="4.97918">
        <ele>328.6</ele>
        <time>2015-04-25T08:21:59.000Z</time>
      </trkpt>
      <trkpt lat="47.27821" lon="4.97921">
        <ele>327.9</ele>
        <time>2015-04-25T08:22:01.000Z</time>
      </trkpt>
      <trkpt lat="47.27823" lon="4.97922">
        <ele>327.3</ele>
        <time>2015-04-25T08:22:03.000Z</time>
      </trkpt>
      <trkpt lat="47.27825" lon="4.97921">
        <ele>327.1</ele>
        <time>2015-04-25T08:22:09.000Z</time>
      </trkpt>
      <trkpt lat="47.27832" lon="4.97926">
        <ele>324.5</ele>
        <time>2015-04-25T08:22:19.000Z</time>
      </trkpt>
      <trkpt lat="47.27837" lon="4.9793">
        <ele>322.5</ele>
        <time>2015-04-25T08:22:24.000Z</time>
      </trkpt>
      <trkpt lat="47.27838" lon="4.97931">
        <ele>322</ele>
        <time>2015-04-25T08:22:26.000Z</time>
      </trkpt>
      <trkpt lat="47.2784" lon="4.97933">
        <ele>321.2</ele>
        <time>2015-04-25T08:22:28.000Z</time>
      </trkpt>
      <trkpt lat="47.27845" lon="4.97941">
        <ele>318.2</ele>
        <time>2015-04-25T08:22:34.000Z</time>
      </trkpt>
      <trkpt lat="47.27849" lon="4.97944">
        <ele>316.7</ele>
        <time>2015-04-25T08:22:38.000Z</time>
      </trkpt>
      <trkpt lat="47.27857" lon="4.97945">
        <ele>314.1</ele>
        <time>2015-04-25T08:22:44.000Z</time>
      </trkpt>
      <trkpt lat="47.27858" lon="4.97945">
        <ele>313.8</ele>
        <time>2015-04-25T08:22:45.000Z</time>
      </trkpt>
      <trkpt lat="47.27864" lon="4.97947">
        <ele>312.2</ele>
        <time>2015-04-25T08:22:50.000Z</time>
      </trkpt>
      <trkpt lat="47.27868" lon="4.97946">
        <ele>311.9</ele>
        <time>2015-04-25T08:22:53.000Z</time>
      </trkpt>
      <trkpt lat="47.27875" lon="4.97938">
        <ele>311.7</ele>
        <time>2015-04-25T08:23:09.000Z</time>
      </trkpt>
      <trkpt lat="47.27877" lon="4.97937">
        <ele>311.5</ele>
        <time>2015-04-25T08:23:10.000Z</time>
      </trkpt>
      <trkpt lat="47.2788" lon="4.97933">
        <ele>311.4</ele>
        <time>2015-04-25T08:23:13.000Z</time>
      </trkpt>
      <trkpt lat="47.27884" lon="4.97929">
        <ele>311</ele>
        <time>2015-04-25T08:23:16.000Z</time>
      </trkpt>
      <trkpt lat="47.27887" lon="4.97922">
        <ele>311</ele>
        <time>2015-04-25T08:23:21.000Z</time>
      </trkpt>
      <trkpt lat="47.27889" lon="4.97917">
        <ele>311</ele>
        <time>2015-04-25T08:23:24.000Z</time>
      </trkpt>
      <trkpt lat="47.27891" lon="4.97915">
        <ele>311.1</ele>
        <time>2015-04-25T08:23:26.000Z</time>
      </trkpt>
      <trkpt lat="47.27893" lon="4.97908">
        <ele>311.7</ele>
        <time>2015-04-25T08:23:30.000Z</time>
      </trkpt>
      <trkpt lat="47.27894" lon="4.97907">
        <ele>311.8</ele>
        <time>2015-04-25T08:23:31.000Z</time>
      </trkpt>
      <trkpt lat="47.27898" lon="4.97902">
        <ele>311.8</ele>
        <time>2015-04-25T08:23:35.000Z</time>
      </trkpt>
      <trkpt lat="47.27902" lon="4.97896">
        <ele>311.9</ele>
        <time>2015-04-25T08:23:41.000Z</time>
      </trkpt>
      <trkpt lat="47.27902" lon="4.97894">
        <ele>312</ele>
        <time>2015-04-25T08:23:42.000Z</time>
      </trkpt>
      <trkpt lat="47.27904" lon="4.97892">
        <ele>312</ele>
        <time>2015-04-25T08:23:44.000Z</time>
      </trkpt>
      <trkpt lat="47.27909" lon="4.97887">
        <ele>311.7</ele>
        <time>2015-04-25T08:23:49.000Z</time>
      </trkpt>
      <trkpt lat="47.27917" lon="4.97882">
        <ele>311</ele>
        <time>2015-04-25T08:23:55.000Z</time>
      </trkpt>
      <trkpt lat="47.27917" lon="4.97878">
        <ele>311.5</ele>
        <time>2015-04-25T08:23:58.000Z</time>
      </trkpt>
      <trkpt lat="47.27919" lon="4.97876">
        <ele>311.7</ele>
        <time>2015-04-25T08:23:59.000Z</time>
      </trkpt>
      <trkpt lat="47.27927" lon="4.97867">
        <ele>311.9</ele>
        <time>2015-04-25T08:24:06.000Z</time>
      </trkpt>
      <trkpt lat="47.27927" lon="4.97865">
        <ele>311.9</ele>
        <time>2015-04-25T08:24:07.000Z</time>
      </trkpt>
      <trkpt lat="47.27931" lon="4.97861">
        <ele>312</ele>
        <time>2015-04-25T08:24:10.000Z</time>
      </trkpt>
      <trkpt lat="47.27938" lon="4.9785">
        <ele>312.2</ele>
        <time>2015-04-25T08:24:18.000Z</time>
      </trkpt>
      <trkpt lat="47.2794" lon="4.97847">
        <ele>312.3</ele>
        <time>2015-04-25T08:24:21.000Z</time>
      </trkpt>
      <trkpt lat="47.27943" lon="4.97843">
        <ele>312.2</ele>
        <time>2015-04-25T08:24:23.000Z</time>
      </trkpt>
      <trkpt lat="47.27943" lon="4.97842">
        <ele>312.3</ele>
        <time>2015-04-25T08:24:24.000Z</time>
      </trkpt>
      <trkpt lat="47.27948" lon="4.97834">
        <ele>312.5</ele>
        <time>2015-04-25T08:24:29.000Z</time>
      </trkpt>
      <trkpt lat="47.27952" lon="4.97829">
        <ele>312.6</ele>
        <time>2015-04-25T08:24:33.000Z</time>
      </trkpt>
      <trkpt lat="47.27952" lon="4.97828">
        <ele>312.7</ele>
        <time>2015-04-25T08:24:34.000Z</time>
      </trkpt>
      <trkpt lat="47.27952" lon="4.97827">
        <ele>312.8</ele>
        <time>2015-04-25T08:24:35.000Z</time>
      </trkpt>
      <trkpt lat="47.27958" lon="4.97819">
        <ele>312.8</ele>
        <time>2015-04-25T08:24:41.000Z</time>
      </trkpt>
      <trkpt lat="47.27959" lon="4.97816">
        <ele>313</ele>
        <time>2015-04-25T08:24:43.000Z</time>
      </trkpt>
      <trkpt lat="47.27959" lon="4.97813">
        <ele>313.2</ele>
        <time>2015-04-25T08:24:45.000Z</time>
      </trkpt>
      <trkpt lat="47.2796" lon="4.9781">
        <ele>313.4</ele>
        <time>2015-04-25T08:24:48.000Z</time>
      </trkpt>
      <trkpt lat="47.27962" lon="4.97803">
        <ele>313.7</ele>
        <time>2015-04-25T08:24:51.000Z</time>
      </trkpt>
      <trkpt lat="47.27969" lon="4.97796">
        <ele>313.2</ele>
        <time>2015-04-25T08:24:58.000Z</time>
      </trkpt>
      <trkpt lat="47.27973" lon="4.97786">
        <ele>313.2</ele>
        <time>2015-04-25T08:25:02.000Z</time>
      </trkpt>
      <trkpt lat="47.27977" lon="4.97776">
        <ele>313.5</ele>
        <time>2015-04-25T08:25:07.000Z</time>
      </trkpt>
      <trkpt lat="47.27977" lon="4.97775">
        <ele>313.5</ele>
        <time>2015-04-25T08:25:08.000Z</time>
      </trkpt>
      <trkpt lat="47.27979" lon="4.97768">
        <ele>313.7</ele>
        <time>2015-04-25T08:25:12.000Z</time>
      </trkpt>
      <trkpt lat="47.27984" lon="4.97759">
        <ele>313.6</ele>
        <time>2015-04-25T08:25:19.000Z</time>
      </trkpt>
      <trkpt lat="47.27989" lon="4.97751">
        <ele>313.5</ele>
        <time>2015-04-25T08:25:23.000Z</time>
      </trkpt>
      <trkpt lat="47.27992" lon="4.97747">
        <ele>313.5</ele>
        <time>2015-04-25T08:25:25.000Z</time>
      </trkpt>
      <trkpt lat="47.27998" lon="4.9774">
        <ele>313.1</ele>
        <time>2015-04-25T08:25:29.000Z</time>
      </trkpt>
      <trkpt lat="47.28003" lon="4.97727">
        <ele>313.4</ele>
        <time>2015-04-25T08:25:36.000Z</time>
      </trkpt>
      <trkpt lat="47.28005" lon="4.97723">
        <ele>313.4</ele>
        <time>2015-04-25T08:25:38.000Z</time>
      </trkpt>
      <trkpt lat="47.28006" lon="4.97718">
        <ele>313.6</ele>
        <time>2015-04-25T08:25:42.000Z</time>
      </trkpt>
      <trkpt lat="47.28006" lon="4.97715">
        <ele>313.8</ele>
        <time>2015-04-25T08:25:44.000Z</time>
      </trkpt>
      <trkpt lat="47.28011" lon="4.97705">
        <ele>314</ele>
        <time>2015-04-25T08:25:51.000Z</time>
      </trkpt>
      <trkpt lat="47.28017" lon="4.97696">
        <ele>314.1</ele>
        <time>2015-04-25T08:25:59.000Z</time>
      </trkpt>
      <trkpt lat="47.28015" lon="4.97689">
        <ele>314.7</ele>
        <time>2015-04-25T08:26:03.000Z</time>
      </trkpt>
      <trkpt lat="47.28015" lon="4.97679">
        <ele>315.1</ele>
        <time>2015-04-25T08:26:09.000Z</time>
      </trkpt>
      <trkpt lat="47.28018" lon="4.97672">
        <ele>315.2</ele>
        <time>2015-04-25T08:26:14.000Z</time>
      </trkpt>
      <trkpt lat="47.2802" lon="4.97663">
        <ele>315.4</ele>
        <time>2015-04-25T08:26:19.000Z</time>
      </trkpt>
      <trkpt lat="47.28024" lon="4.97654">
        <ele>315.5</ele>
        <time>2015-04-25T08:26:24.000Z</time>
      </trkpt>
      <trkpt lat="47.28027" lon="4.97646">
        <ele>315.6</ele>
        <time>2015-04-25T08:26:28.000Z</time>
      </trkpt>
      <trkpt lat="47.28029" lon="4.97639">
        <ele>315.8</ele>
        <time>2015-04-25T08:26:32.000Z</time>
      </trkpt>
      <trkpt lat="47.28032" lon="4.97632">
        <ele>315.8</ele>
        <time>2015-04-25T08:26:36.000Z</time>
      </trkpt>
      <trkpt lat="47.28032" lon="4.97629">
        <ele>315.9</ele>
        <time>2015-04-25T08:26:38.000Z</time>
      </trkpt>
      <trkpt lat="47.28032" lon="4.97626">
        <ele>316</ele>
        <time>2015-04-25T08:26:40.000Z</time>
      </trkpt>
      <trkpt lat="47.28036" lon="4.9762">
        <ele>315.8</ele>
        <time>2015-04-25T08:26:44.000Z</time>
      </trkpt>
      <trkpt lat="47.28037" lon="4.97618">
        <ele>315.8</ele>
        <time>2015-04-25T08:26:45.000Z</time>
      </trkpt>
      <trkpt lat="47.28038" lon="4.97616">
        <ele>315.7</ele>
        <time>2015-04-25T08:26:46.000Z</time>
      </trkpt>
      <trkpt lat="47.28041" lon="4.97606">
        <ele>315.9</ele>
        <time>2015-04-25T08:26:52.000Z</time>
      </trkpt>
      <trkpt lat="47.28041" lon="4.97604">
        <ele>316.1</ele>
        <time>2015-04-25T08:26:53.000Z</time>
      </trkpt>
      <trkpt lat="47.28041" lon="4.97602">
        <ele>316.2</ele>
        <time>2015-04-25T08:26:54.000Z</time>
      </trkpt>
      <trkpt lat="47.28045" lon="4.97593">
        <ele>316.5</ele>
        <time>2015-04-25T08:26:59.000Z</time>
      </trkpt>
      <trkpt lat="47.28047" lon="4.97583">
        <ele>317</ele>
        <time>2015-04-25T08:27:05.000Z</time>
      </trkpt>
      <trkpt lat="47.2805" lon="4.97572">
        <ele>317.5</ele>
        <time>2015-04-25T08:27:10.000Z</time>
      </trkpt>
      <trkpt lat="47.28052" lon="4.97563">
        <ele>318</ele>
        <time>2015-04-25T08:27:16.000Z</time>
      </trkpt>
      <trkpt lat="47.28052" lon="4.97559">
        <ele>318.3</ele>
        <time>2015-04-25T08:27:18.000Z</time>
      </trkpt>
      <trkpt lat="47.28053" lon="4.97549">
        <ele>318.9</ele>
        <time>2015-04-25T08:27:24.000Z</time>
      </trkpt>
      <trkpt lat="47.28054" lon="4.97547">
        <ele>318.8</ele>
        <time>2015-04-25T08:27:25.000Z</time>
      </trkpt>
      <trkpt lat="47.28056" lon="4.97543">
        <ele>318.9</ele>
        <time>2015-04-25T08:27:27.000Z</time>
      </trkpt>
      <trkpt lat="47.28059" lon="4.97535">
        <ele>319</ele>
        <time>2015-04-25T08:27:31.000Z</time>
      </trkpt>
      <trkpt lat="47.2806" lon="4.97529">
        <ele>319.3</ele>
        <time>2015-04-25T08:27:34.000Z</time>
      </trkpt>
      <trkpt lat="47.2806" lon="4.97526">
        <ele>319.5</ele>
        <time>2015-04-25T08:27:36.000Z</time>
      </trkpt>
      <trkpt lat="47.28063" lon="4.97515">
        <ele>319.4</ele>
        <time>2015-04-25T08:27:43.000Z</time>
      </trkpt>
      <trkpt lat="47.28063" lon="4.97506">
        <ele>319.7</ele>
        <time>2015-04-25T08:27:47.000Z</time>
      </trkpt>
      <trkpt lat="47.28063" lon="4.97498">
        <ele>320</ele>
        <time>2015-04-25T08:27:51.000Z</time>
      </trkpt>
      <trkpt lat="47.28063" lon="4.97484">
        <ele>321</ele>
        <time>2015-04-25T08:27:58.000Z</time>
      </trkpt>
      <trkpt lat="47.28067" lon="4.9747">
        <ele>321.6</ele>
        <time>2015-04-25T08:28:06.000Z</time>
      </trkpt>
      <trkpt lat="47.28068" lon="4.9746">
        <ele>322.3</ele>
        <time>2015-04-25T08:28:11.000Z</time>
      </trkpt>
      <trkpt lat="47.28068" lon="4.97458">
        <ele>322.5</ele>
        <time>2015-04-25T08:28:12.000Z</time>
      </trkpt>
      <trkpt lat="47.28068" lon="4.97454">
        <ele>322.9</ele>
        <time>2015-04-25T08:28:14.000Z</time>
      </trkpt>
      <trkpt lat="47.28068" lon="4.97447">
        <ele>323.6</ele>
        <time>2015-04-25T08:28:18.000Z</time>
      </trkpt>
      <trkpt lat="47.2807" lon="4.97438">
        <ele>323.9</ele>
        <time>2015-04-25T08:28:22.000Z</time>
      </trkpt>
      <trkpt lat="47.2807" lon="4.97431">
        <ele>324.3</ele>
        <time>2015-04-25T08:28:26.000Z</time>
      </trkpt>
      <trkpt lat="47.2807" lon="4.97427">
        <ele>324.6</ele>
        <time>2015-04-25T08:28:28.000Z</time>
      </trkpt>
      <trkpt lat="47.28073" lon="4.97415">
        <ele>324.9</ele>
        <time>2015-04-25T08:28:35.000Z</time>
      </trkpt>
      <trkpt lat="47.28075" lon="4.97407">
        <ele>325.2</ele>
        <time>2015-04-25T08:28:40.000Z</time>
      </trkpt>
      <trkpt lat="47.28075" lon="4.97405">
        <ele>325.4</ele>
        <time>2015-04-25T08:28:41.000Z</time>
      </trkpt>
      <trkpt lat="47.28075" lon="4.9739">
        <ele>326.4</ele>
        <time>2015-04-25T08:28:48.000Z</time>
      </trkpt>
      <trkpt lat="47.28075" lon="4.97385">
        <ele>326.7</ele>
        <time>2015-04-25T08:28:51.000Z</time>
      </trkpt>
      <trkpt lat="47.28076" lon="4.97373">
        <ele>327.1</ele>
        <time>2015-04-25T08:28:57.000Z</time>
      </trkpt>
      <trkpt lat="47.28077" lon="4.97366">
        <ele>327.1</ele>
        <time>2015-04-25T08:29:00.000Z</time>
      </trkpt>
      <trkpt lat="47.2808" lon="4.97357">
        <ele>327.2</ele>
        <time>2015-04-25T08:29:04.000Z</time>
      </trkpt>
      <trkpt lat="47.28081" lon="4.97345">
        <ele>328.2</ele>
        <time>2015-04-25T08:29:10.000Z</time>
      </trkpt>
      <trkpt lat="47.2808" lon="4.97338">
        <ele>329.2</ele>
        <time>2015-04-25T08:29:14.000Z</time>
      </trkpt>
      <trkpt lat="47.28081" lon="4.97333">
        <ele>329.5</ele>
        <time>2015-04-25T08:29:18.000Z</time>
      </trkpt>
      <trkpt lat="47.28082" lon="4.97325">
        <ele>329.9</ele>
        <time>2015-04-25T08:29:22.000Z</time>
      </trkpt>
      <trkpt lat="47.28081" lon="4.97321">
        <ele>330.5</ele>
        <time>2015-04-25T08:29:24.000Z</time>
      </trkpt>
      <trkpt lat="47.28081" lon="4.97316">
        <ele>330.8</ele>
        <time>2015-04-25T08:29:26.000Z</time>
      </trkpt>
      <trkpt lat="47.28082" lon="4.97304">
        <ele>331.6</ele>
        <time>2015-04-25T08:29:32.000Z</time>
      </trkpt>
      <trkpt lat="47.28085" lon="4.97295">
        <ele>331.5</ele>
        <time>2015-04-25T08:29:38.000Z</time>
      </trkpt>
      <trkpt lat="47.28086" lon="4.97293">
        <ele>331.5</ele>
        <time>2015-04-25T08:29:40.000Z</time>
      </trkpt>
      <trkpt lat="47.2809" lon="4.97292">
        <ele>330.8</ele>
        <time>2015-04-25T08:29:48.000Z</time>
      </trkpt>
      <trkpt lat="47.28094" lon="4.97294">
        <ele>330.1</ele>
        <time>2015-04-25T08:29:55.000Z</time>
      </trkpt>
      <trkpt lat="47.28097" lon="4.97295">
        <ele>329.6</ele>
        <time>2015-04-25T08:30:00.000Z</time>
      </trkpt>
      <trkpt lat="47.28102" lon="4.97298">
        <ele>328.3</ele>
        <time>2015-04-25T08:30:08.000Z</time>
      </trkpt>
      <trkpt lat="47.28106" lon="4.97299">
        <ele>327.6</ele>
        <time>2015-04-25T08:30:14.000Z</time>
      </trkpt>
      <trkpt lat="47.28112" lon="4.97301">
        <ele>326.3</ele>
        <time>2015-04-25T08:30:20.000Z</time>
      </trkpt>
      <trkpt lat="47.28115" lon="4.97301">
        <ele>325.9</ele>
        <time>2015-04-25T08:30:21.000Z</time>
      </trkpt>
      <trkpt lat="47.28119" lon="4.97304">
        <ele>325.1</ele>
        <time>2015-04-25T08:30:26.000Z</time>
      </trkpt>
      <trkpt lat="47.28123" lon="4.97307">
        <ele>324.3</ele>
        <time>2015-04-25T08:30:32.000Z</time>
      </trkpt>
      <trkpt lat="47.28125" lon="4.97311">
        <ele>323.7</ele>
        <time>2015-04-25T08:30:38.000Z</time>
      </trkpt>
      <trkpt lat="47.28129" lon="4.97315">
        <ele>322.8</ele>
        <time>2015-04-25T08:30:45.000Z</time>
      </trkpt>
      <trkpt lat="47.28135" lon="4.97319">
        <ele>321.6</ele>
        <time>2015-04-25T08:30:53.000Z</time>
      </trkpt>
      <trkpt lat="47.28138" lon="4.97322">
        <ele>320.9</ele>
        <time>2015-04-25T08:30:58.000Z</time>
      </trkpt>
      <trkpt lat="47.28143" lon="4.97325">
        <ele>319.8</ele>
        <time>2015-04-25T08:31:05.000Z</time>
      </trkpt>
      <trkpt lat="47.28147" lon="4.97326">
        <ele>319.1</ele>
        <time>2015-04-25T08:31:10.000Z</time>
      </trkpt>
      <trkpt lat="47.28152" lon="4.9733">
        <ele>317.8</ele>
        <time>2015-04-25T08:31:25.000Z</time>
      </trkpt>
      <trkpt lat="47.28156" lon="4.97329">
        <ele>317.2</ele>
        <time>2015-04-25T08:31:29.000Z</time>
      </trkpt>
      <trkpt lat="47.28158" lon="4.97326">
        <ele>317</ele>
        <time>2015-04-25T08:31:31.000Z</time>
      </trkpt>
      <trkpt lat="47.28162" lon="4.97321">
        <ele>316.6</ele>
        <time>2015-04-25T08:31:35.000Z</time>
      </trkpt>
      <trkpt lat="47.28163" lon="4.97321">
        <ele>316.5</ele>
        <time>2015-04-25T08:31:36.000Z</time>
      </trkpt>
      <trkpt lat="47.28167" lon="4.9732">
        <ele>316</ele>
        <time>2015-04-25T08:31:39.000Z</time>
      </trkpt>
      <trkpt lat="47.28174" lon="4.97316">
        <ele>315.4</ele>
        <time>2015-04-25T08:31:45.000Z</time>
      </trkpt>
      <trkpt lat="47.28179" lon="4.97313">
        <ele>314.9</ele>
        <time>2015-04-25T08:31:50.000Z</time>
      </trkpt>
      <trkpt lat="47.28181" lon="4.97312">
        <ele>314.7</ele>
        <time>2015-04-25T08:31:52.000Z</time>
      </trkpt>
      <trkpt lat="47.2819" lon="4.97307">
        <ele>313.6</ele>
        <time>2015-04-25T08:32:00.000Z</time>
      </trkpt>
      <trkpt lat="47.28195" lon="4.97302">
        <ele>313</ele>
        <time>2015-04-25T08:32:04.000Z</time>
      </trkpt>
      <trkpt lat="47.28199" lon="4.97299">
        <ele>313.4</ele>
        <time>2015-04-25T08:32:08.000Z</time>
      </trkpt>
      <trkpt lat="47.28201" lon="4.97298">
        <ele>313.5</ele>
        <time>2015-04-25T08:32:11.000Z</time>
      </trkpt>
      <trkpt lat="47.28207" lon="4.97299">
        <ele>314.1</ele>
        <time>2015-04-25T08:32:16.000Z</time>
      </trkpt>
      <trkpt lat="47.28209" lon="4.97302">
        <ele>314.4</ele>
        <time>2015-04-25T08:32:29.000Z</time>
      </trkpt>
      <trkpt lat="47.28207" lon="4.97302">
        <ele>314.2</ele>
        <time>2015-04-25T08:32:35.000Z</time>
      </trkpt>
      <trkpt lat="47.28207" lon="4.97298">
        <ele>314.1</ele>
        <time>2015-04-25T08:32:43.000Z</time>
      </trkpt>
      <trkpt lat="47.28207" lon="4.97295">
        <ele>314</ele>
        <time>2015-04-25T08:32:49.000Z</time>
      </trkpt>
      <trkpt lat="47.28221" lon="4.973">
        <ele>315.5</ele>
        <time>2015-04-25T08:33:42.000Z</time>
      </trkpt>
      <trkpt lat="47.2822" lon="4.973">
        <ele>315.4</ele>
        <time>2015-04-25T08:33:47.000Z</time>
      </trkpt>
      <trkpt lat="47.28221" lon="4.973">
        <ele>315.6</ele>
        <time>2015-04-25T08:33:57.000Z</time>
      </trkpt>
      <trkpt lat="47.28224" lon="4.97299">
        <ele>316.1</ele>
        <time>2015-04-25T08:34:04.000Z</time>
      </trkpt>
      <trkpt lat="47.28218" lon="4.97295">
        <ele>314.9</ele>
        <time>2015-04-25T08:34:48.000Z</time>
      </trkpt>
    </trkseg>
  </trk>
</gpx>